<?xml version="1.0" encoding="UTF-8" standalone="no" ?>
<gpx xmlns="http://www.topografix.com/GPX/1/1" xmlns:xsi="http://www.w3.org/2001/XMLSchema-instance" xsi:schemaLocation="http://www.topografix.com/GPX/1/1 http://www.topografix.com/GPX/1/1/gpx.xsd" version="1.1" creator="VisuGPX - https://www.visugpx.com">
  <metadata>
    <name>Velo vert 01</name>
  </metadata>
  <trk>
    <name><![CDATA[Velo vert 01]]></name>
    <extensions>
      <line xmlns="http://www.topografix.com/GPX/gpx_style/0/2">
        <color>0000FF</color>
        <width>4</width>
      </line>
    </extensions>
    <trkseg>
      <trkpt lat="46.07655" lon="6.72126">
        <ele>730.458781</ele>
        <time>2023-03-21T05:12:41.306Z</time>
      </trkpt>
      <trkpt lat="46.07582" lon="6.72061">
        <ele>730.458781</ele>
        <time>2023-03-21T05:13:18.641Z</time>
      </trkpt>
      <trkpt lat="46.07545" lon="6.72027">
        <ele>740.862746</ele>
        <time>2023-03-21T05:13:38.177Z</time>
      </trkpt>
      <trkpt lat="46.07507" lon="6.71993">
        <ele>752.342591</ele>
        <time>2023-03-21T05:13:57.754Z</time>
      </trkpt>
      <trkpt lat="46.07469" lon="6.71959">
        <ele>763.85395</ele>
        <time>2023-03-21T05:14:17.358Z</time>
      </trkpt>
      <trkpt lat="46.07432" lon="6.71925">
        <ele>775.365331</ele>
        <time>2023-03-21T05:14:36.891Z</time>
      </trkpt>
      <trkpt lat="46.07394" lon="6.71891">
        <ele>783.920674</ele>
        <time>2023-03-21T05:14:56.185Z</time>
      </trkpt>
      <trkpt lat="46.07356" lon="6.71858">
        <ele>791.993</ele>
        <time>2023-03-21T05:15:15.424Z</time>
      </trkpt>
      <trkpt lat="46.07281" lon="6.7179">
        <ele>808.131032</ele>
        <time>2023-03-21T05:15:53.809Z</time>
      </trkpt>
      <trkpt lat="46.07206" lon="6.71722">
        <ele>823.972937</ele>
        <time>2023-03-21T05:16:32.120Z</time>
      </trkpt>
      <trkpt lat="46.07168" lon="6.71688">
        <ele>831.889263</ele>
        <time>2023-03-21T05:16:51.327Z</time>
      </trkpt>
      <trkpt lat="46.0713" lon="6.71654">
        <ele>839.805603</ele>
        <time>2023-03-21T05:17:10.608Z</time>
      </trkpt>
      <trkpt lat="46.07093" lon="6.7162">
        <ele>851.928575</ele>
        <time>2023-03-21T05:17:30.002Z</time>
      </trkpt>
      <trkpt lat="46.07055" lon="6.71587">
        <ele>865.469283</ele>
        <time>2023-03-21T05:17:49.612Z</time>
      </trkpt>
      <trkpt lat="46.07017" lon="6.71553">
        <ele>879.010017</ele>
        <time>2023-03-21T05:18:09.392Z</time>
      </trkpt>
      <trkpt lat="46.0698" lon="6.71519">
        <ele>892.561964</ele>
        <time>2023-03-21T05:18:29.310Z</time>
      </trkpt>
      <trkpt lat="46.06942" lon="6.71485">
        <ele>908.358672</ele>
        <time>2023-03-21T05:18:49.347Z</time>
      </trkpt>
      <trkpt lat="46.06904" lon="6.71451">
        <ele>925.087149</ele>
        <time>2023-03-21T05:19:09.483Z</time>
      </trkpt>
      <trkpt lat="46.06867" lon="6.71417">
        <ele>941.801794</ele>
        <time>2023-03-21T05:19:29.549Z</time>
      </trkpt>
      <trkpt lat="46.06829" lon="6.71383">
        <ele>958.562324</ele>
        <time>2023-03-21T05:19:49.561Z</time>
      </trkpt>
      <trkpt lat="46.06791" lon="6.7135">
        <ele>976.901034</ele>
        <time>2023-03-21T05:20:09.572Z</time>
      </trkpt>
      <trkpt lat="46.06754" lon="6.71316">
        <ele>996.124698</ele>
        <time>2023-03-21T05:20:29.656Z</time>
      </trkpt>
      <trkpt lat="46.06716" lon="6.71282">
        <ele>1015.311706</ele>
        <time>2023-03-21T05:20:49.954Z</time>
      </trkpt>
      <trkpt lat="46.06678" lon="6.71248">
        <ele>1034.535443</ele>
        <time>2023-03-21T05:21:10.702Z</time>
      </trkpt>
      <trkpt lat="46.06641" lon="6.71214">
        <ele>1056.367905</ele>
        <time>2023-03-21T05:21:31.655Z</time>
      </trkpt>
      <trkpt lat="46.06603" lon="6.7118">
        <ele>1079.996652</ele>
        <time>2023-03-21T05:21:52.702Z</time>
      </trkpt>
      <trkpt lat="46.06565" lon="6.71146">
        <ele>1103.580346</ele>
        <time>2023-03-21T05:22:13.812Z</time>
      </trkpt>
      <trkpt lat="46.06528" lon="6.71113">
        <ele>1127.189674</ele>
        <time>2023-03-21T05:22:34.991Z</time>
      </trkpt>
      <trkpt lat="46.0649" lon="6.71079">
        <ele>1149.625115</ele>
        <time>2023-03-21T05:22:56.143Z</time>
      </trkpt>
      <trkpt lat="46.06452" lon="6.71045">
        <ele>1171.098096</ele>
        <time>2023-03-21T05:23:17.115Z</time>
      </trkpt>
      <trkpt lat="46.06414" lon="6.71011">
        <ele>1192.571117</ele>
        <time>2023-03-21T05:23:37.806Z</time>
      </trkpt>
      <trkpt lat="46.06377" lon="6.70977">
        <ele>1214.003197</ele>
        <time>2023-03-21T05:23:58.194Z</time>
      </trkpt>
      <trkpt lat="46.06339" lon="6.70943">
        <ele>1234.198474</ele>
        <time>2023-03-21T05:24:18.551Z</time>
      </trkpt>
      <trkpt lat="46.06301" lon="6.70909">
        <ele>1253.073916</ele>
        <time>2023-03-21T05:24:38.963Z</time>
      </trkpt>
      <trkpt lat="46.06264" lon="6.70875">
        <ele>1271.928937</ele>
        <time>2023-03-21T05:24:59.320Z</time>
      </trkpt>
      <trkpt lat="46.06226" lon="6.70842">
        <ele>1290.804451</ele>
        <time>2023-03-21T05:25:19.637Z</time>
      </trkpt>
      <trkpt lat="46.06189" lon="6.70808">
        <ele>1308.696027</ele>
        <time>2023-03-21T05:25:39.872Z</time>
      </trkpt>
      <trkpt lat="46.06151" lon="6.70774">
        <ele>1325.405916</ele>
        <time>2023-03-21T05:25:59.935Z</time>
      </trkpt>
      <trkpt lat="46.06113" lon="6.7074">
        <ele>1342.102039</ele>
        <time>2023-03-21T05:26:19.854Z</time>
      </trkpt>
      <trkpt lat="46.06075" lon="6.70706">
        <ele>1358.811992</ele>
        <time>2023-03-21T05:26:39.788Z</time>
      </trkpt>
      <trkpt lat="46.06038" lon="6.70672">
        <ele>1376.946141</ele>
        <time>2023-03-21T05:26:59.789Z</time>
      </trkpt>
      <trkpt lat="46.06" lon="6.70638">
        <ele>1397.360132</ele>
        <time>2023-03-21T05:27:20.003Z</time>
      </trkpt>
      <trkpt lat="46.05962" lon="6.70605">
        <ele>1417.791032</ele>
        <time>2023-03-21T05:27:40.514Z</time>
      </trkpt>
      <trkpt lat="46.05925" lon="6.70571">
        <ele>1438.221972</ele>
        <time>2023-03-21T05:28:01.363Z</time>
      </trkpt>
      <trkpt lat="46.05887" lon="6.70537">
        <ele>1459.281817</ele>
        <time>2023-03-21T05:28:22.533Z</time>
      </trkpt>
      <trkpt lat="46.05849" lon="6.70503">
        <ele>1481.486048</ele>
        <time>2023-03-21T05:28:43.774Z</time>
      </trkpt>
      <trkpt lat="46.05812" lon="6.70469">
        <ele>1503.751235</ele>
        <time>2023-03-21T05:29:04.990Z</time>
      </trkpt>
      <trkpt lat="46.05774" lon="6.70435">
        <ele>1525.998078</ele>
        <time>2023-03-21T05:29:25.800Z</time>
      </trkpt>
      <trkpt lat="46.05736" lon="6.70401">
        <ele>1544.453401</ele>
        <time>2023-03-21T05:29:46.132Z</time>
      </trkpt>
      <trkpt lat="46.05699" lon="6.70368">
        <ele>1553.74515</ele>
        <time>2023-03-21T05:30:05.966Z</time>
      </trkpt>
      <trkpt lat="46.05661" lon="6.70334">
        <ele>1563.036916</ele>
        <time>2023-03-21T05:30:25.332Z</time>
      </trkpt>
      <trkpt lat="46.05623" lon="6.703">
        <ele>1572.328701</ele>
        <time>2023-03-21T05:30:44.434Z</time>
      </trkpt>
      <trkpt lat="46.05548" lon="6.70232">
        <ele>1578.567633</ele>
        <time>2023-03-21T05:31:22.402Z</time>
      </trkpt>
      <trkpt lat="46.05539" lon="6.70238">
        <ele>1578.423088</ele>
        <time>2023-03-21T05:31:26.616Z</time>
      </trkpt>
      <trkpt lat="46.05519" lon="6.70215">
        <ele>1578.040351</ele>
        <time>2023-03-21T05:31:44.675Z</time>
      </trkpt>
      <trkpt lat="46.05518" lon="6.70217">
        <ele>1578.020869</ele>
        <time>2023-03-21T05:31:45.053Z</time>
      </trkpt>
      <trkpt lat="46.05483" lon="6.70224">
        <ele>1577.509211</ele>
        <time>2023-03-21T05:31:54.072Z</time>
      </trkpt>
      <trkpt lat="46.05467" lon="6.70213">
        <ele>1577.245764</ele>
        <time>2023-03-21T05:31:58.352Z</time>
      </trkpt>
      <trkpt lat="46.05449" lon="6.70186">
        <ele>1576.865013</ele>
        <time>2023-03-21T05:32:04.403Z</time>
      </trkpt>
      <trkpt lat="46.05446" lon="6.70165">
        <ele>1576.300256</ele>
        <time>2023-03-21T05:32:07.769Z</time>
      </trkpt>
      <trkpt lat="46.05445" lon="6.70114">
        <ele>1573.629281</ele>
        <time>2023-03-21T05:32:15.643Z</time>
      </trkpt>
      <trkpt lat="46.05444" lon="6.70111">
        <ele>1573.470569</ele>
        <time>2023-03-21T05:32:16.098Z</time>
      </trkpt>
      <trkpt lat="46.05441" lon="6.70104">
        <ele>1573.007241</ele>
        <time>2023-03-21T05:32:17.401Z</time>
      </trkpt>
      <trkpt lat="46.05426" lon="6.70085">
        <ele>1571.531116</ele>
        <time>2023-03-21T05:32:21.791Z</time>
      </trkpt>
      <trkpt lat="46.05411" lon="6.70087">
        <ele>1570.453022</ele>
        <time>2023-03-21T05:32:24.938Z</time>
      </trkpt>
      <trkpt lat="46.05415" lon="6.70103">
        <ele>1569.586375</ele>
        <time>2023-03-21T05:32:26.383Z</time>
      </trkpt>
      <trkpt lat="46.05415" lon="6.70116">
        <ele>1568.893121</ele>
        <time>2023-03-21T05:32:27.600Z</time>
      </trkpt>
      <trkpt lat="46.05411" lon="6.70214">
        <ele>1563.776835</ele>
        <time>2023-03-21T05:32:36.355Z</time>
      </trkpt>
      <trkpt lat="46.05409" lon="6.70225">
        <ele>1563.211502</ele>
        <time>2023-03-21T05:32:37.312Z</time>
      </trkpt>
      <trkpt lat="46.05407" lon="6.70241">
        <ele>1561.989559</ele>
        <time>2023-03-21T05:32:38.665Z</time>
      </trkpt>
      <trkpt lat="46.05396" lon="6.70236">
        <ele>1560.813465</ele>
        <time>2023-03-21T05:32:41.021Z</time>
      </trkpt>
      <trkpt lat="46.05391" lon="6.7023">
        <ele>1560.07583</ele>
        <time>2023-03-21T05:32:42.531Z</time>
      </trkpt>
      <trkpt lat="46.05372" lon="6.70192">
        <ele>1556.560994</ele>
        <time>2023-03-21T05:32:49.448Z</time>
      </trkpt>
      <trkpt lat="46.05351" lon="6.70172">
        <ele>1553.880481</ele>
        <time>2023-03-21T05:32:54.681Z</time>
      </trkpt>
      <trkpt lat="46.05341" lon="6.70167">
        <ele>1552.721286</ele>
        <time>2023-03-21T05:32:56.924Z</time>
      </trkpt>
      <trkpt lat="46.05294" lon="6.70159">
        <ele>1547.693539</ele>
        <time>2023-03-21T05:33:06.662Z</time>
      </trkpt>
      <trkpt lat="46.05183" lon="6.70125">
        <ele>1536.902505</ele>
        <time>2023-03-21T05:33:30.739Z</time>
      </trkpt>
      <trkpt lat="46.05161" lon="6.70121">
        <ele>1534.917054</ele>
        <time>2023-03-21T05:33:35.495Z</time>
      </trkpt>
      <trkpt lat="46.0512" lon="6.70119">
        <ele>1531.224575</ele>
        <time>2023-03-21T05:33:44.803Z</time>
      </trkpt>
      <trkpt lat="46.05094" lon="6.70129">
        <ele>1528.840104</ele>
        <time>2023-03-21T05:33:50.895Z</time>
      </trkpt>
      <trkpt lat="46.05073" lon="6.70132">
        <ele>1527.539</ele>
        <time>2023-03-21T05:33:55.778Z</time>
      </trkpt>
      <trkpt lat="46.05046" lon="6.70104">
        <ele>1526.673006</ele>
        <time>2023-03-21T05:34:03.759Z</time>
      </trkpt>
      <trkpt lat="46.05046" lon="6.70104">
        <ele>1526.673006</ele>
        <time>2023-03-21T05:34:03.901Z</time>
      </trkpt>
      <trkpt lat="46.05046" lon="6.70104">
        <ele>1526.673006</ele>
        <time>2023-03-21T05:34:03.901Z</time>
      </trkpt>
      <trkpt lat="46.05047" lon="6.70075">
        <ele>1526.137282</ele>
        <time>2023-03-21T05:34:12.513Z</time>
      </trkpt>
      <trkpt lat="46.05045" lon="6.70051">
        <ele>1525.679272</ele>
        <time>2023-03-21T05:34:19.879Z</time>
      </trkpt>
      <trkpt lat="46.05035" lon="6.70031">
        <ele>1525.23909</ele>
        <time>2023-03-21T05:34:26.952Z</time>
      </trkpt>
      <trkpt lat="46.04947" lon="6.70018">
        <ele>1523.506146</ele>
        <time>2023-03-21T05:35:05.054Z</time>
      </trkpt>
      <trkpt lat="46.04858" lon="6.70005">
        <ele>1531.520204</ele>
        <time>2023-03-21T05:35:43.168Z</time>
      </trkpt>
      <trkpt lat="46.0477" lon="6.69992">
        <ele>1540.300913</ele>
        <time>2023-03-21T05:36:21.538Z</time>
      </trkpt>
      <trkpt lat="46.04681" lon="6.69979">
        <ele>1566.575648</ele>
        <time>2023-03-21T05:37:00.780Z</time>
      </trkpt>
      <trkpt lat="46.04592" lon="6.69966">
        <ele>1592.899916</ele>
        <time>2023-03-21T05:37:40.776Z</time>
      </trkpt>
      <trkpt lat="46.04504" lon="6.69953">
        <ele>1622.476596</ele>
        <time>2023-03-21T05:38:20.800Z</time>
      </trkpt>
      <trkpt lat="46.04415" lon="6.6994">
        <ele>1652.026373</ele>
        <time>2023-03-21T05:39:00.425Z</time>
      </trkpt>
      <trkpt lat="46.04326" lon="6.69926">
        <ele>1675.20262</ele>
        <time>2023-03-21T05:39:39.631Z</time>
      </trkpt>
      <trkpt lat="46.04238" lon="6.69913">
        <ele>1698.377019</ele>
        <time>2023-03-21T05:40:18.634Z</time>
      </trkpt>
      <trkpt lat="46.04149" lon="6.699">
        <ele>1715.407977</ele>
        <time>2023-03-21T05:40:57.486Z</time>
      </trkpt>
      <trkpt lat="46.04061" lon="6.69887">
        <ele>1732.325049</ele>
        <time>2023-03-21T05:41:36.011Z</time>
      </trkpt>
      <trkpt lat="46.03972" lon="6.69874">
        <ele>1746.208993</ele>
        <time>2023-03-21T05:42:14.330Z</time>
      </trkpt>
      <trkpt lat="46.03883" lon="6.69861">
        <ele>1759.986578</ele>
        <time>2023-03-21T05:42:52.757Z</time>
      </trkpt>
      <trkpt lat="46.03795" lon="6.69848">
        <ele>1787.549976</ele>
        <time>2023-03-21T05:43:31.854Z</time>
      </trkpt>
      <trkpt lat="46.03706" lon="6.69835">
        <ele>1815.883543</ele>
        <time>2023-03-21T05:44:12.088Z</time>
      </trkpt>
      <trkpt lat="46.03618" lon="6.69821">
        <ele>1856.221601</ele>
        <time>2023-03-21T05:44:53.145Z</time>
      </trkpt>
      <trkpt lat="46.03529" lon="6.69808">
        <ele>1897.545637</ele>
        <time>2023-03-21T05:45:34.640Z</time>
      </trkpt>
      <trkpt lat="46.0344" lon="6.69795">
        <ele>1946.072086</ele>
        <time>2023-03-21T05:46:16.706Z</time>
      </trkpt>
      <trkpt lat="46.03352" lon="6.69782">
        <ele>1995.321337</ele>
        <time>2023-03-21T05:46:59.998Z</time>
      </trkpt>
      <trkpt lat="46.03263" lon="6.69769">
        <ele>2034.778477</ele>
        <time>2023-03-21T05:47:42.610Z</time>
      </trkpt>
      <trkpt lat="46.03174" lon="6.69756">
        <ele>2073.024153</ele>
        <time>2023-03-21T05:48:22.877Z</time>
      </trkpt>
      <trkpt lat="46.03086" lon="6.69743">
        <ele>2085.500665</ele>
        <time>2023-03-21T05:49:01.426Z</time>
      </trkpt>
      <trkpt lat="46.03088" lon="6.69735">
        <ele>2086.060657</ele>
        <time>2023-03-21T05:49:06.000Z</time>
      </trkpt>
      <trkpt lat="46.0308" lon="6.69705">
        <ele>2088.192523</ele>
        <time>2023-03-21T05:49:19.158Z</time>
      </trkpt>
      <trkpt lat="46.03076" lon="6.69638">
        <ele>2092.757809</ele>
        <time>2023-03-21T05:49:36.421Z</time>
      </trkpt>
      <trkpt lat="46.03073" lon="6.69579">
        <ele>2093.973386</ele>
        <time>2023-03-21T05:49:47.701Z</time>
      </trkpt>
      <trkpt lat="46.03076" lon="6.69568">
        <ele>2093.014935</ele>
        <time>2023-03-21T05:49:49.716Z</time>
      </trkpt>
      <trkpt lat="46.03095" lon="6.69554">
        <ele>2090.734868</ele>
        <time>2023-03-21T05:49:54.628Z</time>
      </trkpt>
      <trkpt lat="46.03106" lon="6.69538">
        <ele>2088.976514</ele>
        <time>2023-03-21T05:49:58.062Z</time>
      </trkpt>
      <trkpt lat="46.03156" lon="6.69408">
        <ele>2077.488563</ele>
        <time>2023-03-21T05:50:19.694Z</time>
      </trkpt>
      <trkpt lat="46.03171" lon="6.69387">
        <ele>2074.713023</ele>
        <time>2023-03-21T05:50:23.835Z</time>
      </trkpt>
      <trkpt lat="46.03201" lon="6.6935">
        <ele>2063.139765</ele>
        <time>2023-03-21T05:50:31.358Z</time>
      </trkpt>
      <trkpt lat="46.03216" lon="6.69313">
        <ele>2054.164572</ele>
        <time>2023-03-21T05:50:37.237Z</time>
      </trkpt>
      <trkpt lat="46.03235" lon="6.69277">
        <ele>2044.707724</ele>
        <time>2023-03-21T05:50:43.465Z</time>
      </trkpt>
      <trkpt lat="46.03248" lon="6.69228">
        <ele>2033.895162</ele>
        <time>2023-03-21T05:50:50.682Z</time>
      </trkpt>
      <trkpt lat="46.03261" lon="6.6916">
        <ele>2019.076748</ele>
        <time>2023-03-21T05:51:00.460Z</time>
      </trkpt>
      <trkpt lat="46.03287" lon="6.69068">
        <ele>1995.550773</ele>
        <time>2023-03-21T05:51:14.277Z</time>
      </trkpt>
      <trkpt lat="46.03297" lon="6.69037">
        <ele>1987.668558</ele>
        <time>2023-03-21T05:51:18.893Z</time>
      </trkpt>
      <trkpt lat="46.03302" lon="6.6903">
        <ele>1985.241723</ele>
        <time>2023-03-21T05:51:20.309Z</time>
      </trkpt>
      <trkpt lat="46.03311" lon="6.6903">
        <ele>1982.193244</ele>
        <time>2023-03-21T05:51:22.156Z</time>
      </trkpt>
      <trkpt lat="46.03322" lon="6.68991">
        <ele>1972.294576</ele>
        <time>2023-03-21T05:51:27.897Z</time>
      </trkpt>
      <trkpt lat="46.03336" lon="6.68931">
        <ele>1959.039284</ele>
        <time>2023-03-21T05:51:36.508Z</time>
      </trkpt>
      <trkpt lat="46.03341" lon="6.68858">
        <ele>1949.573641</ele>
        <time>2023-03-21T05:51:46.455Z</time>
      </trkpt>
      <trkpt lat="46.03361" lon="6.68762">
        <ele>1936.706223</ele>
        <time>2023-03-21T05:52:00.263Z</time>
      </trkpt>
      <trkpt lat="46.03367" lon="6.68718">
        <ele>1931.013476</ele>
        <time>2023-03-21T05:52:06.785Z</time>
      </trkpt>
      <trkpt lat="46.0337" lon="6.68691">
        <ele>1927.618008</ele>
        <time>2023-03-21T05:52:11.085Z</time>
      </trkpt>
      <trkpt lat="46.03353" lon="6.68713">
        <ele>1926.189779</ele>
        <time>2023-03-21T05:52:16.838Z</time>
      </trkpt>
      <trkpt lat="46.03318" lon="6.68779">
        <ele>1922.575022</ele>
        <time>2023-03-21T05:52:29.711Z</time>
      </trkpt>
      <trkpt lat="46.03297" lon="6.68808">
        <ele>1920.766902</ele>
        <time>2023-03-21T05:52:36.585Z</time>
      </trkpt>
      <trkpt lat="46.03279" lon="6.68838">
        <ele>1919.005897</ele>
        <time>2023-03-21T05:52:44.989Z</time>
      </trkpt>
      <trkpt lat="46.03229" lon="6.68893">
        <ele>1913.700618</ele>
        <time>2023-03-21T05:52:59.639Z</time>
      </trkpt>
      <trkpt lat="46.03216" lon="6.68898">
        <ele>1911.944484</ele>
        <time>2023-03-21T05:53:10.452Z</time>
      </trkpt>
      <trkpt lat="46.03217" lon="6.6889">
        <ele>1911.194538</ele>
        <time>2023-03-21T05:53:11.739Z</time>
      </trkpt>
      <trkpt lat="46.03222" lon="6.68879">
        <ele>1910.019723</ele>
        <time>2023-03-21T05:53:14.148Z</time>
      </trkpt>
      <trkpt lat="46.0321" lon="6.68863">
        <ele>1907.894346</ele>
        <time>2023-03-21T05:53:22.586Z</time>
      </trkpt>
      <trkpt lat="46.03201" lon="6.68843">
        <ele>1905.821823</ele>
        <time>2023-03-21T05:53:25.743Z</time>
      </trkpt>
      <trkpt lat="46.03201" lon="6.6884">
        <ele>1905.546213</ele>
        <time>2023-03-21T05:53:26.243Z</time>
      </trkpt>
      <trkpt lat="46.03209" lon="6.68833">
        <ele>1904.31095</ele>
        <time>2023-03-21T05:53:28.661Z</time>
      </trkpt>
      <trkpt lat="46.03216" lon="6.68822">
        <ele>1902.93926</ele>
        <time>2023-03-21T05:53:34.077Z</time>
      </trkpt>
      <trkpt lat="46.03208" lon="6.68751">
        <ele>1896.560244</ele>
        <time>2023-03-21T05:53:43.748Z</time>
      </trkpt>
      <trkpt lat="46.03203" lon="6.68745">
        <ele>1895.774279</ele>
        <time>2023-03-21T05:53:45.028Z</time>
      </trkpt>
      <trkpt lat="46.03186" lon="6.68739">
        <ele>1893.526552</ele>
        <time>2023-03-21T05:53:49.317Z</time>
      </trkpt>
      <trkpt lat="46.03144" lon="6.68711">
        <ele>1883.513912</ele>
        <time>2023-03-21T05:53:58.212Z</time>
      </trkpt>
      <trkpt lat="46.03133" lon="6.68698">
        <ele>1880.337935</ele>
        <time>2023-03-21T05:54:01.047Z</time>
      </trkpt>
      <trkpt lat="46.03139" lon="6.68683">
        <ele>1877.676936</ele>
        <time>2023-03-21T05:54:03.475Z</time>
      </trkpt>
      <trkpt lat="46.03138" lon="6.68677">
        <ele>1876.666963</ele>
        <time>2023-03-21T05:54:04.374Z</time>
      </trkpt>
      <trkpt lat="46.03133" lon="6.68671">
        <ele>1875.171954</ele>
        <time>2023-03-21T05:54:05.691Z</time>
      </trkpt>
      <trkpt lat="46.03127" lon="6.68671">
        <ele>1873.869805</ele>
        <time>2023-03-21T05:54:06.833Z</time>
      </trkpt>
      <trkpt lat="46.03121" lon="6.68667">
        <ele>1872.515727</ele>
        <time>2023-03-21T05:54:08.032Z</time>
      </trkpt>
      <trkpt lat="46.03098" lon="6.68642">
        <ele>1866.141566</ele>
        <time>2023-03-21T05:54:13.609Z</time>
      </trkpt>
      <trkpt lat="46.0309" lon="6.68639">
        <ele>1864.232047</ele>
        <time>2023-03-21T05:54:15.302Z</time>
      </trkpt>
      <trkpt lat="46.03083" lon="6.68632">
        <ele>1862.289353</ele>
        <time>2023-03-21T05:54:17.029Z</time>
      </trkpt>
      <trkpt lat="46.03077" lon="6.68632">
        <ele>1861.119047</ele>
        <time>2023-03-21T05:54:18.067Z</time>
      </trkpt>
      <trkpt lat="46.03046" lon="6.68565">
        <ele>1848.347426</ele>
        <time>2023-03-21T05:54:28.816Z</time>
      </trkpt>
      <trkpt lat="46.03043" lon="6.68549">
        <ele>1845.426097</ele>
        <time>2023-03-21T05:54:31.185Z</time>
      </trkpt>
      <trkpt lat="46.03045" lon="6.68525">
        <ele>1841.371694</ele>
        <time>2023-03-21T05:54:34.454Z</time>
      </trkpt>
      <trkpt lat="46.03037" lon="6.68488">
        <ele>1834.80808</ele>
        <time>2023-03-21T05:54:39.667Z</time>
      </trkpt>
      <trkpt lat="46.03036" lon="6.68467">
        <ele>1831.355108</ele>
        <time>2023-03-21T05:54:42.411Z</time>
      </trkpt>
      <trkpt lat="46.0304" lon="6.68438">
        <ele>1826.28021</ele>
        <time>2023-03-21T05:54:46.517Z</time>
      </trkpt>
      <trkpt lat="46.0304" lon="6.68438">
        <ele>1826.28021</ele>
        <time>2023-03-21T05:54:47.215Z</time>
      </trkpt>
      <trkpt lat="46.0304" lon="6.68438">
        <ele>1826.28021</ele>
        <time>2023-03-21T05:54:47.215Z</time>
      </trkpt>
      <trkpt lat="46.03041" lon="6.68438">
        <ele>1826.106503</ele>
        <time>2023-03-21T05:54:47.526Z</time>
      </trkpt>
      <trkpt lat="46.03032" lon="6.684">
        <ele>1819.321352</ele>
        <time>2023-03-21T05:54:59.977Z</time>
      </trkpt>
      <trkpt lat="46.03003" lon="6.68331">
        <ele>1806.8638</ele>
        <time>2023-03-21T05:55:24.412Z</time>
      </trkpt>
      <trkpt lat="46.03065" lon="6.68273">
        <ele>1793.856965</ele>
        <time>2023-03-21T05:55:56.613Z</time>
      </trkpt>
      <trkpt lat="46.03066" lon="6.68274">
        <ele>1793.696367</ele>
        <time>2023-03-21T05:55:57.456Z</time>
      </trkpt>
      <trkpt lat="46.03083" lon="6.68259">
        <ele>1790.064548</ele>
        <time>2023-03-21T05:56:01.858Z</time>
      </trkpt>
      <trkpt lat="46.03094" lon="6.68243">
        <ele>1787.417189</ele>
        <time>2023-03-21T05:56:04.801Z</time>
      </trkpt>
      <trkpt lat="46.03095" lon="6.6823">
        <ele>1785.798002</ele>
        <time>2023-03-21T05:56:06.728Z</time>
      </trkpt>
      <trkpt lat="46.03082" lon="6.68178">
        <ele>1779.011466</ele>
        <time>2023-03-21T05:56:14.896Z</time>
      </trkpt>
      <trkpt lat="46.03085" lon="6.68143">
        <ele>1778.266299</ele>
        <time>2023-03-21T05:56:20.184Z</time>
      </trkpt>
      <trkpt lat="46.03091" lon="6.68115">
        <ele>1778.253842</ele>
        <time>2023-03-21T05:56:26.073Z</time>
      </trkpt>
      <trkpt lat="46.03087" lon="6.68095">
        <ele>1778.245381</ele>
        <time>2023-03-21T05:56:30.031Z</time>
      </trkpt>
      <trkpt lat="46.03076" lon="6.68085">
        <ele>1778.237598</ele>
        <time>2023-03-21T05:56:32.869Z</time>
      </trkpt>
      <trkpt lat="46.03075" lon="6.68085">
        <ele>1778.236962</ele>
        <time>2023-03-21T05:56:33.479Z</time>
      </trkpt>
      <trkpt lat="46.03062" lon="6.68079">
        <ele>1778.228756</ele>
        <time>2023-03-21T05:56:40.499Z</time>
      </trkpt>
      <trkpt lat="46.03039" lon="6.68075">
        <ele>1778.214828</ele>
        <time>2023-03-21T05:56:52.716Z</time>
      </trkpt>
      <trkpt lat="46.03031" lon="6.68075">
        <ele>1778.210322</ele>
        <time>2023-03-21T05:56:57.557Z</time>
      </trkpt>
      <trkpt lat="46.03016" lon="6.68086">
        <ele>1778.200232</ele>
        <time>2023-03-21T05:57:04.532Z</time>
      </trkpt>
      <trkpt lat="46.02982" lon="6.68137">
        <ele>1778.170627</ele>
        <time>2023-03-21T05:57:33.838Z</time>
      </trkpt>
      <trkpt lat="46.02973" lon="6.68117">
        <ele>1778.448494</ele>
        <time>2023-03-21T05:57:42.199Z</time>
      </trkpt>
      <trkpt lat="46.02971" lon="6.68092">
        <ele>1778.758433</ele>
        <time>2023-03-21T05:57:52.791Z</time>
      </trkpt>
      <trkpt lat="46.0297" lon="6.68084">
        <ele>1778.860192</ele>
        <time>2023-03-21T05:57:56.465Z</time>
      </trkpt>
      <trkpt lat="46.02947" lon="6.68031">
        <ele>1779.625874</ele>
        <time>2023-03-21T05:58:17.166Z</time>
      </trkpt>
      <trkpt lat="46.02943" lon="6.68017">
        <ele>1779.815806</ele>
        <time>2023-03-21T05:58:21.400Z</time>
      </trkpt>
      <trkpt lat="46.02944" lon="6.68006">
        <ele>1779.947085</ele>
        <time>2023-03-21T05:58:26.618Z</time>
      </trkpt>
      <trkpt lat="46.02937" lon="6.67987">
        <ele>1780.218559</ele>
        <time>2023-03-21T05:58:32.113Z</time>
      </trkpt>
      <trkpt lat="46.02903" lon="6.67922">
        <ele>1781.220962</ele>
        <time>2023-03-21T05:58:49.286Z</time>
      </trkpt>
      <trkpt lat="46.02901" lon="6.67911">
        <ele>1781.359598</ele>
        <time>2023-03-21T05:58:51.237Z</time>
      </trkpt>
      <trkpt lat="46.02877" lon="6.67862">
        <ele>1777.753559</ele>
        <time>2023-03-21T05:59:01.862Z</time>
      </trkpt>
      <trkpt lat="46.0285" lon="6.6783">
        <ele>1774.766405</ele>
        <time>2023-03-21T05:59:10.554Z</time>
      </trkpt>
      <trkpt lat="46.02842" lon="6.67824">
        <ele>1773.981741</ele>
        <time>2023-03-21T05:59:12.684Z</time>
      </trkpt>
      <trkpt lat="46.02825" lon="6.67818">
        <ele>1772.471464</ele>
        <time>2023-03-21T05:59:17.092Z</time>
      </trkpt>
      <trkpt lat="46.0281" lon="6.67821">
        <ele>1771.175886</ele>
        <time>2023-03-21T05:59:20.380Z</time>
      </trkpt>
      <trkpt lat="46.02769" lon="6.67866">
        <ele>1766.683124</ele>
        <time>2023-03-21T05:59:30.760Z</time>
      </trkpt>
      <trkpt lat="46.02759" lon="6.67873">
        <ele>1765.673539</ele>
        <time>2023-03-21T05:59:33.054Z</time>
      </trkpt>
      <trkpt lat="46.02752" lon="6.6787">
        <ele>1764.045707</ele>
        <time>2023-03-21T05:59:34.538Z</time>
      </trkpt>
      <trkpt lat="46.02741" lon="6.67855">
        <ele>1760.843316</ele>
        <time>2023-03-21T05:59:37.450Z</time>
      </trkpt>
      <trkpt lat="46.02725" lon="6.6785">
        <ele>1757.439865</ele>
        <time>2023-03-21T05:59:40.661Z</time>
      </trkpt>
      <trkpt lat="46.02701" lon="6.67817">
        <ele>1750.359906</ele>
        <time>2023-03-21T05:59:47.149Z</time>
      </trkpt>
      <trkpt lat="46.02665" lon="6.67796">
        <ele>1742.051264</ele>
        <time>2023-03-21T05:59:54.735Z</time>
      </trkpt>
      <trkpt lat="46.02643" lon="6.67792">
        <ele>1737.350742</ele>
        <time>2023-03-21T05:59:59.038Z</time>
      </trkpt>
      <trkpt lat="46.02629" lon="6.67799">
        <ele>1734.151673</ele>
        <time>2023-03-21T06:00:01.977Z</time>
      </trkpt>
      <trkpt lat="46.02598" lon="6.67842">
        <ele>1725.605406</ele>
        <time>2023-03-21T06:00:10.350Z</time>
      </trkpt>
      <trkpt lat="46.02588" lon="6.67865">
        <ele>1722.598626</ele>
        <time>2023-03-21T06:00:13.993Z</time>
      </trkpt>
      <trkpt lat="46.02569" lon="6.67899">
        <ele>1717.736212</ele>
        <time>2023-03-21T06:00:19.892Z</time>
      </trkpt>
      <trkpt lat="46.02558" lon="6.67927">
        <ele>1714.129668</ele>
        <time>2023-03-21T06:00:24.312Z</time>
      </trkpt>
      <trkpt lat="46.02541" lon="6.67979">
        <ele>1707.854471</ele>
        <time>2023-03-21T06:00:32.395Z</time>
      </trkpt>
      <trkpt lat="46.02531" lon="6.67992">
        <ele>1705.656943</ele>
        <time>2023-03-21T06:00:35.429Z</time>
      </trkpt>
      <trkpt lat="46.02521" lon="6.68017">
        <ele>1702.448423</ele>
        <time>2023-03-21T06:00:39.797Z</time>
      </trkpt>
      <trkpt lat="46.02519" lon="6.68042">
        <ele>1699.596344</ele>
        <time>2023-03-21T06:00:43.839Z</time>
      </trkpt>
      <trkpt lat="46.02521" lon="6.68055">
        <ele>1698.74151</ele>
        <time>2023-03-21T06:00:45.866Z</time>
      </trkpt>
      <trkpt lat="46.02518" lon="6.68089">
        <ele>1698.868214</ele>
        <time>2023-03-21T06:00:51.527Z</time>
      </trkpt>
      <trkpt lat="46.02525" lon="6.68102">
        <ele>1698.928422</ele>
        <time>2023-03-21T06:00:54.181Z</time>
      </trkpt>
      <trkpt lat="46.02529" lon="6.68124">
        <ele>1699.013267</ele>
        <time>2023-03-21T06:00:58.178Z</time>
      </trkpt>
      <trkpt lat="46.02527" lon="6.68129">
        <ele>1699.032902</ele>
        <time>2023-03-21T06:00:59.200Z</time>
      </trkpt>
      <trkpt lat="46.02515" lon="6.68127">
        <ele>1699.100363</ele>
        <time>2023-03-21T06:01:02.531Z</time>
      </trkpt>
      <trkpt lat="46.02509" lon="6.6813">
        <ele>1699.132008</ele>
        <time>2023-03-21T06:01:04.208Z</time>
      </trkpt>
      <trkpt lat="46.02499" lon="6.68147">
        <ele>1699.21255</ele>
        <time>2023-03-21T06:01:08.811Z</time>
      </trkpt>
      <trkpt lat="46.02486" lon="6.68156">
        <ele>1699.289155</ele>
        <time>2023-03-21T06:01:13.394Z</time>
      </trkpt>
      <trkpt lat="46.02485" lon="6.68163">
        <ele>1699.315388</ele>
        <time>2023-03-21T06:01:15.151Z</time>
      </trkpt>
      <trkpt lat="46.02473" lon="6.68165">
        <ele>1699.378886</ele>
        <time>2023-03-21T06:01:21.587Z</time>
      </trkpt>
      <trkpt lat="46.02467" lon="6.68174">
        <ele>1699.422629</ele>
        <time>2023-03-21T06:01:26.313Z</time>
      </trkpt>
      <trkpt lat="46.02458" lon="6.68175">
        <ele>1699.470411</ele>
        <time>2023-03-21T06:01:31.118Z</time>
      </trkpt>
      <trkpt lat="46.02455" lon="6.68179">
        <ele>1699.49063</ele>
        <time>2023-03-21T06:01:33.078Z</time>
      </trkpt>
      <trkpt lat="46.02436" lon="6.68263">
        <ele>1703.707556</ele>
        <time>2023-03-21T06:02:20.089Z</time>
      </trkpt>
      <trkpt lat="46.02434" lon="6.68278">
        <ele>1705.333851</ele>
        <time>2023-03-21T06:02:28.116Z</time>
      </trkpt>
      <trkpt lat="46.02438" lon="6.68284">
        <ele>1706.26386</ele>
        <time>2023-03-21T06:02:33.926Z</time>
      </trkpt>
      <trkpt lat="46.02435" lon="6.68303">
        <ele>1708.233674</ele>
        <time>2023-03-21T06:02:49.022Z</time>
      </trkpt>
      <trkpt lat="46.02418" lon="6.68321">
        <ele>1711.422779</ele>
        <time>2023-03-21T06:03:06.046Z</time>
      </trkpt>
      <trkpt lat="46.02404" lon="6.68368">
        <ele>1716.850696</ele>
        <time>2023-03-21T06:03:47.472Z</time>
      </trkpt>
      <trkpt lat="46.02386" lon="6.68414">
        <ele>1722.324398</ele>
        <time>2023-03-21T06:04:36.726Z</time>
      </trkpt>
      <trkpt lat="46.02382" lon="6.68436">
        <ele>1724.740654</ele>
        <time>2023-03-21T06:05:00.210Z</time>
      </trkpt>
      <trkpt lat="46.02368" lon="6.68472">
        <ele>1728.986498</ele>
        <time>2023-03-21T06:05:36.852Z</time>
      </trkpt>
      <trkpt lat="46.02363" lon="6.6851">
        <ele>1732.998586</ele>
        <time>2023-03-21T06:06:10.524Z</time>
      </trkpt>
      <trkpt lat="46.02343" lon="6.68606">
        <ele>1743.462102</ele>
        <time>2023-03-21T06:07:35.963Z</time>
      </trkpt>
      <trkpt lat="46.02336" lon="6.68631">
        <ele>1746.252805</ele>
        <time>2023-03-21T06:07:58.420Z</time>
      </trkpt>
      <trkpt lat="46.02332" lon="6.68634">
        <ele>1746.830186</ele>
        <time>2023-03-21T06:08:02.042Z</time>
      </trkpt>
      <trkpt lat="46.02322" lon="6.68635">
        <ele>1748.329725</ele>
        <time>2023-03-21T06:08:11.298Z</time>
      </trkpt>
      <trkpt lat="46.02312" lon="6.68624">
        <ele>1750.2076</ele>
        <time>2023-03-21T06:08:22.041Z</time>
      </trkpt>
      <trkpt lat="46.02291" lon="6.68579">
        <ele>1753.898903</ele>
        <time>2023-03-21T06:08:43.314Z</time>
      </trkpt>
      <trkpt lat="46.02284" lon="6.68571">
        <ele>1753.991507</ele>
        <time>2023-03-21T06:08:47.462Z</time>
      </trkpt>
      <trkpt lat="46.0226" lon="6.68555">
        <ele>1754.270876</ele>
        <time>2023-03-21T06:09:00.013Z</time>
      </trkpt>
      <trkpt lat="46.02255" lon="6.68561">
        <ele>1754.334642</ele>
        <time>2023-03-21T06:09:01.828Z</time>
      </trkpt>
      <trkpt lat="46.02241" lon="6.68596">
        <ele>1754.631176</ele>
        <time>2023-03-21T06:09:10.573Z</time>
      </trkpt>
      <trkpt lat="46.02209" lon="6.68648">
        <ele>1755.135063</ele>
        <time>2023-03-21T06:09:23.575Z</time>
      </trkpt>
      <trkpt lat="46.02193" lon="6.68693">
        <ele>1755.502415</ele>
        <time>2023-03-21T06:09:33.350Z</time>
      </trkpt>
      <trkpt lat="46.02196" lon="6.68704">
        <ele>1755.588031</ele>
        <time>2023-03-21T06:09:36.848Z</time>
      </trkpt>
      <trkpt lat="46.02193" lon="6.68786">
        <ele>1757.622585</ele>
        <time>2023-03-21T06:09:54.418Z</time>
      </trkpt>
      <trkpt lat="46.02203" lon="6.68824">
        <ele>1758.686756</ele>
        <time>2023-03-21T06:10:06.233Z</time>
      </trkpt>
      <trkpt lat="46.02214" lon="6.68841">
        <ele>1759.278562</ele>
        <time>2023-03-21T06:10:12.803Z</time>
      </trkpt>
      <trkpt lat="46.02235" lon="6.68856">
        <ele>1760.16188</ele>
        <time>2023-03-21T06:10:23.834Z</time>
      </trkpt>
      <trkpt lat="46.02264" lon="6.6891">
        <ele>1761.956804</ele>
        <time>2023-03-21T06:10:56.874Z</time>
      </trkpt>
      <trkpt lat="46.02297" lon="6.68943">
        <ele>1765.906288</ele>
        <time>2023-03-21T06:11:29.684Z</time>
      </trkpt>
      <trkpt lat="46.02322" lon="6.69038">
        <ele>1774.474808</ele>
        <time>2023-03-21T06:12:39.695Z</time>
      </trkpt>
      <trkpt lat="46.02332" lon="6.69087">
        <ele>1778.872075</ele>
        <time>2023-03-21T06:13:15.456Z</time>
      </trkpt>
      <trkpt lat="46.02338" lon="6.69108">
        <ele>1780.740519</ele>
        <time>2023-03-21T06:13:28.577Z</time>
      </trkpt>
      <trkpt lat="46.02363" lon="6.69168">
        <ele>1786.699594</ele>
        <time>2023-03-21T06:14:17.322Z</time>
      </trkpt>
      <trkpt lat="46.02375" lon="6.69227">
        <ele>1791.727257</ele>
        <time>2023-03-21T06:14:58.465Z</time>
      </trkpt>
      <trkpt lat="46.02406" lon="6.69323">
        <ele>1800.432184</ele>
        <time>2023-03-21T06:16:06.657Z</time>
      </trkpt>
      <trkpt lat="46.0241" lon="6.69372">
        <ele>1804.521629</ele>
        <time>2023-03-21T06:16:36.399Z</time>
      </trkpt>
      <trkpt lat="46.02423" lon="6.69396">
        <ele>1806.845787</ele>
        <time>2023-03-21T06:16:53.573Z</time>
      </trkpt>
      <trkpt lat="46.02429" lon="6.69417">
        <ele>1808.300763</ele>
        <time>2023-03-21T06:17:05.846Z</time>
      </trkpt>
      <trkpt lat="46.0243" lon="6.69512">
        <ele>1814.542841</ele>
        <time>2023-03-21T06:17:56.305Z</time>
      </trkpt>
      <trkpt lat="46.02433" lon="6.69595">
        <ele>1820.002509</ele>
        <time>2023-03-21T06:18:42.057Z</time>
      </trkpt>
      <trkpt lat="46.02423" lon="6.69638">
        <ele>1822.932473</ele>
        <time>2023-03-21T06:19:06.840Z</time>
      </trkpt>
      <trkpt lat="46.02419" lon="6.69671">
        <ele>1824.804994</ele>
        <time>2023-03-21T06:19:25.954Z</time>
      </trkpt>
      <trkpt lat="46.02405" lon="6.69715">
        <ele>1827.511263</ele>
        <time>2023-03-21T06:19:51.386Z</time>
      </trkpt>
      <trkpt lat="46.02401" lon="6.69749">
        <ele>1829.470644</ele>
        <time>2023-03-21T06:20:09.142Z</time>
      </trkpt>
      <trkpt lat="46.02394" lon="6.69788">
        <ele>1831.712114</ele>
        <time>2023-03-21T06:20:28.079Z</time>
      </trkpt>
      <trkpt lat="46.02393" lon="6.69805">
        <ele>1832.685233</ele>
        <time>2023-03-21T06:20:39.600Z</time>
      </trkpt>
      <trkpt lat="46.0239" lon="6.69817">
        <ele>1833.392452</ele>
        <time>2023-03-21T06:20:45.462Z</time>
      </trkpt>
      <trkpt lat="46.02383" lon="6.69844">
        <ele>1835.008019</ele>
        <time>2023-03-21T06:20:59.378Z</time>
      </trkpt>
      <trkpt lat="46.02384" lon="6.69875">
        <ele>1836.744372</ele>
        <time>2023-03-21T06:21:12.455Z</time>
      </trkpt>
      <trkpt lat="46.02381" lon="6.69897">
        <ele>1837.796007</ele>
        <time>2023-03-21T06:21:21.942Z</time>
      </trkpt>
      <trkpt lat="46.02379" lon="6.69912">
        <ele>1838.415128</ele>
        <time>2023-03-21T06:21:29.004Z</time>
      </trkpt>
      <trkpt lat="46.02379" lon="6.6993">
        <ele>1839.127847</ele>
        <time>2023-03-21T06:21:35.070Z</time>
      </trkpt>
      <trkpt lat="46.02389" lon="6.69979">
        <ele>1841.18388</ele>
        <time>2023-03-21T06:21:56.476Z</time>
      </trkpt>
      <trkpt lat="46.02398" lon="6.70029">
        <ele>1843.251722</ele>
        <time>2023-03-21T06:22:18.428Z</time>
      </trkpt>
      <trkpt lat="46.02403" lon="6.70089">
        <ele>1845.664953</ele>
        <time>2023-03-21T06:22:40.784Z</time>
      </trkpt>
      <trkpt lat="46.02402" lon="6.7011">
        <ele>1846.532308</ele>
        <time>2023-03-21T06:22:49.022Z</time>
      </trkpt>
      <trkpt lat="46.02405" lon="6.70121">
        <ele>1847.015351</ele>
        <time>2023-03-21T06:22:54.645Z</time>
      </trkpt>
      <trkpt lat="46.02402" lon="6.70142">
        <ele>1847.935851</ele>
        <time>2023-03-21T06:23:04.615Z</time>
      </trkpt>
      <trkpt lat="46.02384" lon="6.70175">
        <ele>1849.909586</ele>
        <time>2023-03-21T06:23:24.477Z</time>
      </trkpt>
      <trkpt lat="46.02366" lon="6.70196">
        <ele>1851.448585</ele>
        <time>2023-03-21T06:23:39.906Z</time>
      </trkpt>
      <trkpt lat="46.02341" lon="6.70199">
        <ele>1853.157424</ele>
        <time>2023-03-21T06:23:58.335Z</time>
      </trkpt>
      <trkpt lat="46.02306" lon="6.70222">
        <ele>1855.741095</ele>
        <time>2023-03-21T06:24:24.200Z</time>
      </trkpt>
      <trkpt lat="46.02296" lon="6.70213">
        <ele>1856.529921</ele>
        <time>2023-03-21T06:24:31.315Z</time>
      </trkpt>
      <trkpt lat="46.02296" lon="6.70213">
        <ele>1856.538131</ele>
        <time>2023-03-21T06:24:31.736Z</time>
      </trkpt>
      <trkpt lat="46.02278" lon="6.70206">
        <ele>1857.823313</ele>
        <time>2023-03-21T06:24:45.105Z</time>
      </trkpt>
      <trkpt lat="46.02252" lon="6.70096">
        <ele>1858.891462</ele>
        <time>2023-03-21T06:25:34.762Z</time>
      </trkpt>
      <trkpt lat="46.02246" lon="6.70061">
        <ele>1858.478514</ele>
        <time>2023-03-21T06:25:42.720Z</time>
      </trkpt>
      <trkpt lat="46.02247" lon="6.70011">
        <ele>1857.889999</ele>
        <time>2023-03-21T06:25:51.696Z</time>
      </trkpt>
      <trkpt lat="46.02245" lon="6.69981">
        <ele>1857.543252</ele>
        <time>2023-03-21T06:25:56.365Z</time>
      </trkpt>
      <trkpt lat="46.0225" lon="6.69947">
        <ele>1857.130375</ele>
        <time>2023-03-21T06:26:02.425Z</time>
      </trkpt>
      <trkpt lat="46.02261" lon="6.69932">
        <ele>1856.879236</ele>
        <time>2023-03-21T06:26:05.685Z</time>
      </trkpt>
      <trkpt lat="46.02274" lon="6.69919">
        <ele>1855.610191</ele>
        <time>2023-03-21T06:26:09.524Z</time>
      </trkpt>
      <trkpt lat="46.02288" lon="6.69882">
        <ele>1851.254566</ele>
        <time>2023-03-21T06:26:15.832Z</time>
      </trkpt>
      <trkpt lat="46.02293" lon="6.69849">
        <ele>1847.753802</ele>
        <time>2023-03-21T06:26:20.563Z</time>
      </trkpt>
      <trkpt lat="46.02283" lon="6.69819">
        <ele>1844.192994</ele>
        <time>2023-03-21T06:26:25.375Z</time>
      </trkpt>
      <trkpt lat="46.0228" lon="6.69797">
        <ele>1841.958799</ele>
        <time>2023-03-21T06:26:28.260Z</time>
      </trkpt>
      <trkpt lat="46.02283" lon="6.69782">
        <ele>1840.254741</ele>
        <time>2023-03-21T06:26:30.577Z</time>
      </trkpt>
      <trkpt lat="46.02278" lon="6.69776">
        <ele>1839.322841</ele>
        <time>2023-03-21T06:26:31.814Z</time>
      </trkpt>
      <trkpt lat="46.0227" lon="6.69774">
        <ele>1838.091801</ele>
        <time>2023-03-21T06:26:33.409Z</time>
      </trkpt>
      <trkpt lat="46.0226" lon="6.69746">
        <ele>1834.797312</ele>
        <time>2023-03-21T06:26:37.783Z</time>
      </trkpt>
      <trkpt lat="46.02252" lon="6.69738">
        <ele>1833.314028</ele>
        <time>2023-03-21T06:26:39.724Z</time>
      </trkpt>
      <trkpt lat="46.02244" lon="6.69709">
        <ele>1830.095653</ele>
        <time>2023-03-21T06:26:43.973Z</time>
      </trkpt>
      <trkpt lat="46.02208" lon="6.69651">
        <ele>1821.978377</ele>
        <time>2023-03-21T06:26:55.012Z</time>
      </trkpt>
      <trkpt lat="46.02197" lon="6.6964">
        <ele>1819.969797</ele>
        <time>2023-03-21T06:26:57.670Z</time>
      </trkpt>
      <trkpt lat="46.02188" lon="6.69617">
        <ele>1817.238595</ele>
        <time>2023-03-21T06:27:01.441Z</time>
      </trkpt>
      <trkpt lat="46.02178" lon="6.69604">
        <ele>1815.28359</ele>
        <time>2023-03-21T06:27:04.026Z</time>
      </trkpt>
      <trkpt lat="46.0216" lon="6.6959">
        <ele>1812.117944</ele>
        <time>2023-03-21T06:27:08.382Z</time>
      </trkpt>
      <trkpt lat="46.02144" lon="6.69519">
        <ele>1804.312043</ele>
        <time>2023-03-21T06:27:18.754Z</time>
      </trkpt>
      <trkpt lat="46.02144" lon="6.69504">
        <ele>1802.803756</ele>
        <time>2023-03-21T06:27:20.972Z</time>
      </trkpt>
      <trkpt lat="46.02139" lon="6.69492">
        <ele>1801.790107</ele>
        <time>2023-03-21T06:27:23.038Z</time>
      </trkpt>
      <trkpt lat="46.02125" lon="6.69479">
        <ele>1800.108921</ele>
        <time>2023-03-21T06:27:26.319Z</time>
      </trkpt>
      <trkpt lat="46.02121" lon="6.69461">
        <ele>1798.719372</ele>
        <time>2023-03-21T06:27:29.417Z</time>
      </trkpt>
      <trkpt lat="46.0212" lon="6.69443">
        <ele>1797.387939</ele>
        <time>2023-03-21T06:27:32.189Z</time>
      </trkpt>
      <trkpt lat="46.02106" lon="6.69421">
        <ele>1795.280526</ele>
        <time>2023-03-21T06:27:36.707Z</time>
      </trkpt>
      <trkpt lat="46.02042" lon="6.69318">
        <ele>1785.282139</ele>
        <time>2023-03-21T06:27:57.340Z</time>
      </trkpt>
      <trkpt lat="46.02013" lon="6.69293">
        <ele>1782.402467</ele>
        <time>2023-03-21T06:28:04.795Z</time>
      </trkpt>
      <trkpt lat="46.01958" lon="6.69261">
        <ele>1777.778383</ele>
        <time>2023-03-21T06:28:18.173Z</time>
      </trkpt>
      <trkpt lat="46.01942" lon="6.69245">
        <ele>1776.279593</ele>
        <time>2023-03-21T06:28:22.517Z</time>
      </trkpt>
      <trkpt lat="46.01941" lon="6.69244">
        <ele>1776.193579</ele>
        <time>2023-03-21T06:28:22.740Z</time>
      </trkpt>
      <trkpt lat="46.01921" lon="6.69217">
        <ele>1774.069157</ele>
        <time>2023-03-21T06:28:28.978Z</time>
      </trkpt>
      <trkpt lat="46.01907" lon="6.69165">
        <ele>1771.082669</ele>
        <time>2023-03-21T06:28:37.689Z</time>
      </trkpt>
      <trkpt lat="46.01891" lon="6.69079">
        <ele>1766.771075</ele>
        <time>2023-03-21T06:28:51.815Z</time>
      </trkpt>
      <trkpt lat="46.01891" lon="6.69043">
        <ele>1765.088691</ele>
        <time>2023-03-21T06:28:57.481Z</time>
      </trkpt>
      <trkpt lat="46.01897" lon="6.69008">
        <ele>1763.394768</ele>
        <time>2023-03-21T06:29:03.310Z</time>
      </trkpt>
      <trkpt lat="46.01904" lon="6.68992">
        <ele>1762.519435</ele>
        <time>2023-03-21T06:29:06.286Z</time>
      </trkpt>
      <trkpt lat="46.01918" lon="6.68963">
        <ele>1760.871765</ele>
        <time>2023-03-21T06:29:11.949Z</time>
      </trkpt>
      <trkpt lat="46.01934" lon="6.6894">
        <ele>1759.339914</ele>
        <time>2023-03-21T06:29:17.282Z</time>
      </trkpt>
      <trkpt lat="46.01953" lon="6.68946">
        <ele>1758.03847</ele>
        <time>2023-03-21T06:29:21.689Z</time>
      </trkpt>
      <trkpt lat="46.01989" lon="6.68963">
        <ele>1754.576969</ele>
        <time>2023-03-21T06:29:30.584Z</time>
      </trkpt>
      <trkpt lat="46.01996" lon="6.68966">
        <ele>1753.959281</ele>
        <time>2023-03-21T06:29:32.121Z</time>
      </trkpt>
      <trkpt lat="46.02038" lon="6.68985">
        <ele>1750.072783</ele>
        <time>2023-03-21T06:29:41.716Z</time>
      </trkpt>
      <trkpt lat="46.02052" lon="6.68977">
        <ele>1748.706131</ele>
        <time>2023-03-21T06:29:45.160Z</time>
      </trkpt>
      <trkpt lat="46.02079" lon="6.6899">
        <ele>1746.182221</ele>
        <time>2023-03-21T06:29:48.536Z</time>
      </trkpt>
      <trkpt lat="46.02096" lon="6.68989">
        <ele>1744.662147</ele>
        <time>2023-03-21T06:29:50.572Z</time>
      </trkpt>
      <trkpt lat="46.02105" lon="6.68984">
        <ele>1743.771767</ele>
        <time>2023-03-21T06:29:51.707Z</time>
      </trkpt>
      <trkpt lat="46.02114" lon="6.68973">
        <ele>1742.764184</ele>
        <time>2023-03-21T06:29:53.064Z</time>
      </trkpt>
      <trkpt lat="46.02125" lon="6.68952">
        <ele>1740.793736</ele>
        <time>2023-03-21T06:29:55.231Z</time>
      </trkpt>
      <trkpt lat="46.02129" lon="6.68934">
        <ele>1739.219371</ele>
        <time>2023-03-21T06:29:56.796Z</time>
      </trkpt>
      <trkpt lat="46.02129" lon="6.68897">
        <ele>1736.22138</ele>
        <time>2023-03-21T06:29:59.750Z</time>
      </trkpt>
      <trkpt lat="46.02113" lon="6.68764">
        <ele>1725.106793</ele>
        <time>2023-03-21T06:30:10.708Z</time>
      </trkpt>
      <trkpt lat="46.0211" lon="6.6866">
        <ele>1716.932489</ele>
        <time>2023-03-21T06:30:19.076Z</time>
      </trkpt>
      <trkpt lat="46.021" lon="6.68594">
        <ele>1711.876792</ele>
        <time>2023-03-21T06:30:24.575Z</time>
      </trkpt>
      <trkpt lat="46.02106" lon="6.68342">
        <ele>1696.491545</ele>
        <time>2023-03-21T06:30:45.652Z</time>
      </trkpt>
      <trkpt lat="46.0212" lon="6.68292">
        <ele>1694.174624</ele>
        <time>2023-03-21T06:30:50.356Z</time>
      </trkpt>
      <trkpt lat="46.02123" lon="6.68267">
        <ele>1693.059557</ele>
        <time>2023-03-21T06:30:52.737Z</time>
      </trkpt>
      <trkpt lat="46.02117" lon="6.68151">
        <ele>1691.269708</ele>
        <time>2023-03-21T06:31:05.488Z</time>
      </trkpt>
      <trkpt lat="46.02116" lon="6.68128">
        <ele>1691.782401</ele>
        <time>2023-03-21T06:31:09.661Z</time>
      </trkpt>
      <trkpt lat="46.02119" lon="6.68105">
        <ele>1692.338102</ele>
        <time>2023-03-21T06:31:15.550Z</time>
      </trkpt>
      <trkpt lat="46.02127" lon="6.68088">
        <ele>1692.814324</ele>
        <time>2023-03-21T06:31:22.088Z</time>
      </trkpt>
      <trkpt lat="46.02142" lon="6.68078">
        <ele>1693.341292</ele>
        <time>2023-03-21T06:31:29.127Z</time>
      </trkpt>
      <trkpt lat="46.0217" lon="6.68079">
        <ele>1694.286438</ele>
        <time>2023-03-21T06:31:44.291Z</time>
      </trkpt>
      <trkpt lat="46.02195" lon="6.68089">
        <ele>1695.172744</ele>
        <time>2023-03-21T06:31:59.057Z</time>
      </trkpt>
      <trkpt lat="46.02209" lon="6.68104">
        <ele>1695.744742</ele>
        <time>2023-03-21T06:32:08.204Z</time>
      </trkpt>
      <trkpt lat="46.02232" lon="6.68142">
        <ele>1695.34342</ele>
        <time>2023-03-21T06:32:24.918Z</time>
      </trkpt>
      <trkpt lat="46.0226" lon="6.68166">
        <ele>1694.222436</ele>
        <time>2023-03-21T06:32:32.813Z</time>
      </trkpt>
      <trkpt lat="46.02273" lon="6.68181">
        <ele>1693.656522</ele>
        <time>2023-03-21T06:32:37.412Z</time>
      </trkpt>
      <trkpt lat="46.02282" lon="6.682">
        <ele>1693.0978</ele>
        <time>2023-03-21T06:32:39.753Z</time>
      </trkpt>
      <trkpt lat="46.02303" lon="6.68258">
        <ele>1691.559554</ele>
        <time>2023-03-21T06:32:45.860Z</time>
      </trkpt>
      <trkpt lat="46.02312" lon="6.68267">
        <ele>1691.182839</ele>
        <time>2023-03-21T06:32:47.277Z</time>
      </trkpt>
      <trkpt lat="46.02321" lon="6.68268">
        <ele>1690.857535</ele>
        <time>2023-03-21T06:32:48.428Z</time>
      </trkpt>
      <trkpt lat="46.02334" lon="6.68263">
        <ele>1690.390439</ele>
        <time>2023-03-21T06:32:50.055Z</time>
      </trkpt>
      <trkpt lat="46.0236" lon="6.68251">
        <ele>1687.020257</ele>
        <time>2023-03-21T06:32:53.142Z</time>
      </trkpt>
      <trkpt lat="46.02376" lon="6.68233">
        <ele>1682.968223</ele>
        <time>2023-03-21T06:32:55.476Z</time>
      </trkpt>
      <trkpt lat="46.02423" lon="6.68132">
        <ele>1666.222563</ele>
        <time>2023-03-21T06:33:04.750Z</time>
      </trkpt>
      <trkpt lat="46.02452" lon="6.68071">
        <ele>1656.035139</ele>
        <time>2023-03-21T06:33:10.411Z</time>
      </trkpt>
      <trkpt lat="46.02455" lon="6.68053">
        <ele>1653.548738</ele>
        <time>2023-03-21T06:33:11.899Z</time>
      </trkpt>
      <trkpt lat="46.02452" lon="6.68028">
        <ele>1650.875017</ele>
        <time>2023-03-21T06:33:13.798Z</time>
      </trkpt>
      <trkpt lat="46.02446" lon="6.67966">
        <ele>1644.076029</ele>
        <time>2023-03-21T06:33:18.632Z</time>
      </trkpt>
      <trkpt lat="46.0245" lon="6.67937">
        <ele>1640.87577</ele>
        <time>2023-03-21T06:33:20.936Z</time>
      </trkpt>
      <trkpt lat="46.02458" lon="6.67905">
        <ele>1637.131327</ele>
        <time>2023-03-21T06:33:23.646Z</time>
      </trkpt>
      <trkpt lat="46.02459" lon="6.67848">
        <ele>1631.035406</ele>
        <time>2023-03-21T06:33:28.139Z</time>
      </trkpt>
      <trkpt lat="46.02486" lon="6.67737">
        <ele>1625.400101</ele>
        <time>2023-03-21T06:33:38.351Z</time>
      </trkpt>
      <trkpt lat="46.0249" lon="6.67699">
        <ele>1625.015673</ele>
        <time>2023-03-21T06:33:42.193Z</time>
      </trkpt>
      <trkpt lat="46.02499" lon="6.67644">
        <ele>1624.455601</ele>
        <time>2023-03-21T06:33:47.973Z</time>
      </trkpt>
      <trkpt lat="46.02516" lon="6.67513">
        <ele>1627.101199</ele>
        <time>2023-03-21T06:34:24.001Z</time>
      </trkpt>
      <trkpt lat="46.02525" lon="6.67493">
        <ele>1629.204415</ele>
        <time>2023-03-21T06:34:44.650Z</time>
      </trkpt>
      <trkpt lat="46.02538" lon="6.67482">
        <ele>1631.120229</ele>
        <time>2023-03-21T06:34:52.343Z</time>
      </trkpt>
      <trkpt lat="46.02548" lon="6.67478">
        <ele>1632.326781</ele>
        <time>2023-03-21T06:35:05.762Z</time>
      </trkpt>
      <trkpt lat="46.02575" lon="6.67477">
        <ele>1635.718295</ele>
        <time>2023-03-21T06:35:22.929Z</time>
      </trkpt>
      <trkpt lat="46.02609" lon="6.67485">
        <ele>1639.849984</ele>
        <time>2023-03-21T06:35:54.170Z</time>
      </trkpt>
      <trkpt lat="46.02614" lon="6.67481">
        <ele>1640.57716</ele>
        <time>2023-03-21T06:36:01.782Z</time>
      </trkpt>
      <trkpt lat="46.02618" lon="6.67471">
        <ele>1641.555293</ele>
        <time>2023-03-21T06:36:12.768Z</time>
      </trkpt>
      <trkpt lat="46.02639" lon="6.6748">
        <ele>1644.225323</ele>
        <time>2023-03-21T06:36:23.803Z</time>
      </trkpt>
      <trkpt lat="46.02641" lon="6.67481">
        <ele>1644.499784</ele>
        <time>2023-03-21T06:36:25.098Z</time>
      </trkpt>
      <trkpt lat="46.02646" lon="6.67489">
        <ele>1645.398869</ele>
        <time>2023-03-21T06:36:36.050Z</time>
      </trkpt>
      <trkpt lat="46.02689" lon="6.67529">
        <ele>1651.656961</ele>
        <time>2023-03-21T06:37:22.416Z</time>
      </trkpt>
      <trkpt lat="46.02719" lon="6.67536">
        <ele>1655.245634</ele>
        <time>2023-03-21T06:37:59.851Z</time>
      </trkpt>
      <trkpt lat="46.02742" lon="6.67556">
        <ele>1658.55855</ele>
        <time>2023-03-21T06:38:28.645Z</time>
      </trkpt>
      <trkpt lat="46.02749" lon="6.67557">
        <ele>1659.414808</ele>
        <time>2023-03-21T06:38:39.084Z</time>
      </trkpt>
      <trkpt lat="46.02789" lon="6.67537">
        <ele>1664.5033</ele>
        <time>2023-03-21T06:39:13.127Z</time>
      </trkpt>
      <trkpt lat="46.0279" lon="6.67537">
        <ele>1664.580145</ele>
        <time>2023-03-21T06:39:13.271Z</time>
      </trkpt>
      <trkpt lat="46.02802" lon="6.67537">
        <ele>1666.129397</ele>
        <time>2023-03-21T06:39:22.682Z</time>
      </trkpt>
      <trkpt lat="46.02824" lon="6.67548">
        <ele>1667.516224</ele>
        <time>2023-03-21T06:39:32.966Z</time>
      </trkpt>
      <trkpt lat="46.02871" lon="6.67568">
        <ele>1667.9886</ele>
        <time>2023-03-21T06:39:57.880Z</time>
      </trkpt>
      <trkpt lat="46.02944" lon="6.6759">
        <ele>1668.697419</ele>
        <time>2023-03-21T06:40:19.970Z</time>
      </trkpt>
      <trkpt lat="46.02963" lon="6.67589">
        <ele>1668.878628</ele>
        <time>2023-03-21T06:40:24.620Z</time>
      </trkpt>
      <trkpt lat="46.0297" lon="6.67584">
        <ele>1668.953721</ele>
        <time>2023-03-21T06:40:28.481Z</time>
      </trkpt>
      <trkpt lat="46.03006" lon="6.67545">
        <ele>1668.501191</ele>
        <time>2023-03-21T06:40:43.360Z</time>
      </trkpt>
      <trkpt lat="46.03014" lon="6.67531">
        <ele>1668.216831</ele>
        <time>2023-03-21T06:40:46.237Z</time>
      </trkpt>
      <trkpt lat="46.0302" lon="6.67513">
        <ele>1667.906922</ele>
        <time>2023-03-21T06:40:49.973Z</time>
      </trkpt>
      <trkpt lat="46.03021" lon="6.67463">
        <ele>1667.147212</ele>
        <time>2023-03-21T06:40:58.321Z</time>
      </trkpt>
      <trkpt lat="46.03003" lon="6.67397">
        <ele>1666.082984</ele>
        <time>2023-03-21T06:41:11.140Z</time>
      </trkpt>
      <trkpt lat="46.02987" lon="6.67362">
        <ele>1665.448586</ele>
        <time>2023-03-21T06:41:18.685Z</time>
      </trkpt>
      <trkpt lat="46.02968" lon="6.6733">
        <ele>1666.223995</ele>
        <time>2023-03-21T06:41:27.548Z</time>
      </trkpt>
      <trkpt lat="46.02942" lon="6.67278">
        <ele>1668.896066</ele>
        <time>2023-03-21T06:41:48.458Z</time>
      </trkpt>
      <trkpt lat="46.02947" lon="6.67272">
        <ele>1669.271155</ele>
        <time>2023-03-21T06:41:55.035Z</time>
      </trkpt>
      <trkpt lat="46.02986" lon="6.67305">
        <ele>1672.016077</ele>
        <time>2023-03-21T06:42:24.704Z</time>
      </trkpt>
      <trkpt lat="46.03034" lon="6.67371">
        <ele>1675.98965</ele>
        <time>2023-03-21T06:43:16.518Z</time>
      </trkpt>
      <trkpt lat="46.03064" lon="6.67443">
        <ele>1683.709346</ele>
        <time>2023-03-21T06:44:08.420Z</time>
      </trkpt>
      <trkpt lat="46.03101" lon="6.67503">
        <ele>1691.117377</ele>
        <time>2023-03-21T06:45:02.710Z</time>
      </trkpt>
      <trkpt lat="46.03126" lon="6.67553">
        <ele>1696.728092</ele>
        <time>2023-03-21T06:45:47.683Z</time>
      </trkpt>
      <trkpt lat="46.03168" lon="6.67755">
        <ele>1720.238005</ele>
        <time>2023-03-21T06:48:37.453Z</time>
      </trkpt>
      <trkpt lat="46.03176" lon="6.67798">
        <ele>1725.34927</ele>
        <time>2023-03-21T06:49:13.905Z</time>
      </trkpt>
      <trkpt lat="46.03176" lon="6.67798">
        <ele>1725.372309</ele>
        <time>2023-03-21T06:49:14.542Z</time>
      </trkpt>
      <trkpt lat="46.03177" lon="6.67819">
        <ele>1727.768077</ele>
        <time>2023-03-21T06:49:32.595Z</time>
      </trkpt>
      <trkpt lat="46.0318" lon="6.68074">
        <ele>1752.344973</ele>
        <time>2023-03-21T06:52:40.181Z</time>
      </trkpt>
      <trkpt lat="46.03186" lon="6.6815">
        <ele>1755.267563</ele>
        <time>2023-03-21T06:53:14.928Z</time>
      </trkpt>
      <trkpt lat="46.03191" lon="6.68164">
        <ele>1755.54232</ele>
        <time>2023-03-21T06:53:21.082Z</time>
      </trkpt>
      <trkpt lat="46.03196" lon="6.68173">
        <ele>1755.765848</ele>
        <time>2023-03-21T06:53:25.968Z</time>
      </trkpt>
      <trkpt lat="46.03204" lon="6.68176">
        <ele>1755.977744</ele>
        <time>2023-03-21T06:53:30.174Z</time>
      </trkpt>
      <trkpt lat="46.0321" lon="6.68172">
        <ele>1756.167227</ele>
        <time>2023-03-21T06:53:32.542Z</time>
      </trkpt>
      <trkpt lat="46.03214" lon="6.68162">
        <ele>1756.365032</ele>
        <time>2023-03-21T06:53:36.078Z</time>
      </trkpt>
      <trkpt lat="46.03218" lon="6.68123">
        <ele>1757.088069</ele>
        <time>2023-03-21T06:53:46.589Z</time>
      </trkpt>
      <trkpt lat="46.03226" lon="6.68093">
        <ele>1757.673648</ele>
        <time>2023-03-21T06:53:54.055Z</time>
      </trkpt>
      <trkpt lat="46.03263" lon="6.67994">
        <ele>1758.456631</ele>
        <time>2023-03-21T06:54:15.005Z</time>
      </trkpt>
      <trkpt lat="46.03286" lon="6.67941">
        <ele>1757.700863</ele>
        <time>2023-03-21T06:54:26.038Z</time>
      </trkpt>
      <trkpt lat="46.03295" lon="6.67893">
        <ele>1757.082081</ele>
        <time>2023-03-21T06:54:35.608Z</time>
      </trkpt>
      <trkpt lat="46.03304" lon="6.67817">
        <ele>1756.14837</ele>
        <time>2023-03-21T06:54:50.645Z</time>
      </trkpt>
      <trkpt lat="46.03305" lon="6.67785">
        <ele>1755.875657</ele>
        <time>2023-03-21T06:54:57.174Z</time>
      </trkpt>
      <trkpt lat="46.03293" lon="6.67645">
        <ele>1758.049194</ele>
        <time>2023-03-21T06:55:34.032Z</time>
      </trkpt>
      <trkpt lat="46.03271" lon="6.67556">
        <ele>1759.510697</ele>
        <time>2023-03-21T06:56:05.342Z</time>
      </trkpt>
      <trkpt lat="46.03255" lon="6.67478">
        <ele>1762.736254</ele>
        <time>2023-03-21T06:56:39.910Z</time>
      </trkpt>
      <trkpt lat="46.03233" lon="6.67405">
        <ele>1766.493442</ele>
        <time>2023-03-21T06:57:17.383Z</time>
      </trkpt>
      <trkpt lat="46.03217" lon="6.67317">
        <ele>1770.79246</ele>
        <time>2023-03-21T06:58:02.442Z</time>
      </trkpt>
      <trkpt lat="46.03218" lon="6.67295">
        <ele>1771.865725</ele>
        <time>2023-03-21T06:58:15.564Z</time>
      </trkpt>
      <trkpt lat="46.03175" lon="6.67212">
        <ele>1774.688174</ele>
        <time>2023-03-21T06:59:00.590Z</time>
      </trkpt>
      <trkpt lat="46.03139" lon="6.6715">
        <ele>1776.846066</ele>
        <time>2023-03-21T06:59:30.807Z</time>
      </trkpt>
      <trkpt lat="46.03128" lon="6.6713">
        <ele>1777.515062</ele>
        <time>2023-03-21T06:59:41.938Z</time>
      </trkpt>
      <trkpt lat="46.03015" lon="6.66982">
        <ele>1774.333566</ele>
        <time>2023-03-21T07:00:23.198Z</time>
      </trkpt>
      <trkpt lat="46.02942" lon="6.66892">
        <ele>1769.299599</ele>
        <time>2023-03-21T07:00:44.691Z</time>
      </trkpt>
      <trkpt lat="46.02895" lon="6.66819">
        <ele>1763.914955</ele>
        <time>2023-03-21T07:00:59.926Z</time>
      </trkpt>
      <trkpt lat="46.02894" lon="6.66818">
        <ele>1763.821643</ele>
        <time>2023-03-21T07:01:00.187Z</time>
      </trkpt>
      <trkpt lat="46.02873" lon="6.66776">
        <ele>1761.016378</ele>
        <time>2023-03-21T07:01:08.209Z</time>
      </trkpt>
      <trkpt lat="46.02838" lon="6.66696">
        <ele>1756.239786</ele>
        <time>2023-03-21T07:01:23.089Z</time>
      </trkpt>
      <trkpt lat="46.02824" lon="6.66654">
        <ele>1754.231537</ele>
        <time>2023-03-21T07:01:30.613Z</time>
      </trkpt>
      <trkpt lat="46.02807" lon="6.66614">
        <ele>1752.157391</ele>
        <time>2023-03-21T07:01:38.448Z</time>
      </trkpt>
      <trkpt lat="46.02807" lon="6.66573">
        <ele>1750.386433</ele>
        <time>2023-03-21T07:01:44.988Z</time>
      </trkpt>
      <trkpt lat="46.02787" lon="6.66555">
        <ele>1748.906341</ele>
        <time>2023-03-21T07:01:50.087Z</time>
      </trkpt>
      <trkpt lat="46.02723" lon="6.66571">
        <ele>1745.190367</ele>
        <time>2023-03-21T07:02:05.476Z</time>
      </trkpt>
      <trkpt lat="46.02704" lon="6.66567">
        <ele>1744.228079</ele>
        <time>2023-03-21T07:02:11.293Z</time>
      </trkpt>
      <trkpt lat="46.02667" lon="6.66548">
        <ele>1742.337161</ele>
        <time>2023-03-21T07:02:20.586Z</time>
      </trkpt>
      <trkpt lat="46.02662" lon="6.66537">
        <ele>1741.878704</ele>
        <time>2023-03-21T07:02:22.455Z</time>
      </trkpt>
      <trkpt lat="46.02669" lon="6.66525">
        <ele>1741.332758</ele>
        <time>2023-03-21T07:02:27.057Z</time>
      </trkpt>
      <trkpt lat="46.027" lon="6.66521">
        <ele>1739.829179</ele>
        <time>2023-03-21T07:02:34.382Z</time>
      </trkpt>
      <trkpt lat="46.02746" lon="6.66514">
        <ele>1737.558623</ele>
        <time>2023-03-21T07:02:46.065Z</time>
      </trkpt>
      <trkpt lat="46.02772" lon="6.66498">
        <ele>1736.554272</ele>
        <time>2023-03-21T07:02:52.768Z</time>
      </trkpt>
      <trkpt lat="46.02777" lon="6.66488">
        <ele>1736.237234</ele>
        <time>2023-03-21T07:02:55.092Z</time>
      </trkpt>
      <trkpt lat="46.02773" lon="6.66484">
        <ele>1736.077339</ele>
        <time>2023-03-21T07:02:56.243Z</time>
      </trkpt>
      <trkpt lat="46.02752" lon="6.66481">
        <ele>1735.30754</ele>
        <time>2023-03-21T07:03:01.508Z</time>
      </trkpt>
      <trkpt lat="46.02749" lon="6.66472">
        <ele>1735.057047</ele>
        <time>2023-03-21T07:03:03.623Z</time>
      </trkpt>
      <trkpt lat="46.02752" lon="6.66458">
        <ele>1734.683372</ele>
        <time>2023-03-21T07:03:06.535Z</time>
      </trkpt>
      <trkpt lat="46.02769" lon="6.66445">
        <ele>1734.006829</ele>
        <time>2023-03-21T07:03:12.248Z</time>
      </trkpt>
      <trkpt lat="46.02798" lon="6.66432">
        <ele>1732.914603</ele>
        <time>2023-03-21T07:03:19.868Z</time>
      </trkpt>
      <trkpt lat="46.02818" lon="6.66433">
        <ele>1732.201589</ele>
        <time>2023-03-21T07:03:24.603Z</time>
      </trkpt>
      <trkpt lat="46.02836" lon="6.66429">
        <ele>1731.544123</ele>
        <time>2023-03-21T07:03:29.302Z</time>
      </trkpt>
      <trkpt lat="46.02846" lon="6.66424">
        <ele>1731.155103</ele>
        <time>2023-03-21T07:03:31.887Z</time>
      </trkpt>
      <trkpt lat="46.02842" lon="6.66419">
        <ele>1730.940207</ele>
        <time>2023-03-21T07:03:33.327Z</time>
      </trkpt>
      <trkpt lat="46.02834" lon="6.66418">
        <ele>1730.683426</ele>
        <time>2023-03-21T07:03:35.313Z</time>
      </trkpt>
      <trkpt lat="46.02832" lon="6.66413">
        <ele>1730.525037</ele>
        <time>2023-03-21T07:03:36.526Z</time>
      </trkpt>
      <trkpt lat="46.02875" lon="6.664">
        <ele>1728.955481</ele>
        <time>2023-03-21T07:03:47.784Z</time>
      </trkpt>
      <trkpt lat="46.02886" lon="6.66402">
        <ele>1728.584353</ele>
        <time>2023-03-21T07:03:50.431Z</time>
      </trkpt>
      <trkpt lat="46.02891" lon="6.66399">
        <ele>1728.394625</ele>
        <time>2023-03-21T07:03:51.777Z</time>
      </trkpt>
      <trkpt lat="46.02887" lon="6.6639">
        <ele>1728.135247</ele>
        <time>2023-03-21T07:03:53.767Z</time>
      </trkpt>
      <trkpt lat="46.029" lon="6.66384">
        <ele>1727.624548</ele>
        <time>2023-03-21T07:03:57.394Z</time>
      </trkpt>
      <trkpt lat="46.02932" lon="6.66383">
        <ele>1726.491101</ele>
        <time>2023-03-21T07:04:05.431Z</time>
      </trkpt>
      <trkpt lat="46.02941" lon="6.66387">
        <ele>1726.149573</ele>
        <time>2023-03-21T07:04:07.808Z</time>
      </trkpt>
      <trkpt lat="46.02946" lon="6.66396">
        <ele>1725.857737</ele>
        <time>2023-03-21T07:04:09.976Z</time>
      </trkpt>
      <trkpt lat="46.02948" lon="6.66415">
        <ele>1725.385161</ele>
        <time>2023-03-21T07:04:13.565Z</time>
      </trkpt>
      <trkpt lat="46.02935" lon="6.66488">
        <ele>1722.635901</ele>
        <time>2023-03-21T07:04:26.693Z</time>
      </trkpt>
      <trkpt lat="46.02944" lon="6.66518">
        <ele>1721.228887</ele>
        <time>2023-03-21T07:04:32.759Z</time>
      </trkpt>
      <trkpt lat="46.02955" lon="6.66529">
        <ele>1720.406612</ele>
        <time>2023-03-21T07:04:35.988Z</time>
      </trkpt>
      <trkpt lat="46.0299" lon="6.66535">
        <ele>1718.232282</ele>
        <time>2023-03-21T07:04:44.472Z</time>
      </trkpt>
      <trkpt lat="46.02998" lon="6.66549">
        <ele>1717.471875</ele>
        <time>2023-03-21T07:04:47.409Z</time>
      </trkpt>
      <trkpt lat="46.03006" lon="6.66599">
        <ele>1715.286949</ele>
        <time>2023-03-21T07:04:55.338Z</time>
      </trkpt>
      <trkpt lat="46.0301" lon="6.66609">
        <ele>1714.766331</ele>
        <time>2023-03-21T07:04:57.214Z</time>
      </trkpt>
      <trkpt lat="46.03003" lon="6.66645">
        <ele>1712.694838</ele>
        <time>2023-03-21T07:05:02.580Z</time>
      </trkpt>
      <trkpt lat="46.03006" lon="6.66653">
        <ele>1711.963205</ele>
        <time>2023-03-21T07:05:03.901Z</time>
      </trkpt>
      <trkpt lat="46.03043" lon="6.66654">
        <ele>1707.644055</ele>
        <time>2023-03-21T07:05:11.538Z</time>
      </trkpt>
      <trkpt lat="46.03112" lon="6.66704">
        <ele>1698.502387</ele>
        <time>2023-03-21T07:05:27.698Z</time>
      </trkpt>
      <trkpt lat="46.03128" lon="6.6671">
        <ele>1696.513367</ele>
        <time>2023-03-21T07:05:31.253Z</time>
      </trkpt>
      <trkpt lat="46.03146" lon="6.66711">
        <ele>1694.416602</ele>
        <time>2023-03-21T07:05:34.929Z</time>
      </trkpt>
      <trkpt lat="46.03196" lon="6.66742">
        <ele>1687.05848</ele>
        <time>2023-03-21T07:05:46.277Z</time>
      </trkpt>
      <trkpt lat="46.03201" lon="6.6674">
        <ele>1686.250087</ele>
        <time>2023-03-21T07:05:47.438Z</time>
      </trkpt>
      <trkpt lat="46.03197" lon="6.66727">
        <ele>1684.86667</ele>
        <time>2023-03-21T07:05:49.454Z</time>
      </trkpt>
      <trkpt lat="46.03185" lon="6.66705">
        <ele>1682.126342</ele>
        <time>2023-03-21T07:05:53.439Z</time>
      </trkpt>
      <trkpt lat="46.03186" lon="6.66692">
        <ele>1680.782303</ele>
        <time>2023-03-21T07:05:55.339Z</time>
      </trkpt>
      <trkpt lat="46.03192" lon="6.66692">
        <ele>1679.948839</ele>
        <time>2023-03-21T07:05:56.542Z</time>
      </trkpt>
      <trkpt lat="46.03197" lon="6.66704">
        <ele>1678.568594</ele>
        <time>2023-03-21T07:05:58.514Z</time>
      </trkpt>
      <trkpt lat="46.03205" lon="6.66699">
        <ele>1677.278156</ele>
        <time>2023-03-21T07:06:00.363Z</time>
      </trkpt>
      <trkpt lat="46.03216" lon="6.66707">
        <ele>1675.542557</ele>
        <time>2023-03-21T07:06:02.774Z</time>
      </trkpt>
      <trkpt lat="46.03223" lon="6.66708">
        <ele>1674.581837</ele>
        <time>2023-03-21T07:06:04.123Z</time>
      </trkpt>
      <trkpt lat="46.03233" lon="6.66698">
        <ele>1672.784764</ele>
        <time>2023-03-21T07:06:06.660Z</time>
      </trkpt>
      <trkpt lat="46.03249" lon="6.66702">
        <ele>1670.538072</ele>
        <time>2023-03-21T07:06:09.825Z</time>
      </trkpt>
      <trkpt lat="46.03287" lon="6.66682">
        <ele>1663.863553</ele>
        <time>2023-03-21T07:06:17.981Z</time>
      </trkpt>
      <trkpt lat="46.03377" lon="6.66684">
        <ele>1645.45797</ele>
        <time>2023-03-21T07:06:35.729Z</time>
      </trkpt>
      <trkpt lat="46.03406" lon="6.66689">
        <ele>1639.656327</ele>
        <time>2023-03-21T07:06:41.263Z</time>
      </trkpt>
      <trkpt lat="46.03461" lon="6.667">
        <ele>1628.084387</ele>
        <time>2023-03-21T07:06:52.020Z</time>
      </trkpt>
      <trkpt lat="46.03483" lon="6.66694">
        <ele>1622.818227</ele>
        <time>2023-03-21T07:06:56.513Z</time>
      </trkpt>
      <trkpt lat="46.03496" lon="6.66674">
        <ele>1618.589834</ele>
        <time>2023-03-21T07:07:00.100Z</time>
      </trkpt>
      <trkpt lat="46.03508" lon="6.66664">
        <ele>1615.310595</ele>
        <time>2023-03-21T07:07:02.876Z</time>
      </trkpt>
      <trkpt lat="46.03511" lon="6.66651">
        <ele>1613.228117</ele>
        <time>2023-03-21T07:07:04.715Z</time>
      </trkpt>
      <trkpt lat="46.03516" lon="6.66646">
        <ele>1611.725973</ele>
        <time>2023-03-21T07:07:05.991Z</time>
      </trkpt>
      <trkpt lat="46.03521" lon="6.66649">
        <ele>1610.586081</ele>
        <time>2023-03-21T07:07:06.963Z</time>
      </trkpt>
      <trkpt lat="46.03525" lon="6.66684">
        <ele>1604.827017</ele>
        <time>2023-03-21T07:07:11.828Z</time>
      </trkpt>
      <trkpt lat="46.03529" lon="6.66694">
        <ele>1602.961795</ele>
        <time>2023-03-21T07:07:13.412Z</time>
      </trkpt>
      <trkpt lat="46.03546" lon="6.66701">
        <ele>1599.029686</ele>
        <time>2023-03-21T07:07:16.761Z</time>
      </trkpt>
      <trkpt lat="46.03549" lon="6.66698">
        <ele>1598.065509</ele>
        <time>2023-03-21T07:07:17.664Z</time>
      </trkpt>
      <trkpt lat="46.03551" lon="6.66679">
        <ele>1595.034531</ele>
        <time>2023-03-21T07:07:20.223Z</time>
      </trkpt>
      <trkpt lat="46.03554" lon="6.66663">
        <ele>1592.252178</ele>
        <time>2023-03-21T07:07:22.595Z</time>
      </trkpt>
      <trkpt lat="46.03548" lon="6.66647">
        <ele>1589.364083</ele>
        <time>2023-03-21T07:07:25.181Z</time>
      </trkpt>
      <trkpt lat="46.03552" lon="6.66644">
        <ele>1588.516193</ele>
        <time>2023-03-21T07:07:26.030Z</time>
      </trkpt>
      <trkpt lat="46.0356" lon="6.66647">
        <ele>1586.918754</ele>
        <time>2023-03-21T07:07:27.688Z</time>
      </trkpt>
      <trkpt lat="46.03556" lon="6.6663">
        <ele>1584.512812</ele>
        <time>2023-03-21T07:07:30.209Z</time>
      </trkpt>
      <trkpt lat="46.03557" lon="6.66606">
        <ele>1581.352495</ele>
        <time>2023-03-21T07:07:33.871Z</time>
      </trkpt>
      <trkpt lat="46.03553" lon="6.66592">
        <ele>1579.409501</ele>
        <time>2023-03-21T07:07:35.880Z</time>
      </trkpt>
      <trkpt lat="46.03529" lon="6.66557">
        <ele>1572.937417</ele>
        <time>2023-03-21T07:07:42.786Z</time>
      </trkpt>
      <trkpt lat="46.03537" lon="6.66552">
        <ele>1571.302825</ele>
        <time>2023-03-21T07:07:44.481Z</time>
      </trkpt>
      <trkpt lat="46.0355" lon="6.66556">
        <ele>1568.678998</ele>
        <time>2023-03-21T07:07:47.421Z</time>
      </trkpt>
      <trkpt lat="46.03576" lon="6.66572">
        <ele>1563.450146</ele>
        <time>2023-03-21T07:07:52.837Z</time>
      </trkpt>
      <trkpt lat="46.03586" lon="6.66583">
        <ele>1561.007752</ele>
        <time>2023-03-21T07:07:55.597Z</time>
      </trkpt>
      <trkpt lat="46.03594" lon="6.66564">
        <ele>1558.14721</ele>
        <time>2023-03-21T07:07:58.601Z</time>
      </trkpt>
      <trkpt lat="46.03593" lon="6.66542">
        <ele>1555.247854</ele>
        <time>2023-03-21T07:08:01.636Z</time>
      </trkpt>
      <trkpt lat="46.03584" lon="6.66504">
        <ele>1550.835537</ele>
        <time>2023-03-21T07:08:07.207Z</time>
      </trkpt>
      <trkpt lat="46.03566" lon="6.66456">
        <ele>1544.852633</ele>
        <time>2023-03-21T07:08:14.928Z</time>
      </trkpt>
      <trkpt lat="46.03563" lon="6.6644">
        <ele>1543.066219</ele>
        <time>2023-03-21T07:08:17.409Z</time>
      </trkpt>
      <trkpt lat="46.03563" lon="6.66429">
        <ele>1541.90612</ele>
        <time>2023-03-21T07:08:18.915Z</time>
      </trkpt>
      <trkpt lat="46.03571" lon="6.66415">
        <ele>1539.948053</ele>
        <time>2023-03-21T07:08:21.381Z</time>
      </trkpt>
      <trkpt lat="46.03585" lon="6.66415">
        <ele>1537.737761</ele>
        <time>2023-03-21T07:08:24.332Z</time>
      </trkpt>
      <trkpt lat="46.03589" lon="6.66408">
        <ele>1536.702243</ele>
        <time>2023-03-21T07:08:25.713Z</time>
      </trkpt>
      <trkpt lat="46.03575" lon="6.66388">
        <ele>1533.603156</ele>
        <time>2023-03-21T07:08:29.586Z</time>
      </trkpt>
      <trkpt lat="46.03573" lon="6.66377">
        <ele>1532.403909</ele>
        <time>2023-03-21T07:08:31.161Z</time>
      </trkpt>
      <trkpt lat="46.03575" lon="6.66368">
        <ele>1531.250875</ele>
        <time>2023-03-21T07:08:32.714Z</time>
      </trkpt>
      <trkpt lat="46.0359" lon="6.66341">
        <ele>1527.61721</ele>
        <time>2023-03-21T07:08:37.315Z</time>
      </trkpt>
      <trkpt lat="46.03592" lon="6.66304">
        <ele>1524.662336</ele>
        <time>2023-03-21T07:08:42.683Z</time>
      </trkpt>
      <trkpt lat="46.03585" lon="6.66295">
        <ele>1523.685532</ele>
        <time>2023-03-21T07:08:44.560Z</time>
      </trkpt>
      <trkpt lat="46.03567" lon="6.66293">
        <ele>1521.876454</ele>
        <time>2023-03-21T07:08:48.314Z</time>
      </trkpt>
      <trkpt lat="46.0354" lon="6.66241">
        <ele>1517.16196</ele>
        <time>2023-03-21T07:08:57.680Z</time>
      </trkpt>
      <trkpt lat="46.03531" lon="6.66231">
        <ele>1516.020642</ele>
        <time>2023-03-21T07:08:59.921Z</time>
      </trkpt>
      <trkpt lat="46.03559" lon="6.66217">
        <ele>1512.983786</ele>
        <time>2023-03-21T07:09:06.625Z</time>
      </trkpt>
      <trkpt lat="46.03574" lon="6.6622">
        <ele>1511.414005</ele>
        <time>2023-03-21T07:09:10.196Z</time>
      </trkpt>
      <trkpt lat="46.03593" lon="6.66204">
        <ele>1509.1217</ele>
        <time>2023-03-21T07:09:15.353Z</time>
      </trkpt>
      <trkpt lat="46.03591" lon="6.66197">
        <ele>1508.660646</ele>
        <time>2023-03-21T07:09:16.345Z</time>
      </trkpt>
      <trkpt lat="46.03578" lon="6.66204">
        <ele>1507.671594</ele>
        <time>2023-03-21T07:09:19.956Z</time>
      </trkpt>
      <trkpt lat="46.0357" lon="6.66202">
        <ele>1507.165501</ele>
        <time>2023-03-21T07:09:22.084Z</time>
      </trkpt>
      <trkpt lat="46.03549" lon="6.66177">
        <ele>1505.589019</ele>
        <time>2023-03-21T07:09:28.671Z</time>
      </trkpt>
      <trkpt lat="46.0354" lon="6.66173">
        <ele>1505.02427</ele>
        <time>2023-03-21T07:09:30.989Z</time>
      </trkpt>
      <trkpt lat="46.03526" lon="6.66174">
        <ele>1504.260732</ele>
        <time>2023-03-21T07:09:33.943Z</time>
      </trkpt>
      <trkpt lat="46.0352" lon="6.66168">
        <ele>1503.802892</ele>
        <time>2023-03-21T07:09:36.085Z</time>
      </trkpt>
      <trkpt lat="46.03533" lon="6.66158">
        <ele>1502.939094</ele>
        <time>2023-03-21T07:09:39.816Z</time>
      </trkpt>
      <trkpt lat="46.03549" lon="6.66155">
        <ele>1501.993159</ele>
        <time>2023-03-21T07:09:43.737Z</time>
      </trkpt>
      <trkpt lat="46.03555" lon="6.66147">
        <ele>1501.545145</ele>
        <time>2023-03-21T07:09:45.703Z</time>
      </trkpt>
      <trkpt lat="46.03552" lon="6.66141">
        <ele>1501.229353</ele>
        <time>2023-03-21T07:09:47.037Z</time>
      </trkpt>
      <trkpt lat="46.03533" lon="6.66113">
        <ele>1499.674045</ele>
        <time>2023-03-21T07:09:53.112Z</time>
      </trkpt>
      <trkpt lat="46.0352" lon="6.6611">
        <ele>1498.873143</ele>
        <time>2023-03-21T07:09:56.294Z</time>
      </trkpt>
      <trkpt lat="46.03495" lon="6.66103">
        <ele>1497.125335</ele>
        <time>2023-03-21T07:10:01.920Z</time>
      </trkpt>
      <trkpt lat="46.03489" lon="6.66097">
        <ele>1496.3702</ele>
        <time>2023-03-21T07:10:03.607Z</time>
      </trkpt>
      <trkpt lat="46.03478" lon="6.66078">
        <ele>1494.66779</ele>
        <time>2023-03-21T07:10:07.305Z</time>
      </trkpt>
      <trkpt lat="46.03458" lon="6.66064">
        <ele>1492.382827</ele>
        <time>2023-03-21T07:10:12.399Z</time>
      </trkpt>
      <trkpt lat="46.03449" lon="6.66048">
        <ele>1490.95285</ele>
        <time>2023-03-21T07:10:15.476Z</time>
      </trkpt>
      <trkpt lat="46.03428" lon="6.65959">
        <ele>1484.357888</ele>
        <time>2023-03-21T07:10:29.295Z</time>
      </trkpt>
      <trkpt lat="46.03418" lon="6.65932">
        <ele>1482.155235</ele>
        <time>2023-03-21T07:10:33.833Z</time>
      </trkpt>
      <trkpt lat="46.03406" lon="6.6591">
        <ele>1480.178843</ele>
        <time>2023-03-21T07:10:37.804Z</time>
      </trkpt>
      <trkpt lat="46.03385" lon="6.65887">
        <ele>1476.901204</ele>
        <time>2023-03-21T07:10:43.098Z</time>
      </trkpt>
      <trkpt lat="46.0337" lon="6.65859">
        <ele>1473.536178</ele>
        <time>2023-03-21T07:10:48.297Z</time>
      </trkpt>
      <trkpt lat="46.03361" lon="6.65782">
        <ele>1466.11789</ele>
        <time>2023-03-21T07:10:59.454Z</time>
      </trkpt>
      <trkpt lat="46.03374" lon="6.65754">
        <ele>1463.030992</ele>
        <time>2023-03-21T07:11:04.174Z</time>
      </trkpt>
      <trkpt lat="46.03379" lon="6.6575">
        <ele>1462.175316</ele>
        <time>2023-03-21T07:11:05.430Z</time>
      </trkpt>
      <trkpt lat="46.03361" lon="6.65741">
        <ele>1459.498829</ele>
        <time>2023-03-21T07:11:09.664Z</time>
      </trkpt>
      <trkpt lat="46.03361" lon="6.65741">
        <ele>1459.498829</ele>
        <time>2023-03-21T07:11:09.708Z</time>
      </trkpt>
      <trkpt lat="46.03361" lon="6.65741">
        <ele>1459.498829</ele>
        <time>2023-03-21T07:11:09.708Z</time>
      </trkpt>
      <trkpt lat="46.03357" lon="6.65756">
        <ele>1458.018065</ele>
        <time>2023-03-21T07:11:14.428Z</time>
      </trkpt>
      <trkpt lat="46.03361" lon="6.65735">
        <ele>1455.968121</ele>
        <time>2023-03-21T07:11:20.946Z</time>
      </trkpt>
      <trkpt lat="46.03368" lon="6.65725">
        <ele>1454.601941</ele>
        <time>2023-03-21T07:11:25.181Z</time>
      </trkpt>
      <trkpt lat="46.03367" lon="6.65706">
        <ele>1452.700681</ele>
        <time>2023-03-21T07:11:30.920Z</time>
      </trkpt>
      <trkpt lat="46.03374" lon="6.65702">
        <ele>1451.618321</ele>
        <time>2023-03-21T07:11:34.174Z</time>
      </trkpt>
      <trkpt lat="46.03372" lon="6.65686">
        <ele>1449.996171</ele>
        <time>2023-03-21T07:11:39.025Z</time>
      </trkpt>
      <trkpt lat="46.0336" lon="6.65675">
        <ele>1447.95183</ele>
        <time>2023-03-21T07:11:45.178Z</time>
      </trkpt>
      <trkpt lat="46.03353" lon="6.65664">
        <ele>1446.462907</ele>
        <time>2023-03-21T07:11:49.657Z</time>
      </trkpt>
      <trkpt lat="46.03339" lon="6.65653">
        <ele>1444.170852</ele>
        <time>2023-03-21T07:11:56.514Z</time>
      </trkpt>
      <trkpt lat="46.03338" lon="6.65657">
        <ele>1443.74664</ele>
        <time>2023-03-21T07:11:57.790Z</time>
      </trkpt>
      <trkpt lat="46.03334" lon="6.65657">
        <ele>1443.171735</ele>
        <time>2023-03-21T07:11:59.520Z</time>
      </trkpt>
      <trkpt lat="46.03328" lon="6.65652">
        <ele>1442.175458</ele>
        <time>2023-03-21T07:12:02.525Z</time>
      </trkpt>
      <trkpt lat="46.03326" lon="6.65645">
        <ele>1441.420156</ele>
        <time>2023-03-21T07:12:04.789Z</time>
      </trkpt>
      <trkpt lat="46.03313" lon="6.65638">
        <ele>1439.425429</ele>
        <time>2023-03-21T07:12:10.748Z</time>
      </trkpt>
      <trkpt lat="46.03306" lon="6.65631">
        <ele>1438.200658</ele>
        <time>2023-03-21T07:12:14.433Z</time>
      </trkpt>
      <trkpt lat="46.03291" lon="6.65626">
        <ele>1435.987788</ele>
        <time>2023-03-21T07:12:21.079Z</time>
      </trkpt>
      <trkpt lat="46.0329" lon="6.65621">
        <ele>1435.468591</ele>
        <time>2023-03-21T07:12:22.634Z</time>
      </trkpt>
      <trkpt lat="46.03285" lon="6.65619">
        <ele>1434.722765</ele>
        <time>2023-03-21T07:12:24.866Z</time>
      </trkpt>
      <trkpt lat="46.03271" lon="6.656">
        <ele>1431.958154</ele>
        <time>2023-03-21T07:12:33.173Z</time>
      </trkpt>
      <trkpt lat="46.03256" lon="6.65592">
        <ele>1429.65922</ele>
        <time>2023-03-21T07:12:40.062Z</time>
      </trkpt>
      <trkpt lat="46.03249" lon="6.65585">
        <ele>1428.417463</ele>
        <time>2023-03-21T07:12:43.738Z</time>
      </trkpt>
      <trkpt lat="46.03234" lon="6.65577">
        <ele>1426.071775</ele>
        <time>2023-03-21T07:12:50.646Z</time>
      </trkpt>
      <trkpt lat="46.03219" lon="6.65583">
        <ele>1423.788791</ele>
        <time>2023-03-21T07:12:57.347Z</time>
      </trkpt>
      <trkpt lat="46.03215" lon="6.65581">
        <ele>1423.167857</ele>
        <time>2023-03-21T07:12:59.178Z</time>
      </trkpt>
      <trkpt lat="46.03214" lon="6.65575">
        <ele>1422.539629</ele>
        <time>2023-03-21T07:13:01.032Z</time>
      </trkpt>
      <trkpt lat="46.03218" lon="6.6557">
        <ele>1421.762945</ele>
        <time>2023-03-21T07:13:03.320Z</time>
      </trkpt>
      <trkpt lat="46.03243" lon="6.65558">
        <ele>1417.898502</ele>
        <time>2023-03-21T07:13:14.679Z</time>
      </trkpt>
      <trkpt lat="46.03249" lon="6.65546">
        <ele>1416.392894</ele>
        <time>2023-03-21T07:13:19.119Z</time>
      </trkpt>
      <trkpt lat="46.03243" lon="6.65545">
        <ele>1415.507127</ele>
        <time>2023-03-21T07:13:21.723Z</time>
      </trkpt>
      <trkpt lat="46.03227" lon="6.65552">
        <ele>1413.054892</ele>
        <time>2023-03-21T07:13:28.922Z</time>
      </trkpt>
      <trkpt lat="46.03222" lon="6.65557">
        <ele>1412.162261</ele>
        <time>2023-03-21T07:13:31.563Z</time>
      </trkpt>
      <trkpt lat="46.03195" lon="6.65537">
        <ele>1407.709826</ele>
        <time>2023-03-21T07:13:44.643Z</time>
      </trkpt>
      <trkpt lat="46.03184" lon="6.65539">
        <ele>1406.083883</ele>
        <time>2023-03-21T07:13:49.452Z</time>
      </trkpt>
      <trkpt lat="46.03182" lon="6.65533">
        <ele>1405.406245</ele>
        <time>2023-03-21T07:13:51.441Z</time>
      </trkpt>
      <trkpt lat="46.03187" lon="6.65527">
        <ele>1404.451877</ele>
        <time>2023-03-21T07:13:54.242Z</time>
      </trkpt>
      <trkpt lat="46.03199" lon="6.65528">
        <ele>1402.702958</ele>
        <time>2023-03-21T07:13:59.411Z</time>
      </trkpt>
      <trkpt lat="46.03205" lon="6.65524">
        <ele>1401.79925</ele>
        <time>2023-03-21T07:14:02.304Z</time>
      </trkpt>
      <trkpt lat="46.03219" lon="6.6551">
        <ele>1399.469664</ele>
        <time>2023-03-21T07:14:09.667Z</time>
      </trkpt>
      <trkpt lat="46.03218" lon="6.65504">
        <ele>1398.884112</ele>
        <time>2023-03-21T07:14:11.507Z</time>
      </trkpt>
      <trkpt lat="46.03212" lon="6.65502">
        <ele>1398.042314</ele>
        <time>2023-03-21T07:14:14.153Z</time>
      </trkpt>
      <trkpt lat="46.03205" lon="6.65495">
        <ele>1396.877521</ele>
        <time>2023-03-21T07:14:17.856Z</time>
      </trkpt>
      <trkpt lat="46.032" lon="6.65495">
        <ele>1396.194084</ele>
        <time>2023-03-21T07:14:20.049Z</time>
      </trkpt>
      <trkpt lat="46.03195" lon="6.65487">
        <ele>1395.172604</ele>
        <time>2023-03-21T07:14:23.258Z</time>
      </trkpt>
      <trkpt lat="46.03197" lon="6.65478">
        <ele>1394.275854</ele>
        <time>2023-03-21T07:14:26.075Z</time>
      </trkpt>
      <trkpt lat="46.03195" lon="6.65472">
        <ele>1393.64425</ele>
        <time>2023-03-21T07:14:28.057Z</time>
      </trkpt>
      <trkpt lat="46.03188" lon="6.65469">
        <ele>1392.645984</ele>
        <time>2023-03-21T07:14:31.194Z</time>
      </trkpt>
      <trkpt lat="46.03181" lon="6.65475">
        <ele>1391.532575</ele>
        <time>2023-03-21T07:14:34.761Z</time>
      </trkpt>
      <trkpt lat="46.03177" lon="6.65472">
        <ele>1390.916148</ele>
        <time>2023-03-21T07:14:36.702Z</time>
      </trkpt>
      <trkpt lat="46.03166" lon="6.65444">
        <ele>1387.863135</ele>
        <time>2023-03-21T07:14:46.280Z</time>
      </trkpt>
      <trkpt lat="46.03167" lon="6.65431">
        <ele>1386.597388</ele>
        <time>2023-03-21T07:14:50.301Z</time>
      </trkpt>
      <trkpt lat="46.03172" lon="6.65431">
        <ele>1385.815444</ele>
        <time>2023-03-21T07:14:51.534Z</time>
      </trkpt>
      <trkpt lat="46.03196" lon="6.65431">
        <ele>1382.534455</ele>
        <time>2023-03-21T07:14:56.595Z</time>
      </trkpt>
      <trkpt lat="46.032" lon="6.65421">
        <ele>1381.512489</ele>
        <time>2023-03-21T07:14:58.065Z</time>
      </trkpt>
      <trkpt lat="46.03223" lon="6.6542">
        <ele>1378.339925</ele>
        <time>2023-03-21T07:15:03.261Z</time>
      </trkpt>
      <trkpt lat="46.03246" lon="6.65407">
        <ele>1374.856054</ele>
        <time>2023-03-21T07:15:08.371Z</time>
      </trkpt>
      <trkpt lat="46.033" lon="6.65408">
        <ele>1367.430972</ele>
        <time>2023-03-21T07:15:19.665Z</time>
      </trkpt>
      <trkpt lat="46.033" lon="6.65408">
        <ele>1367.430972</ele>
        <time>2023-03-21T07:15:19.675Z</time>
      </trkpt>
      <trkpt lat="46.03322" lon="6.65398">
        <ele>1364.266445</ele>
        <time>2023-03-21T07:15:24.420Z</time>
      </trkpt>
      <trkpt lat="46.0333" lon="6.65389">
        <ele>1362.805006</ele>
        <time>2023-03-21T07:15:26.492Z</time>
      </trkpt>
      <trkpt lat="46.03327" lon="6.65378">
        <ele>1361.602146</ele>
        <time>2023-03-21T07:15:28.190Z</time>
      </trkpt>
      <trkpt lat="46.03298" lon="6.65381">
        <ele>1357.69942</ele>
        <time>2023-03-21T07:15:34.052Z</time>
      </trkpt>
      <trkpt lat="46.03272" lon="6.65364">
        <ele>1353.702905</ele>
        <time>2023-03-21T07:15:40.037Z</time>
      </trkpt>
      <trkpt lat="46.03268" lon="6.65353">
        <ele>1352.610239</ele>
        <time>2023-03-21T07:15:41.789Z</time>
      </trkpt>
      <trkpt lat="46.03275" lon="6.65348">
        <ele>1351.646035</ele>
        <time>2023-03-21T07:15:43.393Z</time>
      </trkpt>
      <trkpt lat="46.03288" lon="6.65353">
        <ele>1350.058343</ele>
        <time>2023-03-21T07:15:46.382Z</time>
      </trkpt>
      <trkpt lat="46.03301" lon="6.6535">
        <ele>1348.430835</ele>
        <time>2023-03-21T07:15:49.046Z</time>
      </trkpt>
      <trkpt lat="46.03302" lon="6.6535">
        <ele>1348.368002</ele>
        <time>2023-03-21T07:15:49.152Z</time>
      </trkpt>
      <trkpt lat="46.03309" lon="6.65332">
        <ele>1346.61278</ele>
        <time>2023-03-21T07:15:52.235Z</time>
      </trkpt>
      <trkpt lat="46.03314" lon="6.65315">
        <ele>1345.036438</ele>
        <time>2023-03-21T07:15:54.879Z</time>
      </trkpt>
      <trkpt lat="46.03327" lon="6.653">
        <ele>1342.95729</ele>
        <time>2023-03-21T07:15:58.291Z</time>
      </trkpt>
      <trkpt lat="46.03349" lon="6.65287">
        <ele>1340.092427</ele>
        <time>2023-03-21T07:16:03.200Z</time>
      </trkpt>
      <trkpt lat="46.03375" lon="6.65284">
        <ele>1336.897311</ele>
        <time>2023-03-21T07:16:08.706Z</time>
      </trkpt>
      <trkpt lat="46.03404" lon="6.65287">
        <ele>1333.419647</ele>
        <time>2023-03-21T07:16:14.735Z</time>
      </trkpt>
      <trkpt lat="46.03407" lon="6.65281">
        <ele>1332.776193</ele>
        <time>2023-03-21T07:16:15.950Z</time>
      </trkpt>
      <trkpt lat="46.0341" lon="6.65271">
        <ele>1331.841888</ele>
        <time>2023-03-21T07:16:17.697Z</time>
      </trkpt>
      <trkpt lat="46.03408" lon="6.65256">
        <ele>1331.816407</ele>
        <time>2023-03-21T07:16:19.761Z</time>
      </trkpt>
      <trkpt lat="46.03402" lon="6.65245">
        <ele>1331.934726</ele>
        <time>2023-03-21T07:16:24.068Z</time>
      </trkpt>
      <trkpt lat="46.03375" lon="6.65223">
        <ele>1332.286329</ele>
        <time>2023-03-21T07:16:30.962Z</time>
      </trkpt>
      <trkpt lat="46.03365" lon="6.65197">
        <ele>1332.522384</ele>
        <time>2023-03-21T07:16:48.241Z</time>
      </trkpt>
      <trkpt lat="46.03374" lon="6.65183">
        <ele>1332.672472</ele>
        <time>2023-03-21T07:16:51.159Z</time>
      </trkpt>
      <trkpt lat="46.03439" lon="6.65214">
        <ele>1333.46245</ele>
        <time>2023-03-21T07:17:32.745Z</time>
      </trkpt>
      <trkpt lat="46.03463" lon="6.65216">
        <ele>1333.741056</ele>
        <time>2023-03-21T07:17:52.082Z</time>
      </trkpt>
      <trkpt lat="46.035" lon="6.65194">
        <ele>1337.449826</ele>
        <time>2023-03-21T07:18:14.020Z</time>
      </trkpt>
      <trkpt lat="46.03531" lon="6.65188">
        <ele>1340.594028</ele>
        <time>2023-03-21T07:18:32.935Z</time>
      </trkpt>
      <trkpt lat="46.03531" lon="6.65188">
        <ele>1340.624219</ele>
        <time>2023-03-21T07:18:33.443Z</time>
      </trkpt>
      <trkpt lat="46.03558" lon="6.65191">
        <ele>1343.297295</ele>
        <time>2023-03-21T07:18:53.720Z</time>
      </trkpt>
      <trkpt lat="46.03576" lon="6.65202">
        <ele>1345.304854</ele>
        <time>2023-03-21T07:19:12.794Z</time>
      </trkpt>
      <trkpt lat="46.03577" lon="6.6521">
        <ele>1345.892484</ele>
        <time>2023-03-21T07:19:18.073Z</time>
      </trkpt>
      <trkpt lat="46.03573" lon="6.65215">
        <ele>1346.413288</ele>
        <time>2023-03-21T07:19:22.117Z</time>
      </trkpt>
      <trkpt lat="46.03555" lon="6.65221">
        <ele>1348.258192</ele>
        <time>2023-03-21T07:19:41.720Z</time>
      </trkpt>
      <trkpt lat="46.03544" lon="6.6523">
        <ele>1349.567921</ele>
        <time>2023-03-21T07:19:53.506Z</time>
      </trkpt>
      <trkpt lat="46.03514" lon="6.65276">
        <ele>1354.905097</ele>
        <time>2023-03-21T07:20:39.463Z</time>
      </trkpt>
      <trkpt lat="46.03519" lon="6.65284">
        <ele>1356.048463</ele>
        <time>2023-03-21T07:20:48.688Z</time>
      </trkpt>
      <trkpt lat="46.03555" lon="6.6528">
        <ele>1361.282407</ele>
        <time>2023-03-21T07:21:26.532Z</time>
      </trkpt>
      <trkpt lat="46.03555" lon="6.6528">
        <ele>1361.297067</ele>
        <time>2023-03-21T07:21:26.692Z</time>
      </trkpt>
      <trkpt lat="46.03613" lon="6.65291">
        <ele>1369.902172</ele>
        <time>2023-03-21T07:22:27.737Z</time>
      </trkpt>
      <trkpt lat="46.03634" lon="6.65304">
        <ele>1373.13636</ele>
        <time>2023-03-21T07:22:53.451Z</time>
      </trkpt>
      <trkpt lat="46.03684" lon="6.65322">
        <ele>1379.850521</ele>
        <time>2023-03-21T07:23:46.649Z</time>
      </trkpt>
      <trkpt lat="46.03713" lon="6.65385">
        <ele>1384.837934</ele>
        <time>2023-03-21T07:24:42.205Z</time>
      </trkpt>
      <trkpt lat="46.03777" lon="6.65383">
        <ele>1390.883046</ele>
        <time>2023-03-21T07:25:26.381Z</time>
      </trkpt>
      <trkpt lat="46.03816" lon="6.65355">
        <ele>1394.939717</ele>
        <time>2023-03-21T07:25:48.651Z</time>
      </trkpt>
      <trkpt lat="46.03858" lon="6.65346">
        <ele>1397.468932</ele>
        <time>2023-03-21T07:26:13.187Z</time>
      </trkpt>
      <trkpt lat="46.039" lon="6.65351">
        <ele>1399.825061</ele>
        <time>2023-03-21T07:26:38.438Z</time>
      </trkpt>
      <trkpt lat="46.03934" lon="6.65362">
        <ele>1401.771319</ele>
        <time>2023-03-21T07:26:59.911Z</time>
      </trkpt>
      <trkpt lat="46.03996" lon="6.65409">
        <ele>1405.520822</ele>
        <time>2023-03-21T07:27:42.639Z</time>
      </trkpt>
      <trkpt lat="46.04066" lon="6.65475">
        <ele>1408.35711</ele>
        <time>2023-03-21T07:28:33.643Z</time>
      </trkpt>
      <trkpt lat="46.04087" lon="6.65476">
        <ele>1409.053768</ele>
        <time>2023-03-21T07:28:44.206Z</time>
      </trkpt>
      <trkpt lat="46.04106" lon="6.65462">
        <ele>1409.790829</ele>
        <time>2023-03-21T07:28:54.248Z</time>
      </trkpt>
      <trkpt lat="46.04168" lon="6.65468">
        <ele>1410.92958</ele>
        <time>2023-03-21T07:29:14.673Z</time>
      </trkpt>
      <trkpt lat="46.04279" lon="6.65488">
        <ele>1407.494169</ele>
        <time>2023-03-21T07:29:43.011Z</time>
      </trkpt>
      <trkpt lat="46.04309" lon="6.65481">
        <ele>1406.581284</ele>
        <time>2023-03-21T07:29:50.355Z</time>
      </trkpt>
      <trkpt lat="46.04351" lon="6.65426">
        <ele>1405.330149</ele>
        <time>2023-03-21T07:30:04.614Z</time>
      </trkpt>
      <trkpt lat="46.04407" lon="6.65399">
        <ele>1404.362946</ele>
        <time>2023-03-21T07:30:20.318Z</time>
      </trkpt>
      <trkpt lat="46.04448" lon="6.65391">
        <ele>1403.692095</ele>
        <time>2023-03-21T07:30:31.819Z</time>
      </trkpt>
      <trkpt lat="46.04506" lon="6.65398">
        <ele>1403.105569</ele>
        <time>2023-03-21T07:30:53.319Z</time>
      </trkpt>
      <trkpt lat="46.04559" lon="6.65421">
        <ele>1403.748161</ele>
        <time>2023-03-21T07:31:17.684Z</time>
      </trkpt>
      <trkpt lat="46.0459" lon="6.65447">
        <ele>1404.160213</ele>
        <time>2023-03-21T07:31:32.985Z</time>
      </trkpt>
      <trkpt lat="46.04629" lon="6.65449">
        <ele>1404.611537</ele>
        <time>2023-03-21T07:31:47.969Z</time>
      </trkpt>
      <trkpt lat="46.04675" lon="6.65467">
        <ele>1405.045874</ele>
        <time>2023-03-21T07:32:02.916Z</time>
      </trkpt>
      <trkpt lat="46.04685" lon="6.65506">
        <ele>1405.077033</ele>
        <time>2023-03-21T07:32:11.404Z</time>
      </trkpt>
      <trkpt lat="46.04718" lon="6.65482">
        <ele>1405.11722</ele>
        <time>2023-03-21T07:32:21.985Z</time>
      </trkpt>
      <trkpt lat="46.04738" lon="6.65489">
        <ele>1405.139396</ele>
        <time>2023-03-21T07:32:27.842Z</time>
      </trkpt>
      <trkpt lat="46.0479" lon="6.65471">
        <ele>1405.197745</ele>
        <time>2023-03-21T07:32:44.648Z</time>
      </trkpt>
      <trkpt lat="46.0483" lon="6.65452">
        <ele>1405.817612</ele>
        <time>2023-03-21T07:33:01.735Z</time>
      </trkpt>
      <trkpt lat="46.04868" lon="6.65425">
        <ele>1407.684911</ele>
        <time>2023-03-21T07:33:23.246Z</time>
      </trkpt>
      <trkpt lat="46.04942" lon="6.6541">
        <ele>1410.9692</ele>
        <time>2023-03-21T07:34:07.998Z</time>
      </trkpt>
      <trkpt lat="46.04987" lon="6.65417">
        <ele>1412.972541</ele>
        <time>2023-03-21T07:34:35.535Z</time>
      </trkpt>
      <trkpt lat="46.05019" lon="6.6549">
        <ele>1414.191097</ele>
        <time>2023-03-21T07:35:07.484Z</time>
      </trkpt>
      <trkpt lat="46.05049" lon="6.65538">
        <ele>1415.037118</ele>
        <time>2023-03-21T07:35:28.369Z</time>
      </trkpt>
      <trkpt lat="46.05111" lon="6.65541">
        <ele>1416.191733</ele>
        <time>2023-03-21T07:35:48.468Z</time>
      </trkpt>
      <trkpt lat="46.05155" lon="6.65556">
        <ele>1415.629838</ele>
        <time>2023-03-21T07:36:00.918Z</time>
      </trkpt>
      <trkpt lat="46.05213" lon="6.65544">
        <ele>1413.797977</ele>
        <time>2023-03-21T07:36:16.275Z</time>
      </trkpt>
      <trkpt lat="46.05222" lon="6.6553">
        <ele>1413.402589</ele>
        <time>2023-03-21T07:36:19.597Z</time>
      </trkpt>
      <trkpt lat="46.05227" lon="6.65511">
        <ele>1412.963259</ele>
        <time>2023-03-21T07:36:23.355Z</time>
      </trkpt>
      <trkpt lat="46.05227" lon="6.65474">
        <ele>1412.176726</ele>
        <time>2023-03-21T07:36:29.955Z</time>
      </trkpt>
      <trkpt lat="46.0523" lon="6.65456">
        <ele>1411.773631</ele>
        <time>2023-03-21T07:36:33.217Z</time>
      </trkpt>
      <trkpt lat="46.05237" lon="6.6545">
        <ele>1411.535279</ele>
        <time>2023-03-21T07:36:35.114Z</time>
      </trkpt>
      <trkpt lat="46.05282" lon="6.65446">
        <ele>1409.238107</ele>
        <time>2023-03-21T07:36:46.361Z</time>
      </trkpt>
      <trkpt lat="46.05331" lon="6.65407">
        <ele>1405.630799</ele>
        <time>2023-03-21T07:36:59.114Z</time>
      </trkpt>
      <trkpt lat="46.05345" lon="6.65401">
        <ele>1404.650716</ele>
        <time>2023-03-21T07:37:02.562Z</time>
      </trkpt>
      <trkpt lat="46.05362" lon="6.65361">
        <ele>1402.525028</ele>
        <time>2023-03-21T07:37:09.987Z</time>
      </trkpt>
      <trkpt lat="46.05377" lon="6.65335">
        <ele>1401.053593</ele>
        <time>2023-03-21T07:37:15.089Z</time>
      </trkpt>
      <trkpt lat="46.05386" lon="6.65322">
        <ele>1400.227835</ele>
        <time>2023-03-21T07:37:17.968Z</time>
      </trkpt>
      <trkpt lat="46.05427" lon="6.65278">
        <ele>1397.490653</ele>
        <time>2023-03-21T07:37:29.515Z</time>
      </trkpt>
      <trkpt lat="46.05515" lon="6.65193">
        <ele>1392.404372</ele>
        <time>2023-03-21T07:37:54.404Z</time>
      </trkpt>
      <trkpt lat="46.05532" lon="6.65174">
        <ele>1391.358439</ele>
        <time>2023-03-21T07:38:00.282Z</time>
      </trkpt>
      <trkpt lat="46.05569" lon="6.65133">
        <ele>1391.682743</ele>
        <time>2023-03-21T07:38:15.928Z</time>
      </trkpt>
      <trkpt lat="46.05602" lon="6.6511">
        <ele>1392.897514</ele>
        <time>2023-03-21T07:38:32.312Z</time>
      </trkpt>
      <trkpt lat="46.05636" lon="6.65091">
        <ele>1394.085723</ele>
        <time>2023-03-21T07:38:50.627Z</time>
      </trkpt>
      <trkpt lat="46.05671" lon="6.65033">
        <ele>1395.845756</ele>
        <time>2023-03-21T07:39:21.889Z</time>
      </trkpt>
      <trkpt lat="46.05689" lon="6.64994">
        <ele>1397.439215</ele>
        <time>2023-03-21T07:39:42.415Z</time>
      </trkpt>
      <trkpt lat="46.057" lon="6.64979">
        <ele>1398.648816</ele>
        <time>2023-03-21T07:39:51.669Z</time>
      </trkpt>
      <trkpt lat="46.05708" lon="6.6495">
        <ele>1400.371883</ele>
        <time>2023-03-21T07:40:06.728Z</time>
      </trkpt>
      <trkpt lat="46.0572" lon="6.64932">
        <ele>1401.77791</ele>
        <time>2023-03-21T07:40:18.151Z</time>
      </trkpt>
      <trkpt lat="46.05738" lon="6.64916">
        <ele>1403.4577</ele>
        <time>2023-03-21T07:40:33.626Z</time>
      </trkpt>
      <trkpt lat="46.05755" lon="6.6491">
        <ele>1404.79583</ele>
        <time>2023-03-21T07:40:45.984Z</time>
      </trkpt>
      <trkpt lat="46.05783" lon="6.64882">
        <ele>1407.522083</ele>
        <time>2023-03-21T07:41:11.306Z</time>
      </trkpt>
      <trkpt lat="46.05832" lon="6.64882">
        <ele>1411.569407</ele>
        <time>2023-03-21T07:41:50.119Z</time>
      </trkpt>
      <trkpt lat="46.05863" lon="6.64852">
        <ele>1415.199683</ele>
        <time>2023-03-21T07:42:19.755Z</time>
      </trkpt>
      <trkpt lat="46.05887" lon="6.64838">
        <ele>1417.794579</ele>
        <time>2023-03-21T07:42:42.435Z</time>
      </trkpt>
      <trkpt lat="46.05908" lon="6.64818">
        <ele>1420.265413</ele>
        <time>2023-03-21T07:43:03.787Z</time>
      </trkpt>
      <trkpt lat="46.05938" lon="6.64773">
        <ele>1424.509224</ele>
        <time>2023-03-21T07:43:41.008Z</time>
      </trkpt>
      <trkpt lat="46.06019" lon="6.64678">
        <ele>1432.432932</ele>
        <time>2023-03-21T07:44:59.856Z</time>
      </trkpt>
      <trkpt lat="46.06048" lon="6.64648">
        <ele>1434.623901</ele>
        <time>2023-03-21T07:45:23.446Z</time>
      </trkpt>
      <trkpt lat="46.06131" lon="6.64612">
        <ele>1439.564521</ele>
        <time>2023-03-21T07:46:10.162Z</time>
      </trkpt>
      <trkpt lat="46.06149" lon="6.64591">
        <ele>1439.394032</ele>
        <time>2023-03-21T07:46:20.091Z</time>
      </trkpt>
      <trkpt lat="46.06167" lon="6.64585">
        <ele>1439.25951</ele>
        <time>2023-03-21T07:46:26.192Z</time>
      </trkpt>
      <trkpt lat="46.06174" lon="6.64564">
        <ele>1439.143004</ele>
        <time>2023-03-21T07:46:31.499Z</time>
      </trkpt>
      <trkpt lat="46.06223" lon="6.6454">
        <ele>1438.768492</ele>
        <time>2023-03-21T07:46:46.688Z</time>
      </trkpt>
      <trkpt lat="46.06233" lon="6.64529">
        <ele>1438.679393</ele>
        <time>2023-03-21T07:46:50.240Z</time>
      </trkpt>
      <trkpt lat="46.06269" lon="6.64513">
        <ele>1438.400969</ele>
        <time>2023-03-21T07:47:00.281Z</time>
      </trkpt>
      <trkpt lat="46.06268" lon="6.6446">
        <ele>1437.017476</ele>
        <time>2023-03-21T07:47:09.237Z</time>
      </trkpt>
      <trkpt lat="46.06285" lon="6.64404">
        <ele>1434.448085</ele>
        <time>2023-03-21T07:47:19.317Z</time>
      </trkpt>
      <trkpt lat="46.06294" lon="6.6436">
        <ele>1432.560438</ele>
        <time>2023-03-21T07:47:26.707Z</time>
      </trkpt>
      <trkpt lat="46.06321" lon="6.64332">
        <ele>1430.598021</ele>
        <time>2023-03-21T07:47:34.328Z</time>
      </trkpt>
      <trkpt lat="46.06389" lon="6.64259">
        <ele>1425.474582</ele>
        <time>2023-03-21T07:47:53.668Z</time>
      </trkpt>
      <trkpt lat="46.06423" lon="6.64229">
        <ele>1422.970572</ele>
        <time>2023-03-21T07:48:02.763Z</time>
      </trkpt>
      <trkpt lat="46.06469" lon="6.642">
        <ele>1419.871349</ele>
        <time>2023-03-21T07:48:14.119Z</time>
      </trkpt>
      <trkpt lat="46.06606" lon="6.64088">
        <ele>1411.515528</ele>
        <time>2023-03-21T07:48:52.077Z</time>
      </trkpt>
      <trkpt lat="46.0662" lon="6.64072">
        <ele>1410.62398</ele>
        <time>2023-03-21T07:48:56.566Z</time>
      </trkpt>
      <trkpt lat="46.0663" lon="6.64055">
        <ele>1409.892091</ele>
        <time>2023-03-21T07:49:00.313Z</time>
      </trkpt>
      <trkpt lat="46.06645" lon="6.64036">
        <ele>1408.922202</ele>
        <time>2023-03-21T07:49:05.207Z</time>
      </trkpt>
      <trkpt lat="46.06661" lon="6.64022">
        <ele>1408.045753</ele>
        <time>2023-03-21T07:49:09.701Z</time>
      </trkpt>
      <trkpt lat="46.06702" lon="6.63958">
        <ele>1405.598852</ele>
        <time>2023-03-21T07:49:24.543Z</time>
      </trkpt>
      <trkpt lat="46.06791" lon="6.63868">
        <ele>1401.241338</ele>
        <time>2023-03-21T07:49:52.281Z</time>
      </trkpt>
      <trkpt lat="46.06882" lon="6.63752">
        <ele>1395.493562</ele>
        <time>2023-03-21T07:50:21.812Z</time>
      </trkpt>
      <trkpt lat="46.06929" lon="6.63703">
        <ele>1392.659641</ele>
        <time>2023-03-21T07:50:35.547Z</time>
      </trkpt>
      <trkpt lat="46.06964" lon="6.63666">
        <ele>1390.787833</ele>
        <time>2023-03-21T07:50:45.909Z</time>
      </trkpt>
      <trkpt lat="46.0703" lon="6.63576">
        <ele>1387.097067</ele>
        <time>2023-03-21T07:51:08.216Z</time>
      </trkpt>
      <trkpt lat="46.07067" lon="6.6355">
        <ele>1385.433163</ele>
        <time>2023-03-21T07:51:18.744Z</time>
      </trkpt>
      <trkpt lat="46.07115" lon="6.63509">
        <ele>1384.121671</ele>
        <time>2023-03-21T07:51:33.734Z</time>
      </trkpt>
      <trkpt lat="46.07245" lon="6.63368">
        <ele>1381.733574</ele>
        <time>2023-03-21T07:52:22.268Z</time>
      </trkpt>
      <trkpt lat="46.07278" lon="6.63338">
        <ele>1380.711812</ele>
        <time>2023-03-21T07:52:32.801Z</time>
      </trkpt>
      <trkpt lat="46.07305" lon="6.63331">
        <ele>1379.988007</ele>
        <time>2023-03-21T07:52:40.005Z</time>
      </trkpt>
      <trkpt lat="46.07335" lon="6.63322">
        <ele>1379.172876</ele>
        <time>2023-03-21T07:52:47.797Z</time>
      </trkpt>
      <trkpt lat="46.07366" lon="6.63298">
        <ele>1378.248393</ele>
        <time>2023-03-21T07:52:56.879Z</time>
      </trkpt>
      <trkpt lat="46.07377" lon="6.63301">
        <ele>1377.949999</ele>
        <time>2023-03-21T07:53:00.370Z</time>
      </trkpt>
      <trkpt lat="46.07383" lon="6.63316">
        <ele>1377.622216</ele>
        <time>2023-03-21T07:53:04.121Z</time>
      </trkpt>
      <trkpt lat="46.07389" lon="6.63322">
        <ele>1377.448993</ele>
        <time>2023-03-21T07:53:05.710Z</time>
      </trkpt>
      <trkpt lat="46.07394" lon="6.6332">
        <ele>1377.172317</ele>
        <time>2023-03-21T07:53:06.783Z</time>
      </trkpt>
      <trkpt lat="46.074" lon="6.63314">
        <ele>1376.758793</ele>
        <time>2023-03-21T07:53:08.852Z</time>
      </trkpt>
      <trkpt lat="46.07401" lon="6.63303">
        <ele>1376.341556</ele>
        <time>2023-03-21T07:53:11.002Z</time>
      </trkpt>
      <trkpt lat="46.07407" lon="6.63296">
        <ele>1375.908148</ele>
        <time>2023-03-21T07:53:13.247Z</time>
      </trkpt>
      <trkpt lat="46.07416" lon="6.63299">
        <ele>1375.397424</ele>
        <time>2023-03-21T07:53:15.381Z</time>
      </trkpt>
      <trkpt lat="46.07422" lon="6.63308">
        <ele>1374.904351</ele>
        <time>2023-03-21T07:53:17.400Z</time>
      </trkpt>
      <trkpt lat="46.0743" lon="6.6334">
        <ele>1373.632705</ele>
        <time>2023-03-21T07:53:23.476Z</time>
      </trkpt>
      <trkpt lat="46.07439" lon="6.63337">
        <ele>1373.155907</ele>
        <time>2023-03-21T07:53:25.266Z</time>
      </trkpt>
      <trkpt lat="46.07443" lon="6.63302">
        <ele>1371.812398</ele>
        <time>2023-03-21T07:53:31.617Z</time>
      </trkpt>
      <trkpt lat="46.0746" lon="6.63254">
        <ele>1369.770227</ele>
        <time>2023-03-21T07:53:40.097Z</time>
      </trkpt>
      <trkpt lat="46.07522" lon="6.63138">
        <ele>1363.311503</ele>
        <time>2023-03-21T07:54:02.956Z</time>
      </trkpt>
      <trkpt lat="46.07544" lon="6.63092">
        <ele>1360.659996</ele>
        <time>2023-03-21T07:54:11.601Z</time>
      </trkpt>
      <trkpt lat="46.07568" lon="6.63047">
        <ele>1357.950962</ele>
        <time>2023-03-21T07:54:20.535Z</time>
      </trkpt>
      <trkpt lat="46.07568" lon="6.63047">
        <ele>1357.93921</ele>
        <time>2023-03-21T07:54:20.598Z</time>
      </trkpt>
      <trkpt lat="46.07576" lon="6.6301">
        <ele>1356.11043</ele>
        <time>2023-03-21T07:54:27.001Z</time>
      </trkpt>
      <trkpt lat="46.07587" lon="6.62987">
        <ele>1355.105052</ele>
        <time>2023-03-21T07:54:31.666Z</time>
      </trkpt>
      <trkpt lat="46.07605" lon="6.62961">
        <ele>1354.829</ele>
        <time>2023-03-21T07:54:37.991Z</time>
      </trkpt>
      <trkpt lat="46.07614" lon="6.62948">
        <ele>1354.693463</ele>
        <time>2023-03-21T07:54:41.113Z</time>
      </trkpt>
      <trkpt lat="46.07606" lon="6.62968">
        <ele>1354.518931</ele>
        <time>2023-03-21T07:54:45.480Z</time>
      </trkpt>
      <trkpt lat="46.0759" lon="6.63007">
        <ele>1354.17465</ele>
        <time>2023-03-21T07:54:54.528Z</time>
      </trkpt>
      <trkpt lat="46.07538" lon="6.63206">
        <ele>1353.849314</ele>
        <time>2023-03-21T07:55:52.286Z</time>
      </trkpt>
      <trkpt lat="46.07515" lon="6.63276">
        <ele>1354.422227</ele>
        <time>2023-03-21T07:56:13.360Z</time>
      </trkpt>
      <trkpt lat="46.0751" lon="6.63314">
        <ele>1354.708433</ele>
        <time>2023-03-21T07:56:22.888Z</time>
      </trkpt>
      <trkpt lat="46.07494" lon="6.63341">
        <ele>1354.97025</ele>
        <time>2023-03-21T07:56:31.095Z</time>
      </trkpt>
      <trkpt lat="46.07486" lon="6.63408">
        <ele>1355.334665</ele>
        <time>2023-03-21T07:56:46.328Z</time>
      </trkpt>
      <trkpt lat="46.07478" lon="6.63445">
        <ele>1355.500275</ele>
        <time>2023-03-21T07:56:55.137Z</time>
      </trkpt>
      <trkpt lat="46.07457" lon="6.63483">
        <ele>1355.711256</ele>
        <time>2023-03-21T07:57:06.463Z</time>
      </trkpt>
      <trkpt lat="46.07417" lon="6.63532">
        <ele>1356.037369</ele>
        <time>2023-03-21T07:57:24.340Z</time>
      </trkpt>
      <trkpt lat="46.07357" lon="6.63626">
        <ele>1357.817177</ele>
        <time>2023-03-21T07:57:58.152Z</time>
      </trkpt>
      <trkpt lat="46.07314" lon="6.63687">
        <ele>1359.585959</ele>
        <time>2023-03-21T07:58:26.337Z</time>
      </trkpt>
      <trkpt lat="46.0728" lon="6.63757">
        <ele>1361.315474</ele>
        <time>2023-03-21T07:58:57.091Z</time>
      </trkpt>
      <trkpt lat="46.07237" lon="6.63815">
        <ele>1364.597115</ele>
        <time>2023-03-21T07:59:29.939Z</time>
      </trkpt>
      <trkpt lat="46.07222" lon="6.63864">
        <ele>1366.793841</ele>
        <time>2023-03-21T07:59:52.876Z</time>
      </trkpt>
      <trkpt lat="46.07171" lon="6.63951">
        <ele>1371.444267</ele>
        <time>2023-03-21T08:00:43.922Z</time>
      </trkpt>
      <trkpt lat="46.07122" lon="6.6401">
        <ele>1375.346959</ele>
        <time>2023-03-21T08:01:27.287Z</time>
      </trkpt>
      <trkpt lat="46.0709" lon="6.64058">
        <ele>1378.203711</ele>
        <time>2023-03-21T08:01:57.922Z</time>
      </trkpt>
      <trkpt lat="46.07055" lon="6.64093">
        <ele>1380.841578</ele>
        <time>2023-03-21T08:02:25.281Z</time>
      </trkpt>
      <trkpt lat="46.07029" lon="6.64136">
        <ele>1383.197774</ele>
        <time>2023-03-21T08:02:48.368Z</time>
      </trkpt>
      <trkpt lat="46.07017" lon="6.64174">
        <ele>1383.335215</ele>
        <time>2023-03-21T08:03:03.167Z</time>
      </trkpt>
      <trkpt lat="46.06987" lon="6.64211">
        <ele>1383.521549</ele>
        <time>2023-03-21T08:03:19.606Z</time>
      </trkpt>
      <trkpt lat="46.0696" lon="6.64273">
        <ele>1383.764289</ele>
        <time>2023-03-21T08:03:36.195Z</time>
      </trkpt>
      <trkpt lat="46.06944" lon="6.64322">
        <ele>1383.943036</ele>
        <time>2023-03-21T08:03:46.620Z</time>
      </trkpt>
      <trkpt lat="46.06923" lon="6.64381">
        <ele>1383.113065</ele>
        <time>2023-03-21T08:03:58.359Z</time>
      </trkpt>
      <trkpt lat="46.06851" lon="6.64493">
        <ele>1379.003506</ele>
        <time>2023-03-21T08:04:24.596Z</time>
      </trkpt>
      <trkpt lat="46.0682" lon="6.64533">
        <ele>1377.392408</ele>
        <time>2023-03-21T08:04:30.463Z</time>
      </trkpt>
      <trkpt lat="46.06779" lon="6.64542">
        <ele>1376.671736</ele>
        <time>2023-03-21T08:04:36.667Z</time>
      </trkpt>
      <trkpt lat="46.06741" lon="6.64558">
        <ele>1376.212867</ele>
        <time>2023-03-21T08:04:42.819Z</time>
      </trkpt>
      <trkpt lat="46.06712" lon="6.64573">
        <ele>1375.848447</ele>
        <time>2023-03-21T08:04:48.076Z</time>
      </trkpt>
      <trkpt lat="46.0668" lon="6.64599">
        <ele>1375.420565</ele>
        <time>2023-03-21T08:04:55.137Z</time>
      </trkpt>
      <trkpt lat="46.06639" lon="6.64627">
        <ele>1375.212669</ele>
        <time>2023-03-21T08:05:13.405Z</time>
      </trkpt>
      <trkpt lat="46.06605" lon="6.64638">
        <ele>1376.844145</ele>
        <time>2023-03-21T08:05:29.623Z</time>
      </trkpt>
      <trkpt lat="46.06589" lon="6.64639">
        <ele>1377.576372</ele>
        <time>2023-03-21T08:05:37.508Z</time>
      </trkpt>
      <trkpt lat="46.06541" lon="6.64632">
        <ele>1379.828766</ele>
        <time>2023-03-21T08:06:04.244Z</time>
      </trkpt>
      <trkpt lat="46.06497" lon="6.64615">
        <ele>1381.946692</ele>
        <time>2023-03-21T08:06:33.353Z</time>
      </trkpt>
      <trkpt lat="46.06486" lon="6.64618">
        <ele>1382.458453</ele>
        <time>2023-03-21T08:06:40.493Z</time>
      </trkpt>
      <trkpt lat="46.06411" lon="6.64665">
        <ele>1386.276203</ele>
        <time>2023-03-21T08:07:33.773Z</time>
      </trkpt>
      <trkpt lat="46.06348" lon="6.64718">
        <ele>1389.66495</ele>
        <time>2023-03-21T08:08:16.302Z</time>
      </trkpt>
      <trkpt lat="46.06313" lon="6.64737">
        <ele>1391.43631</ele>
        <time>2023-03-21T08:08:35.332Z</time>
      </trkpt>
      <trkpt lat="46.06272" lon="6.64785">
        <ele>1390.278362</ele>
        <time>2023-03-21T08:08:51.393Z</time>
      </trkpt>
      <trkpt lat="46.06245" lon="6.64803">
        <ele>1389.387498</ele>
        <time>2023-03-21T08:08:58.994Z</time>
      </trkpt>
      <trkpt lat="46.0619" lon="6.64857">
        <ele>1387.334696</ele>
        <time>2023-03-21T08:09:15.397Z</time>
      </trkpt>
      <trkpt lat="46.06174" lon="6.64865">
        <ele>1386.831526</ele>
        <time>2023-03-21T08:09:19.530Z</time>
      </trkpt>
      <trkpt lat="46.06176" lon="6.64877">
        <ele>1386.564967</ele>
        <time>2023-03-21T08:09:21.312Z</time>
      </trkpt>
      <trkpt lat="46.0617" lon="6.64887">
        <ele>1386.270754</ele>
        <time>2023-03-21T08:09:23.969Z</time>
      </trkpt>
      <trkpt lat="46.0614" lon="6.64916">
        <ele>1383.781462</ele>
        <time>2023-03-21T08:09:32.227Z</time>
      </trkpt>
      <trkpt lat="46.06108" lon="6.64927">
        <ele>1381.409642</ele>
        <time>2023-03-21T08:09:39.719Z</time>
      </trkpt>
      <trkpt lat="46.0607" lon="6.64949">
        <ele>1378.409843</ele>
        <time>2023-03-21T08:09:49.265Z</time>
      </trkpt>
      <trkpt lat="46.06014" lon="6.64988">
        <ele>1373.944958</ele>
        <time>2023-03-21T08:10:03.463Z</time>
      </trkpt>
      <trkpt lat="46.06003" lon="6.64998">
        <ele>1372.735051</ele>
        <time>2023-03-21T08:10:06.501Z</time>
      </trkpt>
      <trkpt lat="46.05996" lon="6.6501">
        <ele>1370.985192</ele>
        <time>2023-03-21T08:10:09.014Z</time>
      </trkpt>
      <trkpt lat="46.05994" lon="6.65028">
        <ele>1368.98692</ele>
        <time>2023-03-21T08:10:11.593Z</time>
      </trkpt>
      <trkpt lat="46.05998" lon="6.65039">
        <ele>1367.695633</ele>
        <time>2023-03-21T08:10:13.233Z</time>
      </trkpt>
      <trkpt lat="46.06008" lon="6.65056">
        <ele>1365.20681</ele>
        <time>2023-03-21T08:10:16.461Z</time>
      </trkpt>
      <trkpt lat="46.06035" lon="6.65076">
        <ele>1360.431511</ele>
        <time>2023-03-21T08:10:22.456Z</time>
      </trkpt>
      <trkpt lat="46.06049" lon="6.65104">
        <ele>1356.578835</ele>
        <time>2023-03-21T08:10:27.277Z</time>
      </trkpt>
      <trkpt lat="46.06052" lon="6.65131">
        <ele>1353.58457</ele>
        <time>2023-03-21T08:10:31.072Z</time>
      </trkpt>
      <trkpt lat="46.06047" lon="6.65184">
        <ele>1347.802258</ele>
        <time>2023-03-21T08:10:38.250Z</time>
      </trkpt>
      <trkpt lat="46.06056" lon="6.65223">
        <ele>1342.966405</ele>
        <time>2023-03-21T08:10:43.811Z</time>
      </trkpt>
      <trkpt lat="46.06063" lon="6.65313">
        <ele>1330.82378</ele>
        <time>2023-03-21T08:10:56.115Z</time>
      </trkpt>
      <trkpt lat="46.06056" lon="6.65342">
        <ele>1326.861721</ele>
        <time>2023-03-21T08:11:00.124Z</time>
      </trkpt>
      <trkpt lat="46.06055" lon="6.65357">
        <ele>1324.803864</ele>
        <time>2023-03-21T08:11:02.200Z</time>
      </trkpt>
      <trkpt lat="46.06063" lon="6.65386">
        <ele>1320.668921</ele>
        <time>2023-03-21T08:11:06.405Z</time>
      </trkpt>
      <trkpt lat="46.06093" lon="6.65456">
        <ele>1309.85283</ele>
        <time>2023-03-21T08:11:17.712Z</time>
      </trkpt>
      <trkpt lat="46.06107" lon="6.65479">
        <ele>1307.236307</ele>
        <time>2023-03-21T08:11:22.178Z</time>
      </trkpt>
      <trkpt lat="46.0612" lon="6.6549">
        <ele>1305.494515</ele>
        <time>2023-03-21T08:11:25.195Z</time>
      </trkpt>
      <trkpt lat="46.0613" lon="6.65503">
        <ele>1303.805694</ele>
        <time>2023-03-21T08:11:28.145Z</time>
      </trkpt>
      <trkpt lat="46.06128" lon="6.65524">
        <ele>1302.102204</ele>
        <time>2023-03-21T08:11:31.151Z</time>
      </trkpt>
      <trkpt lat="46.06111" lon="6.65563">
        <ele>1298.235517</ele>
        <time>2023-03-21T08:11:37.966Z</time>
      </trkpt>
      <trkpt lat="46.06114" lon="6.65587">
        <ele>1296.133798</ele>
        <time>2023-03-21T08:11:41.707Z</time>
      </trkpt>
      <trkpt lat="46.0612" lon="6.65596">
        <ele>1295.13851</ele>
        <time>2023-03-21T08:11:43.460Z</time>
      </trkpt>
      <trkpt lat="46.06145" lon="6.65615">
        <ele>1291.667753</ele>
        <time>2023-03-21T08:11:49.640Z</time>
      </trkpt>
      <trkpt lat="46.06181" lon="6.65671">
        <ele>1285.304433</ele>
        <time>2023-03-21T08:12:00.456Z</time>
      </trkpt>
      <trkpt lat="46.06207" lon="6.65678">
        <ele>1282.097912</ele>
        <time>2023-03-21T08:12:05.896Z</time>
      </trkpt>
      <trkpt lat="46.06217" lon="6.65687">
        <ele>1280.625991</ele>
        <time>2023-03-21T08:12:08.471Z</time>
      </trkpt>
      <trkpt lat="46.06245" lon="6.65686">
        <ele>1277.270849</ele>
        <time>2023-03-21T08:12:14.245Z</time>
      </trkpt>
      <trkpt lat="46.06282" lon="6.65672">
        <ele>1272.652819</ele>
        <time>2023-03-21T08:12:22.234Z</time>
      </trkpt>
      <trkpt lat="46.06299" lon="6.65678">
        <ele>1270.519412</ele>
        <time>2023-03-21T08:12:25.844Z</time>
      </trkpt>
      <trkpt lat="46.06299" lon="6.65684">
        <ele>1270.017062</ele>
        <time>2023-03-21T08:12:26.669Z</time>
      </trkpt>
      <trkpt lat="46.06285" lon="6.65731">
        <ele>1266.064794</ele>
        <time>2023-03-21T08:12:34.199Z</time>
      </trkpt>
      <trkpt lat="46.06258" lon="6.65796">
        <ele>1262.120362</ele>
        <time>2023-03-21T08:12:45.691Z</time>
      </trkpt>
      <trkpt lat="46.06189" lon="6.65881">
        <ele>1255.305879</ele>
        <time>2023-03-21T08:13:06.345Z</time>
      </trkpt>
      <trkpt lat="46.06176" lon="6.65893">
        <ele>1254.169046</ele>
        <time>2023-03-21T08:13:10.045Z</time>
      </trkpt>
      <trkpt lat="46.06168" lon="6.65894">
        <ele>1253.520968</ele>
        <time>2023-03-21T08:13:12.424Z</time>
      </trkpt>
      <trkpt lat="46.06164" lon="6.659">
        <ele>1253.142842</ele>
        <time>2023-03-21T08:13:14.304Z</time>
      </trkpt>
      <trkpt lat="46.06164" lon="6.65905">
        <ele>1252.934548</ele>
        <time>2023-03-21T08:13:15.222Z</time>
      </trkpt>
      <trkpt lat="46.06162" lon="6.65931">
        <ele>1251.907774</ele>
        <time>2023-03-21T08:13:19.563Z</time>
      </trkpt>
      <trkpt lat="46.06158" lon="6.65944">
        <ele>1251.323546</ele>
        <time>2023-03-21T08:13:22.360Z</time>
      </trkpt>
      <trkpt lat="46.06139" lon="6.6596">
        <ele>1250.096135</ele>
        <time>2023-03-21T08:13:27.701Z</time>
      </trkpt>
      <trkpt lat="46.06111" lon="6.65992">
        <ele>1248.039572</ele>
        <time>2023-03-21T08:13:36.442Z</time>
      </trkpt>
      <trkpt lat="46.06094" lon="6.66001">
        <ele>1247.054974</ele>
        <time>2023-03-21T08:13:40.727Z</time>
      </trkpt>
      <trkpt lat="46.0608" lon="6.66023">
        <ele>1245.858123</ele>
        <time>2023-03-21T08:13:45.509Z</time>
      </trkpt>
      <trkpt lat="46.06075" lon="6.66034">
        <ele>1245.345979</ele>
        <time>2023-03-21T08:13:47.662Z</time>
      </trkpt>
      <trkpt lat="46.06073" lon="6.66071">
        <ele>1243.908751</ele>
        <time>2023-03-21T08:13:53.430Z</time>
      </trkpt>
      <trkpt lat="46.06069" lon="6.66086">
        <ele>1243.296637</ele>
        <time>2023-03-21T08:13:55.874Z</time>
      </trkpt>
      <trkpt lat="46.06055" lon="6.66115">
        <ele>1241.151711</ele>
        <time>2023-03-21T08:14:01.384Z</time>
      </trkpt>
      <trkpt lat="46.06058" lon="6.66157">
        <ele>1238.28152</ele>
        <time>2023-03-21T08:14:07.908Z</time>
      </trkpt>
      <trkpt lat="46.06053" lon="6.66177">
        <ele>1236.886724</ele>
        <time>2023-03-21T08:14:11.092Z</time>
      </trkpt>
      <trkpt lat="46.06055" lon="6.66184">
        <ele>1236.361948</ele>
        <time>2023-03-21T08:14:12.272Z</time>
      </trkpt>
      <trkpt lat="46.06082" lon="6.66246">
        <ele>1231.411405</ele>
        <time>2023-03-21T08:14:23.214Z</time>
      </trkpt>
      <trkpt lat="46.06094" lon="6.66266">
        <ele>1229.651703</ele>
        <time>2023-03-21T08:14:27.042Z</time>
      </trkpt>
      <trkpt lat="46.06088" lon="6.66321">
        <ele>1225.86009</ele>
        <time>2023-03-21T08:14:35.245Z</time>
      </trkpt>
      <trkpt lat="46.06062" lon="6.66351">
        <ele>1221.166589</ele>
        <time>2023-03-21T08:14:42.087Z</time>
      </trkpt>
      <trkpt lat="46.0606" lon="6.6636">
        <ele>1220.160684</ele>
        <time>2023-03-21T08:14:43.447Z</time>
      </trkpt>
      <trkpt lat="46.06061" lon="6.66368">
        <ele>1219.231683</ele>
        <time>2023-03-21T08:14:44.746Z</time>
      </trkpt>
      <trkpt lat="46.06093" lon="6.66414">
        <ele>1212.473995</ele>
        <time>2023-03-21T08:14:53.889Z</time>
      </trkpt>
      <trkpt lat="46.0611" lon="6.66448">
        <ele>1208.127357</ele>
        <time>2023-03-21T08:14:59.690Z</time>
      </trkpt>
      <trkpt lat="46.06131" lon="6.66482">
        <ele>1203.319448</ele>
        <time>2023-03-21T08:15:06.051Z</time>
      </trkpt>
      <trkpt lat="46.06139" lon="6.6649">
        <ele>1201.755659</ele>
        <time>2023-03-21T08:15:08.126Z</time>
      </trkpt>
      <trkpt lat="46.06164" lon="6.66496">
        <ele>1197.943248</ele>
        <time>2023-03-21T08:15:13.032Z</time>
      </trkpt>
      <trkpt lat="46.06209" lon="6.6655">
        <ele>1186.985075</ele>
        <time>2023-03-21T08:15:24.583Z</time>
      </trkpt>
      <trkpt lat="46.06273" lon="6.66616">
        <ele>1172.417756</ele>
        <time>2023-03-21T08:15:40.052Z</time>
      </trkpt>
      <trkpt lat="46.06302" lon="6.66635">
        <ele>1166.556474</ele>
        <time>2023-03-21T08:15:46.208Z</time>
      </trkpt>
      <trkpt lat="46.06327" lon="6.66638">
        <ele>1162.767484</ele>
        <time>2023-03-21T08:15:51.268Z</time>
      </trkpt>
      <trkpt lat="46.06365" lon="6.66653">
        <ele>1157.813683</ele>
        <time>2023-03-21T08:15:59.081Z</time>
      </trkpt>
      <trkpt lat="46.06396" lon="6.66655">
        <ele>1153.912318</ele>
        <time>2023-03-21T08:16:05.391Z</time>
      </trkpt>
      <trkpt lat="46.06406" lon="6.6665">
        <ele>1152.547505</ele>
        <time>2023-03-21T08:16:07.614Z</time>
      </trkpt>
      <trkpt lat="46.06412" lon="6.66642">
        <ele>1151.50656</ele>
        <time>2023-03-21T08:16:09.348Z</time>
      </trkpt>
      <trkpt lat="46.06418" lon="6.66642">
        <ele>1150.730759</ele>
        <time>2023-03-21T08:16:10.722Z</time>
      </trkpt>
      <trkpt lat="46.06437" lon="6.66664">
        <ele>1147.708921</ele>
        <time>2023-03-21T08:16:15.673Z</time>
      </trkpt>
      <trkpt lat="46.06437" lon="6.6668">
        <ele>1146.306033</ele>
        <time>2023-03-21T08:16:18.217Z</time>
      </trkpt>
      <trkpt lat="46.06434" lon="6.66702">
        <ele>1144.370108</ele>
        <time>2023-03-21T08:16:21.565Z</time>
      </trkpt>
      <trkpt lat="46.06429" lon="6.66715">
        <ele>1143.003543</ele>
        <time>2023-03-21T08:16:23.920Z</time>
      </trkpt>
      <trkpt lat="46.06424" lon="6.66722">
        <ele>1142.089133</ele>
        <time>2023-03-21T08:16:25.620Z</time>
      </trkpt>
      <trkpt lat="46.0639" lon="6.66739">
        <ele>1139.775985</ele>
        <time>2023-03-21T08:16:33.838Z</time>
      </trkpt>
      <trkpt lat="46.06351" lon="6.66743">
        <ele>1137.344147</ele>
        <time>2023-03-21T08:16:42.539Z</time>
      </trkpt>
      <trkpt lat="46.06341" lon="6.66748">
        <ele>1136.675091</ele>
        <time>2023-03-21T08:16:45.060Z</time>
      </trkpt>
      <trkpt lat="46.06338" lon="6.66752">
        <ele>1136.386874</ele>
        <time>2023-03-21T08:16:45.988Z</time>
      </trkpt>
      <trkpt lat="46.06338" lon="6.66759">
        <ele>1136.091305</ele>
        <time>2023-03-21T08:16:46.919Z</time>
      </trkpt>
      <trkpt lat="46.06344" lon="6.66771">
        <ele>1135.419352</ele>
        <time>2023-03-21T08:16:49.640Z</time>
      </trkpt>
      <trkpt lat="46.0636" lon="6.66782">
        <ele>1134.300186</ele>
        <time>2023-03-21T08:16:54.710Z</time>
      </trkpt>
      <trkpt lat="46.06367" lon="6.66784">
        <ele>1133.844275</ele>
        <time>2023-03-21T08:16:56.174Z</time>
      </trkpt>
      <trkpt lat="46.06389" lon="6.66802">
        <ele>1132.257133</ele>
        <time>2023-03-21T08:17:03.520Z</time>
      </trkpt>
      <trkpt lat="46.06405" lon="6.66823">
        <ele>1130.887516</ele>
        <time>2023-03-21T08:17:08.447Z</time>
      </trkpt>
      <trkpt lat="46.06415" lon="6.66844">
        <ele>1129.670647</ele>
        <time>2023-03-21T08:17:13.224Z</time>
      </trkpt>
      <trkpt lat="46.06413" lon="6.66859">
        <ele>1128.944839</ele>
        <time>2023-03-21T08:17:15.308Z</time>
      </trkpt>
      <trkpt lat="46.06406" lon="6.66871">
        <ele>1128.192972</ele>
        <time>2023-03-21T08:17:19.671Z</time>
      </trkpt>
      <trkpt lat="46.06385" lon="6.6689">
        <ele>1126.433731</ele>
        <time>2023-03-21T08:17:25.151Z</time>
      </trkpt>
      <trkpt lat="46.06379" lon="6.66902">
        <ele>1125.692385</ele>
        <time>2023-03-21T08:17:28.448Z</time>
      </trkpt>
      <trkpt lat="46.06377" lon="6.66917">
        <ele>1124.971491</ele>
        <time>2023-03-21T08:17:31.046Z</time>
      </trkpt>
      <trkpt lat="46.06387" lon="6.66939">
        <ele>1123.713931</ele>
        <time>2023-03-21T08:17:34.892Z</time>
      </trkpt>
      <trkpt lat="46.06414" lon="6.66987">
        <ele>1120.701985</ele>
        <time>2023-03-21T08:17:44.708Z</time>
      </trkpt>
      <trkpt lat="46.06427" lon="6.67001">
        <ele>1119.552068</ele>
        <time>2023-03-21T08:17:48.644Z</time>
      </trkpt>
      <trkpt lat="46.06453" lon="6.67038">
        <ele>1116.365816</ele>
        <time>2023-03-21T08:17:56.391Z</time>
      </trkpt>
      <trkpt lat="46.06467" lon="6.67073">
        <ele>1113.139336</ele>
        <time>2023-03-21T08:18:02.272Z</time>
      </trkpt>
      <trkpt lat="46.0647" lon="6.67092">
        <ele>1111.614529</ele>
        <time>2023-03-21T08:18:05.270Z</time>
      </trkpt>
      <trkpt lat="46.06465" lon="6.67141">
        <ele>1107.66987</ele>
        <time>2023-03-21T08:18:12.458Z</time>
      </trkpt>
      <trkpt lat="46.0647" lon="6.67165">
        <ele>1105.722531</ele>
        <time>2023-03-21T08:18:15.844Z</time>
      </trkpt>
      <trkpt lat="46.06468" lon="6.67252">
        <ele>1098.773594</ele>
        <time>2023-03-21T08:18:28.955Z</time>
      </trkpt>
      <trkpt lat="46.06473" lon="6.67265">
        <ele>1097.605039</ele>
        <time>2023-03-21T08:18:30.974Z</time>
      </trkpt>
      <trkpt lat="46.06482" lon="6.67276">
        <ele>1096.290981</ele>
        <time>2023-03-21T08:18:33.339Z</time>
      </trkpt>
      <trkpt lat="46.06492" lon="6.67284">
        <ele>1094.898483</ele>
        <time>2023-03-21T08:18:36.113Z</time>
      </trkpt>
      <trkpt lat="46.06505" lon="6.67285">
        <ele>1093.488591</ele>
        <time>2023-03-21T08:18:38.570Z</time>
      </trkpt>
      <trkpt lat="46.06512" lon="6.67299">
        <ele>1092.030969</ele>
        <time>2023-03-21T08:18:40.133Z</time>
      </trkpt>
      <trkpt lat="46.06519" lon="6.67329">
        <ele>1089.548154</ele>
        <time>2023-03-21T08:18:42.786Z</time>
      </trkpt>
      <trkpt lat="46.06524" lon="6.67326">
        <ele>1088.919871</ele>
        <time>2023-03-21T08:18:43.397Z</time>
      </trkpt>
      <trkpt lat="46.06529" lon="6.67318">
        <ele>1088.062756</ele>
        <time>2023-03-21T08:18:44.324Z</time>
      </trkpt>
      <trkpt lat="46.0654" lon="6.67288">
        <ele>1085.427881</ele>
        <time>2023-03-21T08:18:47.091Z</time>
      </trkpt>
      <trkpt lat="46.06543" lon="6.67271">
        <ele>1083.97829</ele>
        <time>2023-03-21T08:18:48.546Z</time>
      </trkpt>
      <trkpt lat="46.06544" lon="6.67233">
        <ele>1080.993457</ele>
        <time>2023-03-21T08:18:51.707Z</time>
      </trkpt>
      <trkpt lat="46.06544" lon="6.67233">
        <ele>1080.993457</ele>
        <time>2023-03-21T08:18:51.979Z</time>
      </trkpt>
      <trkpt lat="46.06544" lon="6.67233">
        <ele>1080.993457</ele>
        <time>2023-03-21T08:18:51.979Z</time>
      </trkpt>
      <trkpt lat="46.06545" lon="6.67234">
        <ele>1080.904995</ele>
        <time>2023-03-21T08:18:52.313Z</time>
      </trkpt>
      <trkpt lat="46.06569" lon="6.67234">
        <ele>1078.154686</ele>
        <time>2023-03-21T08:19:02.596Z</time>
      </trkpt>
      <trkpt lat="46.06582" lon="6.67249">
        <ele>1076.276674</ele>
        <time>2023-03-21T08:19:09.775Z</time>
      </trkpt>
      <trkpt lat="46.06584" lon="6.6728">
        <ele>1073.938588</ele>
        <time>2023-03-21T08:19:19.034Z</time>
      </trkpt>
      <trkpt lat="46.06588" lon="6.67289">
        <ele>1073.135929</ele>
        <time>2023-03-21T08:19:22.215Z</time>
      </trkpt>
      <trkpt lat="46.06605" lon="6.67299">
        <ele>1071.14855</ele>
        <time>2023-03-21T08:19:30.108Z</time>
      </trkpt>
      <trkpt lat="46.06624" lon="6.67321">
        <ele>1068.510597</ele>
        <time>2023-03-21T08:19:40.587Z</time>
      </trkpt>
      <trkpt lat="46.06644" lon="6.67324">
        <ele>1066.334166</ele>
        <time>2023-03-21T08:19:49.209Z</time>
      </trkpt>
      <trkpt lat="46.0666" lon="6.67321">
        <ele>1064.587783</ele>
        <time>2023-03-21T08:19:56.175Z</time>
      </trkpt>
      <trkpt lat="46.06671" lon="6.67322">
        <ele>1063.394811</ele>
        <time>2023-03-21T08:20:00.907Z</time>
      </trkpt>
      <trkpt lat="46.06679" lon="6.67338">
        <ele>1061.913764</ele>
        <time>2023-03-21T08:20:06.786Z</time>
      </trkpt>
      <trkpt lat="46.06681" lon="6.67359">
        <ele>1060.321942</ele>
        <time>2023-03-21T08:20:13.110Z</time>
      </trkpt>
      <trkpt lat="46.06675" lon="6.67378">
        <ele>1058.754262</ele>
        <time>2023-03-21T08:20:19.331Z</time>
      </trkpt>
      <trkpt lat="46.06656" lon="6.67416">
        <ele>1055.069418</ele>
        <time>2023-03-21T08:20:33.301Z</time>
      </trkpt>
      <trkpt lat="46.0664" lon="6.67439">
        <ele>1052.427498</ele>
        <time>2023-03-21T08:20:43.020Z</time>
      </trkpt>
      <trkpt lat="46.0661" lon="6.67449">
        <ele>1048.827589</ele>
        <time>2023-03-21T08:20:56.259Z</time>
      </trkpt>
      <trkpt lat="46.06604" lon="6.67456">
        <ele>1047.925111</ele>
        <time>2023-03-21T08:20:59.579Z</time>
      </trkpt>
      <trkpt lat="46.06601" lon="6.67471">
        <ele>1046.658825</ele>
        <time>2023-03-21T08:21:04.235Z</time>
      </trkpt>
      <trkpt lat="46.06611" lon="6.67486">
        <ele>1044.971436</ele>
        <time>2023-03-21T08:21:10.442Z</time>
      </trkpt>
      <trkpt lat="46.06623" lon="6.67498">
        <ele>1043.26389</ele>
        <time>2023-03-21T08:21:16.723Z</time>
      </trkpt>
      <trkpt lat="46.06647" lon="6.67514">
        <ele>1040.172403</ele>
        <time>2023-03-21T08:21:28.097Z</time>
      </trkpt>
      <trkpt lat="46.06659" lon="6.67516">
        <ele>1038.760121</ele>
        <time>2023-03-21T08:21:33.293Z</time>
      </trkpt>
      <trkpt lat="46.06666" lon="6.67513">
        <ele>1037.906331</ele>
        <time>2023-03-21T08:21:36.434Z</time>
      </trkpt>
      <trkpt lat="46.06686" lon="6.67492">
        <ele>1034.93746</ele>
        <time>2023-03-21T08:21:47.079Z</time>
      </trkpt>
      <trkpt lat="46.06706" lon="6.67481">
        <ele>1032.28666</ele>
        <time>2023-03-21T08:21:56.289Z</time>
      </trkpt>
      <trkpt lat="46.06713" lon="6.67481">
        <ele>1031.419847</ele>
        <time>2023-03-21T08:21:59.301Z</time>
      </trkpt>
      <trkpt lat="46.06726" lon="6.67499">
        <ele>1029.187578</ele>
        <time>2023-03-21T08:22:07.056Z</time>
      </trkpt>
      <trkpt lat="46.06732" lon="6.67499">
        <ele>1028.444596</ele>
        <time>2023-03-21T08:22:09.638Z</time>
      </trkpt>
      <trkpt lat="46.06748" lon="6.67508">
        <ele>1026.317771</ele>
        <time>2023-03-21T08:22:17.029Z</time>
      </trkpt>
      <trkpt lat="46.0677" lon="6.67508">
        <ele>1023.593503</ele>
        <time>2023-03-21T08:22:26.496Z</time>
      </trkpt>
      <trkpt lat="46.06766" lon="6.67516">
        <ele>1022.746304</ele>
        <time>2023-03-21T08:22:29.441Z</time>
      </trkpt>
      <trkpt lat="46.06776" lon="6.67517">
        <ele>1021.505023</ele>
        <time>2023-03-21T08:22:33.754Z</time>
      </trkpt>
      <trkpt lat="46.06776" lon="6.67546">
        <ele>1019.013506</ele>
        <time>2023-03-21T08:22:42.414Z</time>
      </trkpt>
      <trkpt lat="46.06781" lon="6.67552">
        <ele>1018.207854</ele>
        <time>2023-03-21T08:22:45.214Z</time>
      </trkpt>
      <trkpt lat="46.0679" lon="6.67555">
        <ele>1017.063965</ele>
        <time>2023-03-21T08:22:49.190Z</time>
      </trkpt>
      <trkpt lat="46.06806" lon="6.67569">
        <ele>1014.746162</ele>
        <time>2023-03-21T08:22:57.247Z</time>
      </trkpt>
      <trkpt lat="46.06811" lon="6.67606">
        <ele>1011.40333</ele>
        <time>2023-03-21T08:23:08.504Z</time>
      </trkpt>
      <trkpt lat="46.06848" lon="6.67634">
        <ele>1006.014058</ele>
        <time>2023-03-21T08:23:26.494Z</time>
      </trkpt>
      <trkpt lat="46.06855" lon="6.67642">
        <ele>1004.861986</ele>
        <time>2023-03-21T08:23:30.341Z</time>
      </trkpt>
      <trkpt lat="46.06874" lon="6.67647">
        <ele>1002.371213</ele>
        <time>2023-03-21T08:23:38.656Z</time>
      </trkpt>
      <trkpt lat="46.06905" lon="6.67628">
        <ele>998.026977</ele>
        <time>2023-03-21T08:23:53.160Z</time>
      </trkpt>
      <trkpt lat="46.06926" lon="6.67624">
        <ele>995.295241</ele>
        <time>2023-03-21T08:24:02.281Z</time>
      </trkpt>
      <trkpt lat="46.0694" lon="6.67634">
        <ele>993.280244</ele>
        <time>2023-03-21T08:24:09.009Z</time>
      </trkpt>
      <trkpt lat="46.06956" lon="6.6764">
        <ele>991.14817</ele>
        <time>2023-03-21T08:24:16.128Z</time>
      </trkpt>
      <trkpt lat="46.06966" lon="6.67639">
        <ele>989.825629</ele>
        <time>2023-03-21T08:24:20.445Z</time>
      </trkpt>
      <trkpt lat="46.06978" lon="6.67625">
        <ele>987.773665</ele>
        <time>2023-03-21T08:24:27.093Z</time>
      </trkpt>
      <trkpt lat="46.06991" lon="6.6762">
        <ele>985.985329</ele>
        <time>2023-03-21T08:24:32.887Z</time>
      </trkpt>
      <trkpt lat="46.07002" lon="6.67624">
        <ele>984.477467</ele>
        <time>2023-03-21T08:24:37.772Z</time>
      </trkpt>
      <trkpt lat="46.07008" lon="6.67633">
        <ele>983.326496</ele>
        <time>2023-03-21T08:24:41.502Z</time>
      </trkpt>
      <trkpt lat="46.07018" lon="6.67635">
        <ele>981.984624</ele>
        <time>2023-03-21T08:24:45.849Z</time>
      </trkpt>
      <trkpt lat="46.07034" lon="6.67623">
        <ele>979.587342</ele>
        <time>2023-03-21T08:24:53.618Z</time>
      </trkpt>
      <trkpt lat="46.07066" lon="6.67606">
        <ele>975.054415</ele>
        <time>2023-03-21T08:25:08.307Z</time>
      </trkpt>
      <trkpt lat="46.07102" lon="6.67574">
        <ele>969.432829</ele>
        <time>2023-03-21T08:25:26.526Z</time>
      </trkpt>
      <trkpt lat="46.07114" lon="6.67558">
        <ele>967.260124</ele>
        <time>2023-03-21T08:25:33.569Z</time>
      </trkpt>
      <trkpt lat="46.07129" lon="6.67548">
        <ele>964.973202</ele>
        <time>2023-03-21T08:25:40.689Z</time>
      </trkpt>
      <trkpt lat="46.07147" lon="6.67544">
        <ele>962.434888</ele>
        <time>2023-03-21T08:25:48.536Z</time>
      </trkpt>
      <trkpt lat="46.07152" lon="6.6755">
        <ele>961.528153</ele>
        <time>2023-03-21T08:25:51.339Z</time>
      </trkpt>
      <trkpt lat="46.07153" lon="6.67558">
        <ele>960.742178</ele>
        <time>2023-03-21T08:25:53.769Z</time>
      </trkpt>
      <trkpt lat="46.0716" lon="6.67554">
        <ele>959.692716</ele>
        <time>2023-03-21T08:25:57.014Z</time>
      </trkpt>
      <trkpt lat="46.07168" lon="6.67545">
        <ele>958.278356</ele>
        <time>2023-03-21T08:26:01.387Z</time>
      </trkpt>
      <trkpt lat="46.07202" lon="6.6753">
        <ele>953.322762</ele>
        <time>2023-03-21T08:26:16.711Z</time>
      </trkpt>
      <trkpt lat="46.07218" lon="6.67516">
        <ele>950.714131</ele>
        <time>2023-03-21T08:26:24.779Z</time>
      </trkpt>
      <trkpt lat="46.07247" lon="6.67475">
        <ele>945.052779</ele>
        <time>2023-03-21T08:26:42.291Z</time>
      </trkpt>
      <trkpt lat="46.07268" lon="6.67472">
        <ele>942.111652</ele>
        <time>2023-03-21T08:26:51.391Z</time>
      </trkpt>
      <trkpt lat="46.07292" lon="6.67484">
        <ele>938.290141</ele>
        <time>2023-03-21T08:27:02.347Z</time>
      </trkpt>
      <trkpt lat="46.07314" lon="6.67491">
        <ele>934.881336</ele>
        <time>2023-03-21T08:27:12.065Z</time>
      </trkpt>
      <trkpt lat="46.07321" lon="6.67497">
        <ele>933.649111</ele>
        <time>2023-03-21T08:27:15.579Z</time>
      </trkpt>
      <trkpt lat="46.07345" lon="6.67507">
        <ele>929.869168</ele>
        <time>2023-03-21T08:27:26.359Z</time>
      </trkpt>
      <trkpt lat="46.07368" lon="6.67529">
        <ele>925.692718</ele>
        <time>2023-03-21T08:27:38.272Z</time>
      </trkpt>
      <trkpt lat="46.07386" lon="6.67531">
        <ele>922.961178</ele>
        <time>2023-03-21T08:27:46.065Z</time>
      </trkpt>
      <trkpt lat="46.07397" lon="6.67523">
        <ele>921.097007</ele>
        <time>2023-03-21T08:27:51.386Z</time>
      </trkpt>
      <trkpt lat="46.07407" lon="6.67522">
        <ele>919.580337</ele>
        <time>2023-03-21T08:27:55.715Z</time>
      </trkpt>
      <trkpt lat="46.07419" lon="6.67524">
        <ele>917.7526</ele>
        <time>2023-03-21T08:28:00.931Z</time>
      </trkpt>
      <trkpt lat="46.07425" lon="6.67529">
        <ele>916.703997</ele>
        <time>2023-03-21T08:28:03.925Z</time>
      </trkpt>
      <trkpt lat="46.07454" lon="6.67527">
        <ele>912.040004</ele>
        <time>2023-03-21T08:28:16.468Z</time>
      </trkpt>
      <trkpt lat="46.07463" lon="6.67522">
        <ele>910.410732</ele>
        <time>2023-03-21T08:28:20.637Z</time>
      </trkpt>
      <trkpt lat="46.0747" lon="6.67508">
        <ele>908.388461</ele>
        <time>2023-03-21T08:28:25.811Z</time>
      </trkpt>
      <trkpt lat="46.07478" lon="6.67507">
        <ele>907.032035</ele>
        <time>2023-03-21T08:28:29.282Z</time>
      </trkpt>
      <trkpt lat="46.07487" lon="6.67514">
        <ele>905.304585</ele>
        <time>2023-03-21T08:28:33.703Z</time>
      </trkpt>
      <trkpt lat="46.07502" lon="6.67517">
        <ele>902.746525</ele>
        <time>2023-03-21T08:28:40.251Z</time>
      </trkpt>
      <trkpt lat="46.07513" lon="6.67535">
        <ele>899.935544</ele>
        <time>2023-03-21T08:28:47.448Z</time>
      </trkpt>
      <trkpt lat="46.07518" lon="6.67537">
        <ele>899.059034</ele>
        <time>2023-03-21T08:28:49.692Z</time>
      </trkpt>
      <trkpt lat="46.07563" lon="6.67535">
        <ele>891.454056</ele>
        <time>2023-03-21T08:29:09.175Z</time>
      </trkpt>
      <trkpt lat="46.07582" lon="6.67558">
        <ele>887.263053</ele>
        <time>2023-03-21T08:29:19.917Z</time>
      </trkpt>
      <trkpt lat="46.07595" lon="6.67569">
        <ele>884.716747</ele>
        <time>2023-03-21T08:29:26.446Z</time>
      </trkpt>
      <trkpt lat="46.0761" lon="6.67575">
        <ele>881.823154</ele>
        <time>2023-03-21T08:29:33.190Z</time>
      </trkpt>
      <trkpt lat="46.07618" lon="6.67575">
        <ele>880.307395</ele>
        <time>2023-03-21T08:29:36.656Z</time>
      </trkpt>
      <trkpt lat="46.0762" lon="6.67565">
        <ele>878.939505</ele>
        <time>2023-03-21T08:29:39.785Z</time>
      </trkpt>
      <trkpt lat="46.07624" lon="6.6756">
        <ele>877.936378</ele>
        <time>2023-03-21T08:29:42.080Z</time>
      </trkpt>
      <trkpt lat="46.07629" lon="6.67559">
        <ele>876.979955</ele>
        <time>2023-03-21T08:29:44.268Z</time>
      </trkpt>
      <trkpt lat="46.07634" lon="6.67548">
        <ele>875.251438</ele>
        <time>2023-03-21T08:29:48.222Z</time>
      </trkpt>
      <trkpt lat="46.07643" lon="6.6754">
        <ele>873.248087</ele>
        <time>2023-03-21T08:29:52.807Z</time>
      </trkpt>
      <trkpt lat="46.0766" lon="6.67545">
        <ele>869.960741</ele>
        <time>2023-03-21T08:30:00.331Z</time>
      </trkpt>
      <trkpt lat="46.07678" lon="6.67539">
        <ele>866.460295</ele>
        <time>2023-03-21T08:30:08.346Z</time>
      </trkpt>
      <trkpt lat="46.07699" lon="6.67541">
        <ele>862.472754</ele>
        <time>2023-03-21T08:30:17.478Z</time>
      </trkpt>
      <trkpt lat="46.07706" lon="6.67547">
        <ele>860.929726</ele>
        <time>2023-03-21T08:30:21.013Z</time>
      </trkpt>
      <trkpt lat="46.07713" lon="6.67559">
        <ele>858.868998</ele>
        <time>2023-03-21T08:30:25.737Z</time>
      </trkpt>
      <trkpt lat="46.07731" lon="6.67554">
        <ele>855.395802</ele>
        <time>2023-03-21T08:30:33.695Z</time>
      </trkpt>
      <trkpt lat="46.0774" lon="6.67556">
        <ele>853.670431</ele>
        <time>2023-03-21T08:30:37.651Z</time>
      </trkpt>
      <trkpt lat="46.07758" lon="6.67552">
        <ele>850.21969</ele>
        <time>2023-03-21T08:30:45.564Z</time>
      </trkpt>
      <trkpt lat="46.0778" lon="6.67552">
        <ele>845.657257</ele>
        <time>2023-03-21T08:30:55.127Z</time>
      </trkpt>
      <trkpt lat="46.07822" lon="6.67566">
        <ele>836.70971</ele>
        <time>2023-03-21T08:31:13.874Z</time>
      </trkpt>
      <trkpt lat="46.07828" lon="6.67573">
        <ele>835.107617</ele>
        <time>2023-03-21T08:31:17.225Z</time>
      </trkpt>
      <trkpt lat="46.07821" lon="6.67575">
        <ele>833.626434</ele>
        <time>2023-03-21T08:31:20.325Z</time>
      </trkpt>
      <trkpt lat="46.07822" lon="6.67579">
        <ele>833.014254</ele>
        <time>2023-03-21T08:31:21.608Z</time>
      </trkpt>
      <trkpt lat="46.0783" lon="6.6758">
        <ele>831.347541</ele>
        <time>2023-03-21T08:31:25.103Z</time>
      </trkpt>
      <trkpt lat="46.07833" lon="6.67585">
        <ele>830.395709</ele>
        <time>2023-03-21T08:31:27.109Z</time>
      </trkpt>
      <trkpt lat="46.07827" lon="6.67592">
        <ele>828.793617</ele>
        <time>2023-03-21T08:31:30.471Z</time>
      </trkpt>
      <trkpt lat="46.07827" lon="6.67616">
        <ele>825.338109</ele>
        <time>2023-03-21T08:31:37.700Z</time>
      </trkpt>
      <trkpt lat="46.07835" lon="6.67602">
        <ele>822.72654</ele>
        <time>2023-03-21T08:31:43.197Z</time>
      </trkpt>
      <trkpt lat="46.07844" lon="6.676">
        <ele>820.836432</ele>
        <time>2023-03-21T08:31:47.156Z</time>
      </trkpt>
      <trkpt lat="46.07856" lon="6.67626">
        <ele>816.340085</ele>
        <time>2023-03-21T08:31:56.581Z</time>
      </trkpt>
      <trkpt lat="46.07858" lon="6.67621">
        <ele>815.509079</ele>
        <time>2023-03-21T08:31:58.353Z</time>
      </trkpt>
      <trkpt lat="46.07862" lon="6.67621">
        <ele>814.678837</ele>
        <time>2023-03-21T08:32:00.119Z</time>
      </trkpt>
      <trkpt lat="46.07864" lon="6.67617">
        <ele>813.968906</ele>
        <time>2023-03-21T08:32:01.603Z</time>
      </trkpt>
      <trkpt lat="46.07871" lon="6.67614">
        <ele>812.467729</ele>
        <time>2023-03-21T08:32:04.762Z</time>
      </trkpt>
      <trkpt lat="46.07885" lon="6.6759">
        <ele>808.12044</ele>
        <time>2023-03-21T08:32:14.231Z</time>
      </trkpt>
      <trkpt lat="46.07894" lon="6.67586">
        <ele>806.238203</ele>
        <time>2023-03-21T08:32:18.322Z</time>
      </trkpt>
      <trkpt lat="46.07902" lon="6.67576">
        <ele>804.122026</ele>
        <time>2023-03-21T08:32:22.907Z</time>
      </trkpt>
      <trkpt lat="46.07906" lon="6.67559">
        <ele>801.633378</ele>
        <time>2023-03-21T08:32:28.343Z</time>
      </trkpt>
      <trkpt lat="46.07913" lon="6.67558">
        <ele>800.227539</ele>
        <time>2023-03-21T08:32:31.535Z</time>
      </trkpt>
      <trkpt lat="46.07931" lon="6.67567">
        <ele>796.419918</ele>
        <time>2023-03-21T08:32:39.756Z</time>
      </trkpt>
      <trkpt lat="46.07946" lon="6.67563">
        <ele>793.371233</ele>
        <time>2023-03-21T08:32:46.481Z</time>
      </trkpt>
      <trkpt lat="46.07954" lon="6.67564">
        <ele>791.766392</ele>
        <time>2023-03-21T08:32:49.952Z</time>
      </trkpt>
      <trkpt lat="46.07964" lon="6.67586">
        <ele>788.120019</ele>
        <time>2023-03-21T08:32:57.823Z</time>
      </trkpt>
      <trkpt lat="46.07975" lon="6.67594">
        <ele>785.739988</ele>
        <time>2023-03-21T08:33:03.109Z</time>
      </trkpt>
      <trkpt lat="46.07983" lon="6.6757">
        <ele>782.001105</ele>
        <time>2023-03-21T08:33:05.400Z</time>
      </trkpt>
      <trkpt lat="46.07982" lon="6.67539">
        <ele>777.597613</ele>
        <time>2023-03-21T08:33:07.975Z</time>
      </trkpt>
      <trkpt lat="46.07987" lon="6.67515">
        <ele>775.386803</ele>
        <time>2023-03-21T08:33:10.142Z</time>
      </trkpt>
      <trkpt lat="46.07996" lon="6.67514">
        <ele>774.452439</ele>
        <time>2023-03-21T08:33:11.129Z</time>
      </trkpt>
      <trkpt lat="46.07998" lon="6.67509">
        <ele>773.972155</ele>
        <time>2023-03-21T08:33:11.656Z</time>
      </trkpt>
      <trkpt lat="46.08013" lon="6.675">
        <ele>772.225111</ele>
        <time>2023-03-21T08:33:13.647Z</time>
      </trkpt>
      <trkpt lat="46.08018" lon="6.67493">
        <ele>771.388158</ele>
        <time>2023-03-21T08:33:14.668Z</time>
      </trkpt>
      <trkpt lat="46.08045" lon="6.67432">
        <ele>765.867161</ele>
        <time>2023-03-21T08:33:20.694Z</time>
      </trkpt>
      <trkpt lat="46.08076" lon="6.67381">
        <ele>760.658613</ele>
        <time>2023-03-21T08:33:26.874Z</time>
      </trkpt>
      <trkpt lat="46.08066" lon="6.67376">
        <ele>759.47227</ele>
        <time>2023-03-21T08:33:28.673Z</time>
      </trkpt>
      <trkpt lat="46.08063" lon="6.67367">
        <ele>758.725179</ele>
        <time>2023-03-21T08:33:29.557Z</time>
      </trkpt>
      <trkpt lat="46.08064" lon="6.67357">
        <ele>757.906036</ele>
        <time>2023-03-21T08:33:30.433Z</time>
      </trkpt>
      <trkpt lat="46.08096" lon="6.67314">
        <ele>758.136087</ele>
        <time>2023-03-21T08:33:37.366Z</time>
      </trkpt>
      <trkpt lat="46.08103" lon="6.67301">
        <ele>758.530462</ele>
        <time>2023-03-21T08:33:39.967Z</time>
      </trkpt>
      <trkpt lat="46.08118" lon="6.67263">
        <ele>759.555002</ele>
        <time>2023-03-21T08:33:50.315Z</time>
      </trkpt>
      <trkpt lat="46.08132" lon="6.67211">
        <ele>760.877773</ele>
        <time>2023-03-21T08:34:09.867Z</time>
      </trkpt>
      <trkpt lat="46.08151" lon="6.67186">
        <ele>761.740487</ele>
        <time>2023-03-21T08:34:23.897Z</time>
      </trkpt>
      <trkpt lat="46.08159" lon="6.67172">
        <ele>762.166472</ele>
        <time>2023-03-21T08:34:32.479Z</time>
      </trkpt>
      <trkpt lat="46.08171" lon="6.67122">
        <ele>763.777184</ele>
        <time>2023-03-21T08:34:54.859Z</time>
      </trkpt>
      <trkpt lat="46.08172" lon="6.67114">
        <ele>764.163528</ele>
        <time>2023-03-21T08:34:57.793Z</time>
      </trkpt>
      <trkpt lat="46.08175" lon="6.67098">
        <ele>764.919205</ele>
        <time>2023-03-21T08:35:03.500Z</time>
      </trkpt>
      <trkpt lat="46.08176" lon="6.67076">
        <ele>765.961275</ele>
        <time>2023-03-21T08:35:16.095Z</time>
      </trkpt>
      <trkpt lat="46.08175" lon="6.67052">
        <ele>767.140242</ele>
        <time>2023-03-21T08:35:25.165Z</time>
      </trkpt>
      <trkpt lat="46.08159" lon="6.66914">
        <ele>773.727866</ele>
        <time>2023-03-21T08:36:25.744Z</time>
      </trkpt>
      <trkpt lat="46.0816" lon="6.66896">
        <ele>774.597142</ele>
        <time>2023-03-21T08:36:30.335Z</time>
      </trkpt>
      <trkpt lat="46.0817" lon="6.66848">
        <ele>774.372907</ele>
        <time>2023-03-21T08:36:41.386Z</time>
      </trkpt>
      <trkpt lat="46.08173" lon="6.66826">
        <ele>773.752856</ele>
        <time>2023-03-21T08:36:43.817Z</time>
      </trkpt>
      <trkpt lat="46.08167" lon="6.66812">
        <ele>773.288405</ele>
        <time>2023-03-21T08:36:45.439Z</time>
      </trkpt>
      <trkpt lat="46.0816" lon="6.66806">
        <ele>772.943338</ele>
        <time>2023-03-21T08:36:48.001Z</time>
      </trkpt>
      <trkpt lat="46.08157" lon="6.6678">
        <ele>772.191012</ele>
        <time>2023-03-21T08:36:52.738Z</time>
      </trkpt>
      <trkpt lat="46.08187" lon="6.66792">
        <ele>770.92134</ele>
        <time>2023-03-21T08:37:00.305Z</time>
      </trkpt>
      <trkpt lat="46.08213" lon="6.66808">
        <ele>769.774212</ele>
        <time>2023-03-21T08:37:06.966Z</time>
      </trkpt>
      <trkpt lat="46.08228" lon="6.6684">
        <ele>768.679938</ele>
        <time>2023-03-21T08:37:12.810Z</time>
      </trkpt>
      <trkpt lat="46.08275" lon="6.6685">
        <ele>764.276043</ele>
        <time>2023-03-21T08:37:22.986Z</time>
      </trkpt>
      <trkpt lat="46.08352" lon="6.66839">
        <ele>755.045168</ele>
        <time>2023-03-21T08:37:39.045Z</time>
      </trkpt>
      <trkpt lat="46.08352" lon="6.66839">
        <ele>755.045168</ele>
        <time>2023-03-21T08:37:39.185Z</time>
      </trkpt>
      <trkpt lat="46.08352" lon="6.66839">
        <ele>755.045168</ele>
        <time>2023-03-21T08:37:39.185Z</time>
      </trkpt>
      <trkpt lat="46.08353" lon="6.66851">
        <ele>754.060441</ele>
        <time>2023-03-21T08:37:42.749Z</time>
      </trkpt>
      <trkpt lat="46.08358" lon="6.66864">
        <ele>752.836106</ele>
        <time>2023-03-21T08:37:47.177Z</time>
      </trkpt>
      <trkpt lat="46.08357" lon="6.66895">
        <ele>750.280058</ele>
        <time>2023-03-21T08:37:56.435Z</time>
      </trkpt>
      <trkpt lat="46.08351" lon="6.66933">
        <ele>747.070147</ele>
        <time>2023-03-21T08:38:08.049Z</time>
      </trkpt>
      <trkpt lat="46.08357" lon="6.66968">
        <ele>743.90154</ele>
        <time>2023-03-21T08:38:18.823Z</time>
      </trkpt>
      <trkpt lat="46.08357" lon="6.66999">
        <ele>741.151768</ele>
        <time>2023-03-21T08:38:28.092Z</time>
      </trkpt>
      <trkpt lat="46.08361" lon="6.67045">
        <ele>737.039522</ele>
        <time>2023-03-21T08:38:41.945Z</time>
      </trkpt>
      <trkpt lat="46.08356" lon="6.6708">
        <ele>733.869776</ele>
        <time>2023-03-21T08:38:52.605Z</time>
      </trkpt>
      <trkpt lat="46.08346" lon="6.67112">
        <ele>730.756511</ele>
        <time>2023-03-21T08:39:03.105Z</time>
      </trkpt>
      <trkpt lat="46.08332" lon="6.67183">
        <ele>724.209079</ele>
        <time>2023-03-21T08:39:25.161Z</time>
      </trkpt>
      <trkpt lat="46.08326" lon="6.67187">
        <ele>723.434031</ele>
        <time>2023-03-21T08:39:27.998Z</time>
      </trkpt>
      <trkpt lat="46.08317" lon="6.67187">
        <ele>722.534067</ele>
        <time>2023-03-21T08:39:31.859Z</time>
      </trkpt>
      <trkpt lat="46.08303" lon="6.67194">
        <ele>721.052323</ele>
        <time>2023-03-21T08:39:38.217Z</time>
      </trkpt>
      <trkpt lat="46.08296" lon="6.67204">
        <ele>720.066917</ele>
        <time>2023-03-21T08:39:42.487Z</time>
      </trkpt>
      <trkpt lat="46.08297" lon="6.67211">
        <ele>719.571214</ele>
        <time>2023-03-21T08:39:44.614Z</time>
      </trkpt>
      <trkpt lat="46.08322" lon="6.67206">
        <ele>717.047374</ele>
        <time>2023-03-21T08:39:55.443Z</time>
      </trkpt>
      <trkpt lat="46.08322" lon="6.67206">
        <ele>717.024288</ele>
        <time>2023-03-21T08:39:55.778Z</time>
      </trkpt>
      <trkpt lat="46.08338" lon="6.67211">
        <ele>715.42974</ele>
        <time>2023-03-21T08:39:57.832Z</time>
      </trkpt>
      <trkpt lat="46.08353" lon="6.67232">
        <ele>713.311641</ele>
        <time>2023-03-21T08:40:00.468Z</time>
      </trkpt>
      <trkpt lat="46.08361" lon="6.67265">
        <ele>710.909238</ele>
        <time>2023-03-21T08:40:03.699Z</time>
      </trkpt>
      <trkpt lat="46.0836" lon="6.67297">
        <ele>708.638564</ele>
        <time>2023-03-21T08:40:06.581Z</time>
      </trkpt>
      <trkpt lat="46.08352" lon="6.67325">
        <ele>706.563852</ele>
        <time>2023-03-21T08:40:09.449Z</time>
      </trkpt>
      <trkpt lat="46.0831" lon="6.67393">
        <ele>702.523769</ele>
        <time>2023-03-21T08:40:17.734Z</time>
      </trkpt>
      <trkpt lat="46.08288" lon="6.67429">
        <ele>700.605936</ele>
        <time>2023-03-21T08:40:22.396Z</time>
      </trkpt>
      <trkpt lat="46.08283" lon="6.6744">
        <ele>700.037082</ele>
        <time>2023-03-21T08:40:23.800Z</time>
      </trkpt>
      <trkpt lat="46.08282" lon="6.67448">
        <ele>699.738013</ele>
        <time>2023-03-21T08:40:24.525Z</time>
      </trkpt>
      <trkpt lat="46.08282" lon="6.67451">
        <ele>699.596381</ele>
        <time>2023-03-21T08:40:24.866Z</time>
      </trkpt>
      <trkpt lat="46.0829" lon="6.67465">
        <ele>698.854177</ele>
        <time>2023-03-21T08:40:26.644Z</time>
      </trkpt>
      <trkpt lat="46.08307" lon="6.67477">
        <ele>697.769162</ele>
        <time>2023-03-21T08:40:29.279Z</time>
      </trkpt>
      <trkpt lat="46.0832" lon="6.67483">
        <ele>696.972813</ele>
        <time>2023-03-21T08:40:31.205Z</time>
      </trkpt>
      <trkpt lat="46.08346" lon="6.67495">
        <ele>695.347385</ele>
        <time>2023-03-21T08:40:35.154Z</time>
      </trkpt>
      <trkpt lat="46.08346" lon="6.67495">
        <ele>695.347385</ele>
        <time>2023-03-21T08:40:35.204Z</time>
      </trkpt>
      <trkpt lat="46.08346" lon="6.67495">
        <ele>695.347385</ele>
        <time>2023-03-21T08:40:35.204Z</time>
      </trkpt>
      <trkpt lat="46.08346" lon="6.67496">
        <ele>695.312974</ele>
        <time>2023-03-21T08:40:35.457Z</time>
      </trkpt>
      <trkpt lat="46.08397" lon="6.67535">
        <ele>692.991203</ele>
        <time>2023-03-21T08:41:00.162Z</time>
      </trkpt>
      <trkpt lat="46.08421" lon="6.67456">
        <ele>690.620589</ele>
        <time>2023-03-21T08:41:25.763Z</time>
      </trkpt>
      <trkpt lat="46.08433" lon="6.67362">
        <ele>688.006232</ele>
        <time>2023-03-21T08:41:54.129Z</time>
      </trkpt>
      <trkpt lat="46.08455" lon="6.67312">
        <ele>686.621639</ele>
        <time>2023-03-21T08:42:11.702Z</time>
      </trkpt>
      <trkpt lat="46.08461" lon="6.67315">
        <ele>686.419405</ele>
        <time>2023-03-21T08:42:14.263Z</time>
      </trkpt>
      <trkpt lat="46.08479" lon="6.67248">
        <ele>684.724986</ele>
        <time>2023-03-21T08:42:27.150Z</time>
      </trkpt>
      <trkpt lat="46.08485" lon="6.67206">
        <ele>683.724074</ele>
        <time>2023-03-21T08:42:34.839Z</time>
      </trkpt>
      <trkpt lat="46.08485" lon="6.67206">
        <ele>683.724074</ele>
        <time>2023-03-21T08:42:34.889Z</time>
      </trkpt>
      <trkpt lat="46.08485" lon="6.67206">
        <ele>683.724074</ele>
        <time>2023-03-21T08:42:34.889Z</time>
      </trkpt>
      <trkpt lat="46.0848" lon="6.67204">
        <ele>683.537219</ele>
        <time>2023-03-21T08:42:37.260Z</time>
      </trkpt>
      <trkpt lat="46.08488" lon="6.67177">
        <ele>682.85067</ele>
        <time>2023-03-21T08:42:45.973Z</time>
      </trkpt>
      <trkpt lat="46.08493" lon="6.67165">
        <ele>682.523329</ele>
        <time>2023-03-21T08:42:50.127Z</time>
      </trkpt>
      <trkpt lat="46.08531" lon="6.67105">
        <ele>680.737219</ele>
        <time>2023-03-21T08:43:14.238Z</time>
      </trkpt>
      <trkpt lat="46.08568" lon="6.67024">
        <ele>678.654745</ele>
        <time>2023-03-21T08:43:43.019Z</time>
      </trkpt>
      <trkpt lat="46.08606" lon="6.66957">
        <ele>676.806193</ele>
        <time>2023-03-21T08:44:08.568Z</time>
      </trkpt>
      <trkpt lat="46.08643" lon="6.6689">
        <ele>675.169459</ele>
        <time>2023-03-21T08:44:34.113Z</time>
      </trkpt>
      <trkpt lat="46.08643" lon="6.6689">
        <ele>675.156532</ele>
        <time>2023-03-21T08:44:34.350Z</time>
      </trkpt>
      <trkpt lat="46.08645" lon="6.66885">
        <ele>675.05652</ele>
        <time>2023-03-21T08:44:34.814Z</time>
      </trkpt>
      <trkpt lat="46.08662" lon="6.66837">
        <ele>674.061446</ele>
        <time>2023-03-21T08:44:40.324Z</time>
      </trkpt>
      <trkpt lat="46.08669" lon="6.66837">
        <ele>673.891483</ele>
        <time>2023-03-21T08:44:41.211Z</time>
      </trkpt>
      <trkpt lat="46.08675" lon="6.66828">
        <ele>673.641945</ele>
        <time>2023-03-21T08:44:42.571Z</time>
      </trkpt>
      <trkpt lat="46.08675" lon="6.66819">
        <ele>673.474259</ele>
        <time>2023-03-21T08:44:43.575Z</time>
      </trkpt>
      <trkpt lat="46.08669" lon="6.66809">
        <ele>673.225443</ele>
        <time>2023-03-21T08:44:45.492Z</time>
      </trkpt>
      <trkpt lat="46.08689" lon="6.66723">
        <ele>671.560804</ele>
        <time>2023-03-21T08:44:54.737Z</time>
      </trkpt>
      <trkpt lat="46.08721" lon="6.66714">
        <ele>670.796642</ele>
        <time>2023-03-21T08:45:03.332Z</time>
      </trkpt>
      <trkpt lat="46.08721" lon="6.66714">
        <ele>670.796642</ele>
        <time>2023-03-21T08:45:03.342Z</time>
      </trkpt>
      <trkpt lat="46.08722" lon="6.6672">
        <ele>670.693379</ele>
        <time>2023-03-21T08:45:05.213Z</time>
      </trkpt>
      <trkpt lat="46.08759" lon="6.667">
        <ele>669.760477</ele>
        <time>2023-03-21T08:45:22.116Z</time>
      </trkpt>
      <trkpt lat="46.08776" lon="6.66705">
        <ele>669.350859</ele>
        <time>2023-03-21T08:45:29.537Z</time>
      </trkpt>
      <trkpt lat="46.08775" lon="6.66724">
        <ele>669.038855</ele>
        <time>2023-03-21T08:45:35.190Z</time>
      </trkpt>
      <trkpt lat="46.08765" lon="6.66759">
        <ele>668.419034</ele>
        <time>2023-03-21T08:45:46.420Z</time>
      </trkpt>
      <trkpt lat="46.08732" lon="6.66852">
        <ele>666.955873</ele>
        <time>2023-03-21T08:46:17.416Z</time>
      </trkpt>
      <trkpt lat="46.0871" lon="6.66929">
        <ele>666.063385</ele>
        <time>2023-03-21T08:46:42.120Z</time>
      </trkpt>
      <trkpt lat="46.08749" lon="6.66932">
        <ele>665.459895</ele>
        <time>2023-03-21T08:46:58.824Z</time>
      </trkpt>
      <trkpt lat="46.0875" lon="6.66932">
        <ele>665.442898</ele>
        <time>2023-03-21T08:46:59.293Z</time>
      </trkpt>
      <trkpt lat="46.0875" lon="6.66952">
        <ele>665.231768</ele>
        <time>2023-03-21T08:47:03.694Z</time>
      </trkpt>
      <trkpt lat="46.08758" lon="6.67018">
        <ele>664.629758</ele>
        <time>2023-03-21T08:47:17.687Z</time>
      </trkpt>
      <trkpt lat="46.08761" lon="6.67053">
        <ele>664.585669</ele>
        <time>2023-03-21T08:47:24.838Z</time>
      </trkpt>
      <trkpt lat="46.08746" lon="6.67134">
        <ele>664.480848</ele>
        <time>2023-03-21T08:47:43.009Z</time>
      </trkpt>
      <trkpt lat="46.08741" lon="6.67144">
        <ele>664.464977</ele>
        <time>2023-03-21T08:47:45.322Z</time>
      </trkpt>
      <trkpt lat="46.08731" lon="6.67153">
        <ele>664.443888</ele>
        <time>2023-03-21T08:47:49.768Z</time>
      </trkpt>
      <trkpt lat="46.08765" lon="6.67217">
        <ele>664.342726</ele>
        <time>2023-03-21T08:48:08.786Z</time>
      </trkpt>
      <trkpt lat="46.08774" lon="6.67296">
        <ele>664.429543</ele>
        <time>2023-03-21T08:48:27.048Z</time>
      </trkpt>
      <trkpt lat="46.08757" lon="6.67325">
        <ele>664.497761</ele>
        <time>2023-03-21T08:48:35.447Z</time>
      </trkpt>
      <trkpt lat="46.08768" lon="6.67386">
        <ele>664.611823</ele>
        <time>2023-03-21T08:48:49.602Z</time>
      </trkpt>
      <trkpt lat="46.0875" lon="6.67444">
        <ele>664.724436</ele>
        <time>2023-03-21T08:49:03.995Z</time>
      </trkpt>
      <trkpt lat="46.08765" lon="6.67503">
        <ele>664.930171</ele>
        <time>2023-03-21T08:49:18.680Z</time>
      </trkpt>
      <trkpt lat="46.08767" lon="6.67521">
        <ele>665.02245</ele>
        <time>2023-03-21T08:49:23.290Z</time>
      </trkpt>
      <trkpt lat="46.08743" lon="6.6786">
        <ele>666.865356</ele>
        <time>2023-03-21T08:50:47.859Z</time>
      </trkpt>
      <trkpt lat="46.08745" lon="6.67886">
        <ele>667.029439</ele>
        <time>2023-03-21T08:50:54.772Z</time>
      </trkpt>
      <trkpt lat="46.08748" lon="6.67887">
        <ele>667.050644</ele>
        <time>2023-03-21T08:50:55.315Z</time>
      </trkpt>
      <trkpt lat="46.08773" lon="6.67891">
        <ele>667.278462</ele>
        <time>2023-03-21T08:51:01.335Z</time>
      </trkpt>
      <trkpt lat="46.08776" lon="6.67891">
        <ele>667.297924</ele>
        <time>2023-03-21T08:51:01.855Z</time>
      </trkpt>
      <trkpt lat="46.08755" lon="6.68176">
        <ele>669.161735</ele>
        <time>2023-03-21T08:52:14.268Z</time>
      </trkpt>
      <trkpt lat="46.0875" lon="6.6829">
        <ele>669.933006</ele>
        <time>2023-03-21T08:52:43.728Z</time>
      </trkpt>
      <trkpt lat="46.0874" lon="6.68403">
        <ele>670.699819</ele>
        <time>2023-03-21T08:53:12.493Z</time>
      </trkpt>
      <trkpt lat="46.0874" lon="6.68403">
        <ele>670.699819</ele>
        <time>2023-03-21T08:53:12.516Z</time>
      </trkpt>
      <trkpt lat="46.08739" lon="6.68409">
        <ele>670.744536</ele>
        <time>2023-03-21T08:53:14.472Z</time>
      </trkpt>
      <trkpt lat="46.0874" lon="6.68426">
        <ele>670.860241</ele>
        <time>2023-03-21T08:53:19.533Z</time>
      </trkpt>
      <trkpt lat="46.08737" lon="6.68458">
        <ele>671.079234</ele>
        <time>2023-03-21T08:53:29.111Z</time>
      </trkpt>
      <trkpt lat="46.08734" lon="6.68468">
        <ele>671.15198</ele>
        <time>2023-03-21T08:53:32.343Z</time>
      </trkpt>
      <trkpt lat="46.08742" lon="6.68522">
        <ele>671.503395</ele>
        <time>2023-03-21T08:53:48.722Z</time>
      </trkpt>
      <trkpt lat="46.08757" lon="6.6857">
        <ele>671.838449</ele>
        <time>2023-03-21T08:54:04.338Z</time>
      </trkpt>
      <trkpt lat="46.08759" lon="6.68603">
        <ele>672.049264</ele>
        <time>2023-03-21T08:54:14.165Z</time>
      </trkpt>
      <trkpt lat="46.08755" lon="6.68623">
        <ele>672.181732</ele>
        <time>2023-03-21T08:54:20.339Z</time>
      </trkpt>
      <trkpt lat="46.08755" lon="6.68623">
        <ele>672.181732</ele>
        <time>2023-03-21T08:54:20.343Z</time>
      </trkpt>
      <trkpt lat="46.08755" lon="6.68624">
        <ele>672.187747</ele>
        <time>2023-03-21T08:54:20.709Z</time>
      </trkpt>
      <trkpt lat="46.08756" lon="6.68663">
        <ele>672.4386</ele>
        <time>2023-03-21T08:54:30.509Z</time>
      </trkpt>
      <trkpt lat="46.08753" lon="6.68703">
        <ele>672.694647</ele>
        <time>2023-03-21T08:54:40.785Z</time>
      </trkpt>
      <trkpt lat="46.0874" lon="6.68764">
        <ele>673.031942</ele>
        <time>2023-03-21T08:54:56.383Z</time>
      </trkpt>
      <trkpt lat="46.08734" lon="6.68776">
        <ele>673.104857</ele>
        <time>2023-03-21T08:55:00.181Z</time>
      </trkpt>
      <trkpt lat="46.08749" lon="6.68795">
        <ele>673.241658</ele>
        <time>2023-03-21T08:55:06.887Z</time>
      </trkpt>
      <trkpt lat="46.08751" lon="6.68834">
        <ele>673.438533</ele>
        <time>2023-03-21T08:55:16.501Z</time>
      </trkpt>
      <trkpt lat="46.0875" lon="6.68872">
        <ele>673.631296</ele>
        <time>2023-03-21T08:55:25.681Z</time>
      </trkpt>
      <trkpt lat="46.08766" lon="6.68913">
        <ele>673.865658</ele>
        <time>2023-03-21T08:55:36.835Z</time>
      </trkpt>
      <trkpt lat="46.08757" lon="6.68927">
        <ele>673.958904</ele>
        <time>2023-03-21T08:55:41.385Z</time>
      </trkpt>
      <trkpt lat="46.08736" lon="6.68939">
        <ele>674.135279</ele>
        <time>2023-03-21T08:55:49.686Z</time>
      </trkpt>
      <trkpt lat="46.08735" lon="6.68965">
        <ele>674.292023</ele>
        <time>2023-03-21T08:55:56.271Z</time>
      </trkpt>
      <trkpt lat="46.08726" lon="6.69001">
        <ele>674.519984</ele>
        <time>2023-03-21T08:56:05.565Z</time>
      </trkpt>
      <trkpt lat="46.08702" lon="6.69033">
        <ele>674.810379</ele>
        <time>2023-03-21T08:56:17.438Z</time>
      </trkpt>
      <trkpt lat="46.08702" lon="6.69033">
        <ele>674.813964</ele>
        <time>2023-03-21T08:56:17.578Z</time>
      </trkpt>
      <trkpt lat="46.08683" lon="6.69088">
        <ele>675.183149</ele>
        <time>2023-03-21T08:56:32.701Z</time>
      </trkpt>
      <trkpt lat="46.08657" lon="6.69106">
        <ele>675.443066</ele>
        <time>2023-03-21T08:56:43.510Z</time>
      </trkpt>
      <trkpt lat="46.08673" lon="6.69151">
        <ele>675.763123</ele>
        <time>2023-03-21T08:56:56.381Z</time>
      </trkpt>
      <trkpt lat="46.08669" lon="6.69171">
        <ele>675.911337</ele>
        <time>2023-03-21T08:57:01.716Z</time>
      </trkpt>
      <trkpt lat="46.08653" lon="6.69203">
        <ele>676.191815</ele>
        <time>2023-03-21T08:57:11.863Z</time>
      </trkpt>
      <trkpt lat="46.08647" lon="6.69239">
        <ele>676.457245</ele>
        <time>2023-03-21T08:57:21.576Z</time>
      </trkpt>
      <trkpt lat="46.08635" lon="6.69255">
        <ele>676.622808</ele>
        <time>2023-03-21T08:57:27.619Z</time>
      </trkpt>
      <trkpt lat="46.08612" lon="6.69266">
        <ele>676.868653</ele>
        <time>2023-03-21T08:57:36.687Z</time>
      </trkpt>
      <trkpt lat="46.08601" lon="6.693">
        <ele>677.143209</ele>
        <time>2023-03-21T08:57:46.534Z</time>
      </trkpt>
      <trkpt lat="46.08604" lon="6.69323">
        <ele>677.310301</ele>
        <time>2023-03-21T08:57:52.493Z</time>
      </trkpt>
      <trkpt lat="46.08582" lon="6.69369">
        <ele>677.620066</ele>
        <time>2023-03-21T08:58:06.021Z</time>
      </trkpt>
      <trkpt lat="46.08546" lon="6.69413">
        <ele>677.897825</ele>
        <time>2023-03-21T08:58:22.726Z</time>
      </trkpt>
      <trkpt lat="46.08534" lon="6.69453">
        <ele>678.078256</ele>
        <time>2023-03-21T08:58:33.513Z</time>
      </trkpt>
      <trkpt lat="46.08538" lon="6.69476">
        <ele>678.17373</ele>
        <time>2023-03-21T08:58:39.191Z</time>
      </trkpt>
      <trkpt lat="46.08534" lon="6.69509">
        <ele>678.308503</ele>
        <time>2023-03-21T08:58:47.126Z</time>
      </trkpt>
      <trkpt lat="46.08488" lon="6.69626">
        <ele>678.672074</ele>
        <time>2023-03-21T08:59:18.604Z</time>
      </trkpt>
      <trkpt lat="46.08487" lon="6.69651">
        <ele>678.708799</ele>
        <time>2023-03-21T08:59:24.255Z</time>
      </trkpt>
      <trkpt lat="46.0847" lon="6.69668">
        <ele>678.753362</ele>
        <time>2023-03-21T08:59:31.065Z</time>
      </trkpt>
      <trkpt lat="46.08471" lon="6.69685">
        <ele>678.778966</ele>
        <time>2023-03-21T08:59:34.969Z</time>
      </trkpt>
      <trkpt lat="46.08457" lon="6.69693">
        <ele>678.809747</ele>
        <time>2023-03-21T08:59:39.614Z</time>
      </trkpt>
      <trkpt lat="46.08455" lon="6.69755">
        <ele>678.902261</ele>
        <time>2023-03-21T08:59:53.562Z</time>
      </trkpt>
      <trkpt lat="46.08432" lon="6.698">
        <ele>678.973052</ele>
        <time>2023-03-21T09:00:05.939Z</time>
      </trkpt>
      <trkpt lat="46.08434" lon="6.69816">
        <ele>678.988887</ele>
        <time>2023-03-21T09:00:09.507Z</time>
      </trkpt>
      <trkpt lat="46.08452" lon="6.69861">
        <ele>679.040502</ele>
        <time>2023-03-21T09:00:21.069Z</time>
      </trkpt>
      <trkpt lat="46.0845" lon="6.69883">
        <ele>679.062741</ele>
        <time>2023-03-21T09:00:26.053Z</time>
      </trkpt>
      <trkpt lat="46.08431" lon="6.69971">
        <ele>679.15333</ele>
        <time>2023-03-21T09:00:46.619Z</time>
      </trkpt>
      <trkpt lat="46.08398" lon="6.70084">
        <ele>679.406481</ele>
        <time>2023-03-21T09:01:15.092Z</time>
      </trkpt>
      <trkpt lat="46.0838" lon="6.70134">
        <ele>679.564802</ele>
        <time>2023-03-21T09:01:27.937Z</time>
      </trkpt>
      <trkpt lat="46.08377" lon="6.70194">
        <ele>679.737336</ele>
        <time>2023-03-21T09:01:42.010Z</time>
      </trkpt>
      <trkpt lat="46.08386" lon="6.70246">
        <ele>679.893231</ele>
        <time>2023-03-21T09:01:54.948Z</time>
      </trkpt>
      <trkpt lat="46.08385" lon="6.70288">
        <ele>680.082539</ele>
        <time>2023-03-21T09:02:05.151Z</time>
      </trkpt>
      <trkpt lat="46.08371" lon="6.70314">
        <ele>680.277935</ele>
        <time>2023-03-21T09:02:13.386Z</time>
      </trkpt>
      <trkpt lat="46.08337" lon="6.7035">
        <ele>680.641078</ele>
        <time>2023-03-21T09:02:28.409Z</time>
      </trkpt>
      <trkpt lat="46.08333" lon="6.70375">
        <ele>680.793665</ele>
        <time>2023-03-21T09:02:34.701Z</time>
      </trkpt>
      <trkpt lat="46.08329" lon="6.70443">
        <ele>681.203984</ele>
        <time>2023-03-21T09:02:52.334Z</time>
      </trkpt>
      <trkpt lat="46.08337" lon="6.7045">
        <ele>681.282744</ele>
        <time>2023-03-21T09:02:55.541Z</time>
      </trkpt>
      <trkpt lat="46.08318" lon="6.70468">
        <ele>681.475644</ele>
        <time>2023-03-21T09:03:04.014Z</time>
      </trkpt>
      <trkpt lat="46.08293" lon="6.70499">
        <ele>681.787395</ele>
        <time>2023-03-21T09:03:16.204Z</time>
      </trkpt>
      <trkpt lat="46.08282" lon="6.70518">
        <ele>681.95107</ele>
        <time>2023-03-21T09:03:22.405Z</time>
      </trkpt>
      <trkpt lat="46.08271" lon="6.7053">
        <ele>682.075438</ele>
        <time>2023-03-21T09:03:27.256Z</time>
      </trkpt>
      <trkpt lat="46.0824" lon="6.70534">
        <ele>682.368478</ele>
        <time>2023-03-21T09:03:38.595Z</time>
      </trkpt>
      <trkpt lat="46.0823" lon="6.70543">
        <ele>682.481047</ele>
        <time>2023-03-21T09:03:43.204Z</time>
      </trkpt>
      <trkpt lat="46.08201" lon="6.70552">
        <ele>682.761117</ele>
        <time>2023-03-21T09:03:54.034Z</time>
      </trkpt>
      <trkpt lat="46.08198" lon="6.70563">
        <ele>682.841604</ele>
        <time>2023-03-21T09:03:57.210Z</time>
      </trkpt>
      <trkpt lat="46.08198" lon="6.7058">
        <ele>682.948151</ele>
        <time>2023-03-21T09:04:01.332Z</time>
      </trkpt>
      <trkpt lat="46.08189" lon="6.70598">
        <ele>683.091053</ele>
        <time>2023-03-21T09:04:06.612Z</time>
      </trkpt>
      <trkpt lat="46.08184" lon="6.70618">
        <ele>683.22006</ele>
        <time>2023-03-21T09:04:12.149Z</time>
      </trkpt>
      <trkpt lat="46.08175" lon="6.70635">
        <ele>683.308692</ele>
        <time>2023-03-21T09:04:17.389Z</time>
      </trkpt>
      <trkpt lat="46.08171" lon="6.70688">
        <ele>683.534965</ele>
        <time>2023-03-21T09:04:30.804Z</time>
      </trkpt>
      <trkpt lat="46.08179" lon="6.70709">
        <ele>683.634194</ele>
        <time>2023-03-21T09:04:36.579Z</time>
      </trkpt>
      <trkpt lat="46.08174" lon="6.70727">
        <ele>683.716804</ele>
        <time>2023-03-21T09:04:41.491Z</time>
      </trkpt>
      <trkpt lat="46.08181" lon="6.70733">
        <ele>683.767581</ele>
        <time>2023-03-21T09:04:44.235Z</time>
      </trkpt>
      <trkpt lat="46.08191" lon="6.70741">
        <ele>683.832443</ele>
        <time>2023-03-21T09:04:47.633Z</time>
      </trkpt>
      <trkpt lat="46.08201" lon="6.70749">
        <ele>683.902245</ele>
        <time>2023-03-21T09:04:51.768Z</time>
      </trkpt>
      <trkpt lat="46.08215" lon="6.70767">
        <ele>684.018042</ele>
        <time>2023-03-21T09:04:58.062Z</time>
      </trkpt>
      <trkpt lat="46.08233" lon="6.70847">
        <ele>684.316653</ele>
        <time>2023-03-21T09:05:17.988Z</time>
      </trkpt>
      <trkpt lat="46.08243" lon="6.7091">
        <ele>684.420247</ele>
        <time>2023-03-21T09:05:33.110Z</time>
      </trkpt>
      <trkpt lat="46.08243" lon="6.7091">
        <ele>684.420247</ele>
        <time>2023-03-21T09:05:33.128Z</time>
      </trkpt>
      <trkpt lat="46.08222" lon="6.70917">
        <ele>684.470964</ele>
        <time>2023-03-21T09:05:42.533Z</time>
      </trkpt>
      <trkpt lat="46.08191" lon="6.70925">
        <ele>684.543594</ele>
        <time>2023-03-21T09:05:56.002Z</time>
      </trkpt>
      <trkpt lat="46.08171" lon="6.70913">
        <ele>684.593554</ele>
        <time>2023-03-21T09:06:05.267Z</time>
      </trkpt>
      <trkpt lat="46.08149" lon="6.70919">
        <ele>684.645192</ele>
        <time>2023-03-21T09:06:14.842Z</time>
      </trkpt>
      <trkpt lat="46.08152" lon="6.70947">
        <ele>684.690514</ele>
        <time>2023-03-21T09:06:23.247Z</time>
      </trkpt>
      <trkpt lat="46.0815" lon="6.70958">
        <ele>684.704653</ele>
        <time>2023-03-21T09:06:26.620Z</time>
      </trkpt>
      <trkpt lat="46.08136" lon="6.70986">
        <ele>684.737044</ele>
        <time>2023-03-21T09:06:36.860Z</time>
      </trkpt>
      <trkpt lat="46.08129" lon="6.7096">
        <ele>684.763217</ele>
        <time>2023-03-21T09:06:45.133Z</time>
      </trkpt>
      <trkpt lat="46.08129" lon="6.7096">
        <ele>684.763382</ele>
        <time>2023-03-21T09:06:45.195Z</time>
      </trkpt>
      <trkpt lat="46.08129" lon="6.70959">
        <ele>684.76418</ele>
        <time>2023-03-21T09:06:45.340Z</time>
      </trkpt>
      <trkpt lat="46.08108" lon="6.70939">
        <ele>684.798381</ele>
        <time>2023-03-21T09:06:53.417Z</time>
      </trkpt>
      <trkpt lat="46.08094" lon="6.70912">
        <ele>684.82993</ele>
        <time>2023-03-21T09:07:00.924Z</time>
      </trkpt>
      <trkpt lat="46.0809" lon="6.70904">
        <ele>684.838958</ele>
        <time>2023-03-21T09:07:03.039Z</time>
      </trkpt>
      <trkpt lat="46.08081" lon="6.70896">
        <ele>684.853543</ele>
        <time>2023-03-21T09:07:06.451Z</time>
      </trkpt>
      <trkpt lat="46.08075" lon="6.70895">
        <ele>684.861457</ele>
        <time>2023-03-21T09:07:08.428Z</time>
      </trkpt>
      <trkpt lat="46.08042" lon="6.70899">
        <ele>684.906936</ele>
        <time>2023-03-21T09:07:19.080Z</time>
      </trkpt>
      <trkpt lat="46.08016" lon="6.70896">
        <ele>684.940969</ele>
        <time>2023-03-21T09:07:27.392Z</time>
      </trkpt>
      <trkpt lat="46.0801" lon="6.70899">
        <ele>684.978788</ele>
        <time>2023-03-21T09:07:30.068Z</time>
      </trkpt>
      <trkpt lat="46.08002" lon="6.70911">
        <ele>685.046073</ele>
        <time>2023-03-21T09:07:33.768Z</time>
      </trkpt>
      <trkpt lat="46.07984" lon="6.70956">
        <ele>685.26322</ele>
        <time>2023-03-21T09:07:45.805Z</time>
      </trkpt>
      <trkpt lat="46.07971" lon="6.71006">
        <ele>685.491203</ele>
        <time>2023-03-21T09:07:58.570Z</time>
      </trkpt>
      <trkpt lat="46.0797" lon="6.71008">
        <ele>685.502851</ele>
        <time>2023-03-21T09:07:59.239Z</time>
      </trkpt>
      <trkpt lat="46.07962" lon="6.71019">
        <ele>685.569403</ele>
        <time>2023-03-21T09:08:03.010Z</time>
      </trkpt>
      <trkpt lat="46.07928" lon="6.71043">
        <ele>685.796002</ele>
        <time>2023-03-21T09:08:16.420Z</time>
      </trkpt>
      <trkpt lat="46.07929" lon="6.71055">
        <ele>685.849445</ele>
        <time>2023-03-21T09:08:20.137Z</time>
      </trkpt>
      <trkpt lat="46.07919" lon="6.71103">
        <ele>686.031826</ele>
        <time>2023-03-21T09:08:32.737Z</time>
      </trkpt>
      <trkpt lat="46.07917" lon="6.71113">
        <ele>686.031826</ele>
        <time>2023-03-21T09:08:35.353Z</time>
      </trkpt>
      <trkpt lat="46.07912" lon="6.71169">
        <ele>686.031826</ele>
        <time>2023-03-21T09:08:49.356Z</time>
      </trkpt>
      <trkpt lat="46.07903" lon="6.71192">
        <ele>686.031826</ele>
        <time>2023-03-21T09:08:55.712Z</time>
      </trkpt>
      <trkpt lat="46.07898" lon="6.7121">
        <ele>686.031826</ele>
        <time>2023-03-21T09:09:01.146Z</time>
      </trkpt>
      <trkpt lat="46.07894" lon="6.71244">
        <ele>686.031826</ele>
        <time>2023-03-21T09:09:09.364Z</time>
      </trkpt>
      <trkpt lat="46.07887" lon="6.7126">
        <ele>686.031826</ele>
        <time>2023-03-21T09:09:14.440Z</time>
      </trkpt>
      <trkpt lat="46.07881" lon="6.71268">
        <ele>686.031826</ele>
        <time>2023-03-21T09:09:17.167Z</time>
      </trkpt>
      <trkpt lat="46.07892" lon="6.71269">
        <ele>686.031826</ele>
        <time>2023-03-21T09:09:19.749Z</time>
      </trkpt>
      <trkpt lat="46.07901" lon="6.71273">
        <ele>686.031826</ele>
        <time>2023-03-21T09:09:22.825Z</time>
      </trkpt>
    </trkseg>
  </trk>
</gpx>